<?xml version="1.0" encoding="UTF-8" standalone="no" ?>
<gpx xmlns="http://www.topografix.com/GPX/1/1" xmlns:xsi="http://www.w3.org/2001/XMLSchema-instance" xsi:schemaLocation="http://www.topografix.com/GPX/1/1 http://www.topografix.com/GPX/1/1/gpx.xsd" version="1.1" creator="VisuGPX - https://www.visugpx.com">
  <metadata>
    <name>Machais - Blanchemer - Honeck - Rainkopf - Machais</name>
    <desc><![CDATA[#vosges #hohneck #machais #rainkopt #blanchemer #kastelberg]]></desc>
  </metadata>
  <trk>
    <name><![CDATA[Tracé actuel: 27 JUIN 2021 09:46]]></name>
    <extensions>
      <line xmlns="http://www.topografix.com/GPX/gpx_style/0/2">
        <color>0000FF</color>
        <width>4</width>
      </line>
    </extensions>
    <trkseg>
      <trkpt lat="48.01043" lon="6.95554">
        <ele>967.7</ele>
        <time>2021-06-27T07:46:05Z</time>
      </trkpt>
      <trkpt lat="48.01043" lon="6.95554">
        <ele>967.7</ele>
        <time>2021-06-27T07:46:05Z</time>
      </trkpt>
      <trkpt lat="48.01056" lon="6.95558">
        <ele>975.88</ele>
        <time>2021-06-27T07:46:13Z</time>
      </trkpt>
      <trkpt lat="48.0106" lon="6.95559">
        <ele>977.32</ele>
        <time>2021-06-27T07:46:15Z</time>
      </trkpt>
      <trkpt lat="48.01094" lon="6.95554">
        <ele>976.84</ele>
        <time>2021-06-27T07:46:33Z</time>
      </trkpt>
      <trkpt lat="48.01124" lon="6.95548">
        <ele>974.91</ele>
        <time>2021-06-27T07:46:49Z</time>
      </trkpt>
      <trkpt lat="48.01144" lon="6.95531">
        <ele>972.03</ele>
        <time>2021-06-27T07:47:06Z</time>
      </trkpt>
      <trkpt lat="48.01155" lon="6.95525">
        <ele>968.18</ele>
        <time>2021-06-27T07:47:17Z</time>
      </trkpt>
      <trkpt lat="48.01176" lon="6.95509">
        <ele>963.86</ele>
        <time>2021-06-27T07:47:36Z</time>
      </trkpt>
      <trkpt lat="48.01195" lon="6.9549">
        <ele>962.9</ele>
        <time>2021-06-27T07:47:53Z</time>
      </trkpt>
      <trkpt lat="48.01216" lon="6.95479">
        <ele>963.38</ele>
        <time>2021-06-27T07:48:10Z</time>
      </trkpt>
      <trkpt lat="48.01225" lon="6.95456">
        <ele>966.74</ele>
        <time>2021-06-27T07:48:29Z</time>
      </trkpt>
      <trkpt lat="48.01244" lon="6.95446">
        <ele>967.7</ele>
        <time>2021-06-27T07:48:47Z</time>
      </trkpt>
      <trkpt lat="48.01258" lon="6.9544">
        <ele>969.63</ele>
        <time>2021-06-27T07:49:04Z</time>
      </trkpt>
      <trkpt lat="48.01277" lon="6.95432">
        <ele>972.03</ele>
        <time>2021-06-27T07:49:20Z</time>
      </trkpt>
      <trkpt lat="48.01299" lon="6.95425">
        <ele>972.99</ele>
        <time>2021-06-27T07:49:37Z</time>
      </trkpt>
      <trkpt lat="48.01317" lon="6.95411">
        <ele>973.95</ele>
        <time>2021-06-27T07:49:56Z</time>
      </trkpt>
      <trkpt lat="48.01332" lon="6.95402">
        <ele>975.39</ele>
        <time>2021-06-27T07:50:13Z</time>
      </trkpt>
      <trkpt lat="48.0135" lon="6.95394">
        <ele>979.24</ele>
        <time>2021-06-27T07:50:31Z</time>
      </trkpt>
      <trkpt lat="48.01374" lon="6.95385">
        <ele>979.24</ele>
        <time>2021-06-27T07:50:49Z</time>
      </trkpt>
      <trkpt lat="48.014" lon="6.95379">
        <ele>980.68</ele>
        <time>2021-06-27T07:51:12Z</time>
      </trkpt>
      <trkpt lat="48.01421" lon="6.95377">
        <ele>981.64</ele>
        <time>2021-06-27T07:51:31Z</time>
      </trkpt>
      <trkpt lat="48.01449" lon="6.95375">
        <ele>983.57</ele>
        <time>2021-06-27T07:51:51Z</time>
      </trkpt>
      <trkpt lat="48.01476" lon="6.95383">
        <ele>987.41</ele>
        <time>2021-06-27T07:52:09Z</time>
      </trkpt>
      <trkpt lat="48.0149" lon="6.95377">
        <ele>991.26</ele>
        <time>2021-06-27T07:52:27Z</time>
      </trkpt>
      <trkpt lat="48.01511" lon="6.95381">
        <ele>996.54</ele>
        <time>2021-06-27T07:52:49Z</time>
      </trkpt>
      <trkpt lat="48.01516" lon="6.95384">
        <ele>997.02</ele>
        <time>2021-06-27T07:52:53Z</time>
      </trkpt>
      <trkpt lat="48.01538" lon="6.95394">
        <ele>998.95</ele>
        <time>2021-06-27T07:53:12Z</time>
      </trkpt>
      <trkpt lat="48.01557" lon="6.95409">
        <ele>1002.31</ele>
        <time>2021-06-27T07:53:30Z</time>
      </trkpt>
      <trkpt lat="48.01558" lon="6.9541">
        <ele>1002.31</ele>
        <time>2021-06-27T07:53:32Z</time>
      </trkpt>
      <trkpt lat="48.01561" lon="6.95414">
        <ele>1002.31</ele>
        <time>2021-06-27T07:53:35Z</time>
      </trkpt>
      <trkpt lat="48.01577" lon="6.95434">
        <ele>1003.75</ele>
        <time>2021-06-27T07:53:53Z</time>
      </trkpt>
      <trkpt lat="48.01595" lon="6.95464">
        <ele>1005.2</ele>
        <time>2021-06-27T07:54:12Z</time>
      </trkpt>
      <trkpt lat="48.0161" lon="6.95494">
        <ele>1007.6</ele>
        <time>2021-06-27T07:54:33Z</time>
      </trkpt>
      <trkpt lat="48.0162" lon="6.95521">
        <ele>1008.08</ele>
        <time>2021-06-27T07:54:50Z</time>
      </trkpt>
      <trkpt lat="48.01626" lon="6.95552">
        <ele>1010.48</ele>
        <time>2021-06-27T07:55:09Z</time>
      </trkpt>
      <trkpt lat="48.01631" lon="6.95568">
        <ele>1010.96</ele>
        <time>2021-06-27T07:55:21Z</time>
      </trkpt>
      <trkpt lat="48.01637" lon="6.95595">
        <ele>1010.48</ele>
        <time>2021-06-27T07:55:39Z</time>
      </trkpt>
      <trkpt lat="48.01643" lon="6.95617">
        <ele>1010.48</ele>
        <time>2021-06-27T07:55:55Z</time>
      </trkpt>
      <trkpt lat="48.0165" lon="6.9565">
        <ele>1008.56</ele>
        <time>2021-06-27T07:56:14Z</time>
      </trkpt>
      <trkpt lat="48.01667" lon="6.95692">
        <ele>999.43</ele>
        <time>2021-06-27T07:56:30Z</time>
      </trkpt>
      <trkpt lat="48.01677" lon="6.95727">
        <ele>997.51</ele>
        <time>2021-06-27T07:56:50Z</time>
      </trkpt>
      <trkpt lat="48.0168" lon="6.95758">
        <ele>995.1</ele>
        <time>2021-06-27T07:57:09Z</time>
      </trkpt>
      <trkpt lat="48.01686" lon="6.95789">
        <ele>989.33</ele>
        <time>2021-06-27T07:57:29Z</time>
      </trkpt>
      <trkpt lat="48.01695" lon="6.95816">
        <ele>986.93</ele>
        <time>2021-06-27T07:57:48Z</time>
      </trkpt>
      <trkpt lat="48.01696" lon="6.95822">
        <ele>986.93</ele>
        <time>2021-06-27T07:57:52Z</time>
      </trkpt>
      <trkpt lat="48.01698" lon="6.95845">
        <ele>988.85</ele>
        <time>2021-06-27T07:58:06Z</time>
      </trkpt>
      <trkpt lat="48.017" lon="6.95882">
        <ele>991.74</ele>
        <time>2021-06-27T07:58:25Z</time>
      </trkpt>
      <trkpt lat="48.01696" lon="6.95915">
        <ele>992.22</ele>
        <time>2021-06-27T07:58:42Z</time>
      </trkpt>
      <trkpt lat="48.01694" lon="6.95931">
        <ele>992.22</ele>
        <time>2021-06-27T07:58:51Z</time>
      </trkpt>
      <trkpt lat="48.01687" lon="6.95963">
        <ele>992.7</ele>
        <time>2021-06-27T07:59:09Z</time>
      </trkpt>
      <trkpt lat="48.01682" lon="6.95983">
        <ele>992.22</ele>
        <time>2021-06-27T07:59:23Z</time>
      </trkpt>
      <trkpt lat="48.01678" lon="6.96003">
        <ele>993.18</ele>
        <time>2021-06-27T07:59:37Z</time>
      </trkpt>
      <trkpt lat="48.01675" lon="6.96031">
        <ele>996.06</ele>
        <time>2021-06-27T07:59:54Z</time>
      </trkpt>
      <trkpt lat="48.01666" lon="6.96069">
        <ele>997.99</ele>
        <time>2021-06-27T08:00:15Z</time>
      </trkpt>
      <trkpt lat="48.0167" lon="6.96099">
        <ele>997.99</ele>
        <time>2021-06-27T08:00:33Z</time>
      </trkpt>
      <trkpt lat="48.01691" lon="6.96122">
        <ele>1003.75</ele>
        <time>2021-06-27T08:00:52Z</time>
      </trkpt>
      <trkpt lat="48.0171" lon="6.96144">
        <ele>1006.64</ele>
        <time>2021-06-27T08:01:11Z</time>
      </trkpt>
      <trkpt lat="48.01718" lon="6.9615">
        <ele>1007.12</ele>
        <time>2021-06-27T08:01:19Z</time>
      </trkpt>
      <trkpt lat="48.01753" lon="6.96163">
        <ele>1010.48</ele>
        <time>2021-06-27T08:01:40Z</time>
      </trkpt>
      <trkpt lat="48.01775" lon="6.96166">
        <ele>1011.93</ele>
        <time>2021-06-27T08:01:57Z</time>
      </trkpt>
      <trkpt lat="48.01796" lon="6.96164">
        <ele>1013.37</ele>
        <time>2021-06-27T08:02:14Z</time>
      </trkpt>
      <trkpt lat="48.01814" lon="6.96155">
        <ele>1017.21</ele>
        <time>2021-06-27T08:02:31Z</time>
      </trkpt>
      <trkpt lat="48.01838" lon="6.96146">
        <ele>1028.27</ele>
        <time>2021-06-27T08:02:51Z</time>
      </trkpt>
      <trkpt lat="48.01854" lon="6.96148">
        <ele>1035</ele>
        <time>2021-06-27T08:03:09Z</time>
      </trkpt>
      <trkpt lat="48.01878" lon="6.96145">
        <ele>1041.25</ele>
        <time>2021-06-27T08:03:26Z</time>
      </trkpt>
      <trkpt lat="48.01896" lon="6.96133">
        <ele>1044.61</ele>
        <time>2021-06-27T08:03:45Z</time>
      </trkpt>
      <trkpt lat="48.01906" lon="6.96122">
        <ele>1044.61</ele>
        <time>2021-06-27T08:03:59Z</time>
      </trkpt>
      <trkpt lat="48.01927" lon="6.96112">
        <ele>1045.09</ele>
        <time>2021-06-27T08:04:17Z</time>
      </trkpt>
      <trkpt lat="48.01953" lon="6.96092">
        <ele>1046.05</ele>
        <time>2021-06-27T08:04:38Z</time>
      </trkpt>
      <trkpt lat="48.01966" lon="6.96067">
        <ele>1048.45</ele>
        <time>2021-06-27T08:04:56Z</time>
      </trkpt>
      <trkpt lat="48.01972" lon="6.96062">
        <ele>1047.97</ele>
        <time>2021-06-27T08:05:02Z</time>
      </trkpt>
      <trkpt lat="48.01989" lon="6.9606">
        <ele>1049.42</ele>
        <time>2021-06-27T08:05:16Z</time>
      </trkpt>
      <trkpt lat="48.02006" lon="6.96059">
        <ele>1052.3</ele>
        <time>2021-06-27T08:05:34Z</time>
      </trkpt>
      <trkpt lat="48.02022" lon="6.96063">
        <ele>1051.82</ele>
        <time>2021-06-27T08:05:50Z</time>
      </trkpt>
      <trkpt lat="48.02037" lon="6.96076">
        <ele>1049.9</ele>
        <time>2021-06-27T08:06:03Z</time>
      </trkpt>
      <trkpt lat="48.02045" lon="6.96093">
        <ele>1047.01</ele>
        <time>2021-06-27T08:06:16Z</time>
      </trkpt>
      <trkpt lat="48.02043" lon="6.96101">
        <ele>1044.13</ele>
        <time>2021-06-27T08:06:23Z</time>
      </trkpt>
      <trkpt lat="48.02033" lon="6.96118">
        <ele>1041.73</ele>
        <time>2021-06-27T08:06:38Z</time>
      </trkpt>
      <trkpt lat="48.02032" lon="6.9612">
        <ele>1041.73</ele>
        <time>2021-06-27T08:06:40Z</time>
      </trkpt>
      <trkpt lat="48.02024" lon="6.96128">
        <ele>1040.76</ele>
        <time>2021-06-27T08:06:49Z</time>
      </trkpt>
      <trkpt lat="48.02009" lon="6.96153">
        <ele>1035.96</ele>
        <time>2021-06-27T08:07:08Z</time>
      </trkpt>
      <trkpt lat="48.01994" lon="6.96173">
        <ele>1034.52</ele>
        <time>2021-06-27T08:07:24Z</time>
      </trkpt>
      <trkpt lat="48.01987" lon="6.96185">
        <ele>1031.15</ele>
        <time>2021-06-27T08:07:34Z</time>
      </trkpt>
      <trkpt lat="48.0198" lon="6.96189">
        <ele>1029.71</ele>
        <time>2021-06-27T08:07:40Z</time>
      </trkpt>
      <trkpt lat="48.01963" lon="6.96209">
        <ele>1026.83</ele>
        <time>2021-06-27T08:07:58Z</time>
      </trkpt>
      <trkpt lat="48.01958" lon="6.96225">
        <ele>1028.27</ele>
        <time>2021-06-27T08:08:13Z</time>
      </trkpt>
      <trkpt lat="48.01946" lon="6.96248">
        <ele>1027.31</ele>
        <time>2021-06-27T08:08:30Z</time>
      </trkpt>
      <trkpt lat="48.01935" lon="6.96274">
        <ele>1020.58</ele>
        <time>2021-06-27T08:08:47Z</time>
      </trkpt>
      <trkpt lat="48.01923" lon="6.96296">
        <ele>1015.77</ele>
        <time>2021-06-27T08:09:03Z</time>
      </trkpt>
      <trkpt lat="48.01908" lon="6.96319">
        <ele>1014.81</ele>
        <time>2021-06-27T08:09:21Z</time>
      </trkpt>
      <trkpt lat="48.01895" lon="6.96348">
        <ele>1016.25</ele>
        <time>2021-06-27T08:09:40Z</time>
      </trkpt>
      <trkpt lat="48.01883" lon="6.96371">
        <ele>1017.21</ele>
        <time>2021-06-27T08:09:59Z</time>
      </trkpt>
      <trkpt lat="48.01868" lon="6.96385">
        <ele>1021.54</ele>
        <time>2021-06-27T08:10:17Z</time>
      </trkpt>
      <trkpt lat="48.01857" lon="6.96394">
        <ele>1024.9</ele>
        <time>2021-06-27T08:10:26Z</time>
      </trkpt>
      <trkpt lat="48.0185" lon="6.9642">
        <ele>1023.94</ele>
        <time>2021-06-27T08:10:40Z</time>
      </trkpt>
      <trkpt lat="48.0186" lon="6.96444">
        <ele>1025.86</ele>
        <time>2021-06-27T08:10:58Z</time>
      </trkpt>
      <trkpt lat="48.0186" lon="6.96463">
        <ele>1025.86</ele>
        <time>2021-06-27T08:11:07Z</time>
      </trkpt>
      <trkpt lat="48.01856" lon="6.96482">
        <ele>1024.42</ele>
        <time>2021-06-27T08:11:16Z</time>
      </trkpt>
      <trkpt lat="48.01848" lon="6.96517">
        <ele>1017.21</ele>
        <time>2021-06-27T08:11:34Z</time>
      </trkpt>
      <trkpt lat="48.01843" lon="6.96542">
        <ele>1010</ele>
        <time>2021-06-27T08:11:52Z</time>
      </trkpt>
      <trkpt lat="48.0184" lon="6.96562">
        <ele>1006.64</ele>
        <time>2021-06-27T08:12:07Z</time>
      </trkpt>
      <trkpt lat="48.01831" lon="6.96593">
        <ele>1001.35</ele>
        <time>2021-06-27T08:12:25Z</time>
      </trkpt>
      <trkpt lat="48.01828" lon="6.96597">
        <ele>1000.39</ele>
        <time>2021-06-27T08:12:29Z</time>
      </trkpt>
      <trkpt lat="48.01826" lon="6.96601">
        <ele>999.43</ele>
        <time>2021-06-27T08:12:32Z</time>
      </trkpt>
      <trkpt lat="48.01818" lon="6.96627">
        <ele>995.58</ele>
        <time>2021-06-27T08:12:49Z</time>
      </trkpt>
      <trkpt lat="48.01818" lon="6.96629">
        <ele>995.58</ele>
        <time>2021-06-27T08:12:50Z</time>
      </trkpt>
      <trkpt lat="48.01816" lon="6.96643">
        <ele>993.66</ele>
        <time>2021-06-27T08:12:58Z</time>
      </trkpt>
      <trkpt lat="48.01809" lon="6.96662">
        <ele>990.78</ele>
        <time>2021-06-27T08:13:14Z</time>
      </trkpt>
      <trkpt lat="48.01792" lon="6.96681">
        <ele>990.3</ele>
        <time>2021-06-27T08:13:35Z</time>
      </trkpt>
      <trkpt lat="48.01788" lon="6.96706">
        <ele>991.26</ele>
        <time>2021-06-27T08:13:54Z</time>
      </trkpt>
      <trkpt lat="48.0177" lon="6.96723">
        <ele>989.81</ele>
        <time>2021-06-27T08:14:10Z</time>
      </trkpt>
      <trkpt lat="48.0176" lon="6.96743">
        <ele>988.37</ele>
        <time>2021-06-27T08:14:26Z</time>
      </trkpt>
      <trkpt lat="48.01751" lon="6.9676">
        <ele>987.41</ele>
        <time>2021-06-27T08:14:39Z</time>
      </trkpt>
      <trkpt lat="48.01744" lon="6.96787">
        <ele>985.01</ele>
        <time>2021-06-27T08:14:55Z</time>
      </trkpt>
      <trkpt lat="48.01744" lon="6.96793">
        <ele>985.49</ele>
        <time>2021-06-27T08:14:58Z</time>
      </trkpt>
      <trkpt lat="48.0175" lon="6.96822">
        <ele>985.01</ele>
        <time>2021-06-27T08:15:14Z</time>
      </trkpt>
      <trkpt lat="48.01751" lon="6.9685">
        <ele>984.53</ele>
        <time>2021-06-27T08:15:31Z</time>
      </trkpt>
      <trkpt lat="48.01752" lon="6.9688">
        <ele>981.16</ele>
        <time>2021-06-27T08:15:49Z</time>
      </trkpt>
      <trkpt lat="48.01754" lon="6.96907">
        <ele>978.76</ele>
        <time>2021-06-27T08:16:04Z</time>
      </trkpt>
      <trkpt lat="48.01757" lon="6.96916">
        <ele>977.8</ele>
        <time>2021-06-27T08:16:10Z</time>
      </trkpt>
      <trkpt lat="48.01758" lon="6.96933">
        <ele>974.91</ele>
        <time>2021-06-27T08:16:18Z</time>
      </trkpt>
      <trkpt lat="48.01764" lon="6.96962">
        <ele>977.32</ele>
        <time>2021-06-27T08:16:36Z</time>
      </trkpt>
      <trkpt lat="48.01771" lon="6.96987">
        <ele>980.2</ele>
        <time>2021-06-27T08:16:53Z</time>
      </trkpt>
      <trkpt lat="48.01776" lon="6.97004">
        <ele>981.16</ele>
        <time>2021-06-27T08:17:03Z</time>
      </trkpt>
      <trkpt lat="48.01785" lon="6.97031">
        <ele>984.05</ele>
        <time>2021-06-27T08:17:19Z</time>
      </trkpt>
      <trkpt lat="48.018" lon="6.97054">
        <ele>987.41</ele>
        <time>2021-06-27T08:17:38Z</time>
      </trkpt>
      <trkpt lat="48.01802" lon="6.97057">
        <ele>988.85</ele>
        <time>2021-06-27T08:17:40Z</time>
      </trkpt>
      <trkpt lat="48.01825" lon="6.9708">
        <ele>993.18</ele>
        <time>2021-06-27T08:17:58Z</time>
      </trkpt>
      <trkpt lat="48.01841" lon="6.97095">
        <ele>994.14</ele>
        <time>2021-06-27T08:18:14Z</time>
      </trkpt>
      <trkpt lat="48.01853" lon="6.97107">
        <ele>996.06</ele>
        <time>2021-06-27T08:18:26Z</time>
      </trkpt>
      <trkpt lat="48.01868" lon="6.97128">
        <ele>997.99</ele>
        <time>2021-06-27T08:18:44Z</time>
      </trkpt>
      <trkpt lat="48.01872" lon="6.97137">
        <ele>997.51</ele>
        <time>2021-06-27T08:18:51Z</time>
      </trkpt>
      <trkpt lat="48.0188" lon="6.97151">
        <ele>994.14</ele>
        <time>2021-06-27T08:19:09Z</time>
      </trkpt>
      <trkpt lat="48.01881" lon="6.9716">
        <ele>990.3</ele>
        <time>2021-06-27T08:19:28Z</time>
      </trkpt>
      <trkpt lat="48.01888" lon="6.97168">
        <ele>987.41</ele>
        <time>2021-06-27T08:19:42Z</time>
      </trkpt>
      <trkpt lat="48.01894" lon="6.97162">
        <ele>985.49</ele>
        <time>2021-06-27T08:19:59Z</time>
      </trkpt>
      <trkpt lat="48.01904" lon="6.97152">
        <ele>983.57</ele>
        <time>2021-06-27T08:20:17Z</time>
      </trkpt>
      <trkpt lat="48.01909" lon="6.97151">
        <ele>981.16</ele>
        <time>2021-06-27T08:20:29Z</time>
      </trkpt>
      <trkpt lat="48.01908" lon="6.97148">
        <ele>980.2</ele>
        <time>2021-06-27T08:20:50Z</time>
      </trkpt>
      <trkpt lat="48.01911" lon="6.97143">
        <ele>980.2</ele>
        <time>2021-06-27T08:21:18Z</time>
      </trkpt>
      <trkpt lat="48.01918" lon="6.97146">
        <ele>980.68</ele>
        <time>2021-06-27T08:21:32Z</time>
      </trkpt>
      <trkpt lat="48.01936" lon="6.97148">
        <ele>982.12</ele>
        <time>2021-06-27T08:22:02Z</time>
      </trkpt>
      <trkpt lat="48.01939" lon="6.97148">
        <ele>982.12</ele>
        <time>2021-06-27T08:22:32Z</time>
      </trkpt>
      <trkpt lat="48.01932" lon="6.9715">
        <ele>982.6</ele>
        <time>2021-06-27T08:22:47Z</time>
      </trkpt>
      <trkpt lat="48.01912" lon="6.97152">
        <ele>983.09</ele>
        <time>2021-06-27T08:23:12Z</time>
      </trkpt>
      <trkpt lat="48.01906" lon="6.97145">
        <ele>984.05</ele>
        <time>2021-06-27T08:23:30Z</time>
      </trkpt>
      <trkpt lat="48.01902" lon="6.97141">
        <ele>985.01</ele>
        <time>2021-06-27T08:23:34Z</time>
      </trkpt>
      <trkpt lat="48.01885" lon="6.97137">
        <ele>984.53</ele>
        <time>2021-06-27T08:23:58Z</time>
      </trkpt>
      <trkpt lat="48.01914" lon="6.9714">
        <ele>983.57</ele>
        <time>2021-06-27T08:24:16Z</time>
      </trkpt>
      <trkpt lat="48.01908" lon="6.9714">
        <ele>980.2</ele>
        <time>2021-06-27T08:24:39Z</time>
      </trkpt>
      <trkpt lat="48.019" lon="6.97143">
        <ele>981.16</ele>
        <time>2021-06-27T08:25:00Z</time>
      </trkpt>
      <trkpt lat="48.01894" lon="6.97162">
        <ele>978.28</ele>
        <time>2021-06-27T08:25:19Z</time>
      </trkpt>
      <trkpt lat="48.01892" lon="6.97164">
        <ele>977.32</ele>
        <time>2021-06-27T08:25:21Z</time>
      </trkpt>
      <trkpt lat="48.01894" lon="6.97176">
        <ele>974.43</ele>
        <time>2021-06-27T08:25:29Z</time>
      </trkpt>
      <trkpt lat="48.01908" lon="6.97202">
        <ele>970.59</ele>
        <time>2021-06-27T08:25:49Z</time>
      </trkpt>
      <trkpt lat="48.01915" lon="6.97226">
        <ele>971.07</ele>
        <time>2021-06-27T08:26:04Z</time>
      </trkpt>
      <trkpt lat="48.01927" lon="6.97249">
        <ele>969.15</ele>
        <time>2021-06-27T08:26:22Z</time>
      </trkpt>
      <trkpt lat="48.01934" lon="6.97267">
        <ele>968.18</ele>
        <time>2021-06-27T08:26:36Z</time>
      </trkpt>
      <trkpt lat="48.01943" lon="6.97298">
        <ele>965.78</ele>
        <time>2021-06-27T08:26:54Z</time>
      </trkpt>
      <trkpt lat="48.01951" lon="6.97301">
        <ele>964.34</ele>
        <time>2021-06-27T08:27:10Z</time>
      </trkpt>
      <trkpt lat="48.01958" lon="6.97295">
        <ele>963.38</ele>
        <time>2021-06-27T08:27:19Z</time>
      </trkpt>
      <trkpt lat="48.01957" lon="6.97265">
        <ele>963.38</ele>
        <time>2021-06-27T08:27:37Z</time>
      </trkpt>
      <trkpt lat="48.0197" lon="6.97251">
        <ele>962.9</ele>
        <time>2021-06-27T08:27:55Z</time>
      </trkpt>
      <trkpt lat="48.01971" lon="6.97261">
        <ele>963.38</ele>
        <time>2021-06-27T08:28:11Z</time>
      </trkpt>
      <trkpt lat="48.01968" lon="6.97292">
        <ele>962.9</ele>
        <time>2021-06-27T08:28:32Z</time>
      </trkpt>
      <trkpt lat="48.01967" lon="6.97325">
        <ele>962.42</ele>
        <time>2021-06-27T08:28:55Z</time>
      </trkpt>
      <trkpt lat="48.01962" lon="6.97356">
        <ele>960.01</ele>
        <time>2021-06-27T08:29:18Z</time>
      </trkpt>
      <trkpt lat="48.01948" lon="6.97393">
        <ele>956.65</ele>
        <time>2021-06-27T08:29:35Z</time>
      </trkpt>
      <trkpt lat="48.01936" lon="6.97428">
        <ele>953.28</ele>
        <time>2021-06-27T08:29:57Z</time>
      </trkpt>
      <trkpt lat="48.01921" lon="6.97458">
        <ele>949.92</ele>
        <time>2021-06-27T08:30:18Z</time>
      </trkpt>
      <trkpt lat="48.01912" lon="6.97492">
        <ele>955.21</ele>
        <time>2021-06-27T08:30:39Z</time>
      </trkpt>
      <trkpt lat="48.01898" lon="6.97505">
        <ele>954.25</ele>
        <time>2021-06-27T08:30:56Z</time>
      </trkpt>
      <trkpt lat="48.01877" lon="6.97523">
        <ele>953.28</ele>
        <time>2021-06-27T08:31:14Z</time>
      </trkpt>
      <trkpt lat="48.01875" lon="6.97556">
        <ele>960.98</ele>
        <time>2021-06-27T08:31:32Z</time>
      </trkpt>
      <trkpt lat="48.01872" lon="6.9758">
        <ele>964.34</ele>
        <time>2021-06-27T08:31:46Z</time>
      </trkpt>
      <trkpt lat="48.01872" lon="6.97601">
        <ele>967.22</ele>
        <time>2021-06-27T08:32:01Z</time>
      </trkpt>
      <trkpt lat="48.01879" lon="6.97632">
        <ele>973.47</ele>
        <time>2021-06-27T08:32:18Z</time>
      </trkpt>
      <trkpt lat="48.01877" lon="6.97665">
        <ele>975.88</ele>
        <time>2021-06-27T08:32:33Z</time>
      </trkpt>
      <trkpt lat="48.01873" lon="6.97686">
        <ele>978.28</ele>
        <time>2021-06-27T08:32:46Z</time>
      </trkpt>
      <trkpt lat="48.01869" lon="6.97717">
        <ele>976.84</ele>
        <time>2021-06-27T08:33:04Z</time>
      </trkpt>
      <trkpt lat="48.01856" lon="6.97743">
        <ele>977.32</ele>
        <time>2021-06-27T08:33:23Z</time>
      </trkpt>
      <trkpt lat="48.0184" lon="6.9777">
        <ele>974.43</ele>
        <time>2021-06-27T08:33:42Z</time>
      </trkpt>
      <trkpt lat="48.01827" lon="6.97793">
        <ele>969.63</ele>
        <time>2021-06-27T08:33:59Z</time>
      </trkpt>
      <trkpt lat="48.01812" lon="6.97796">
        <ele>968.18</ele>
        <time>2021-06-27T08:34:17Z</time>
      </trkpt>
      <trkpt lat="48.01807" lon="6.97794">
        <ele>975.39</ele>
        <time>2021-06-27T08:34:31Z</time>
      </trkpt>
      <trkpt lat="48.01807" lon="6.97794">
        <ele>975.39</ele>
        <time>2021-06-27T08:35:00Z</time>
      </trkpt>
      <trkpt lat="48.01809" lon="6.97795">
        <ele>983.57</ele>
        <time>2021-06-27T08:35:39Z</time>
      </trkpt>
      <trkpt lat="48.01808" lon="6.97794">
        <ele>987.89</ele>
        <time>2021-06-27T08:36:04Z</time>
      </trkpt>
      <trkpt lat="48.01807" lon="6.97794">
        <ele>994.62</ele>
        <time>2021-06-27T08:36:37Z</time>
      </trkpt>
      <trkpt lat="48.0181" lon="6.97794">
        <ele>993.18</ele>
        <time>2021-06-27T08:37:03Z</time>
      </trkpt>
      <trkpt lat="48.0181" lon="6.97799">
        <ele>989.33</ele>
        <time>2021-06-27T08:37:33Z</time>
      </trkpt>
      <trkpt lat="48.01808" lon="6.97798">
        <ele>989.81</ele>
        <time>2021-06-27T08:37:55Z</time>
      </trkpt>
      <trkpt lat="48.0181" lon="6.97797">
        <ele>990.78</ele>
        <time>2021-06-27T08:38:21Z</time>
      </trkpt>
      <trkpt lat="48.01808" lon="6.97794">
        <ele>989.81</ele>
        <time>2021-06-27T08:38:47Z</time>
      </trkpt>
      <trkpt lat="48.01809" lon="6.97794">
        <ele>989.81</ele>
        <time>2021-06-27T08:39:14Z</time>
      </trkpt>
      <trkpt lat="48.01808" lon="6.97797">
        <ele>986.93</ele>
        <time>2021-06-27T08:39:39Z</time>
      </trkpt>
      <trkpt lat="48.0181" lon="6.97795">
        <ele>989.81</ele>
        <time>2021-06-27T08:40:05Z</time>
      </trkpt>
      <trkpt lat="48.0181" lon="6.97795">
        <ele>987.41</ele>
        <time>2021-06-27T08:40:33Z</time>
      </trkpt>
      <trkpt lat="48.01809" lon="6.97797">
        <ele>989.81</ele>
        <time>2021-06-27T08:40:58Z</time>
      </trkpt>
      <trkpt lat="48.01812" lon="6.97802">
        <ele>989.81</ele>
        <time>2021-06-27T08:41:03Z</time>
      </trkpt>
      <trkpt lat="48.01813" lon="6.97807">
        <ele>990.78</ele>
        <time>2021-06-27T08:41:06Z</time>
      </trkpt>
      <trkpt lat="48.01807" lon="6.97822">
        <ele>993.66</ele>
        <time>2021-06-27T08:41:17Z</time>
      </trkpt>
      <trkpt lat="48.01808" lon="6.97828">
        <ele>994.62</ele>
        <time>2021-06-27T08:41:22Z</time>
      </trkpt>
      <trkpt lat="48.01814" lon="6.97831">
        <ele>995.58</ele>
        <time>2021-06-27T08:41:41Z</time>
      </trkpt>
      <trkpt lat="48.01813" lon="6.9784">
        <ele>996.54</ele>
        <time>2021-06-27T08:42:03Z</time>
      </trkpt>
      <trkpt lat="48.01806" lon="6.97831">
        <ele>994.62</ele>
        <time>2021-06-27T08:42:14Z</time>
      </trkpt>
      <trkpt lat="48.01797" lon="6.97851">
        <ele>986.93</ele>
        <time>2021-06-27T08:42:30Z</time>
      </trkpt>
      <trkpt lat="48.01793" lon="6.97866">
        <ele>983.57</ele>
        <time>2021-06-27T08:42:39Z</time>
      </trkpt>
      <trkpt lat="48.01784" lon="6.97884">
        <ele>983.09</ele>
        <time>2021-06-27T08:42:54Z</time>
      </trkpt>
      <trkpt lat="48.01772" lon="6.97908">
        <ele>981.16</ele>
        <time>2021-06-27T08:43:12Z</time>
      </trkpt>
      <trkpt lat="48.0176" lon="6.97931">
        <ele>982.12</ele>
        <time>2021-06-27T08:43:28Z</time>
      </trkpt>
      <trkpt lat="48.0175" lon="6.97945">
        <ele>979.72</ele>
        <time>2021-06-27T08:43:39Z</time>
      </trkpt>
      <trkpt lat="48.01728" lon="6.9796">
        <ele>980.68</ele>
        <time>2021-06-27T08:43:59Z</time>
      </trkpt>
      <trkpt lat="48.01711" lon="6.97962">
        <ele>982.12</ele>
        <time>2021-06-27T08:44:14Z</time>
      </trkpt>
      <trkpt lat="48.01691" lon="6.97958">
        <ele>982.12</ele>
        <time>2021-06-27T08:44:31Z</time>
      </trkpt>
      <trkpt lat="48.01679" lon="6.97953">
        <ele>982.6</ele>
        <time>2021-06-27T08:44:44Z</time>
      </trkpt>
      <trkpt lat="48.01662" lon="6.97937">
        <ele>984.53</ele>
        <time>2021-06-27T08:45:01Z</time>
      </trkpt>
      <trkpt lat="48.0165" lon="6.97937">
        <ele>985.49</ele>
        <time>2021-06-27T08:45:13Z</time>
      </trkpt>
      <trkpt lat="48.01637" lon="6.97961">
        <ele>984.53</ele>
        <time>2021-06-27T08:45:31Z</time>
      </trkpt>
      <trkpt lat="48.01637" lon="6.97973">
        <ele>984.53</ele>
        <time>2021-06-27T08:45:49Z</time>
      </trkpt>
      <trkpt lat="48.01629" lon="6.97986">
        <ele>986.45</ele>
        <time>2021-06-27T08:46:09Z</time>
      </trkpt>
      <trkpt lat="48.01613" lon="6.98002">
        <ele>989.81</ele>
        <time>2021-06-27T08:46:30Z</time>
      </trkpt>
      <trkpt lat="48.016" lon="6.9801">
        <ele>995.1</ele>
        <time>2021-06-27T08:46:46Z</time>
      </trkpt>
      <trkpt lat="48.01584" lon="6.98004">
        <ele>995.58</ele>
        <time>2021-06-27T08:47:04Z</time>
      </trkpt>
      <trkpt lat="48.01582" lon="6.98005">
        <ele>995.1</ele>
        <time>2021-06-27T08:47:06Z</time>
      </trkpt>
      <trkpt lat="48.01562" lon="6.98">
        <ele>997.99</ele>
        <time>2021-06-27T08:47:27Z</time>
      </trkpt>
      <trkpt lat="48.01552" lon="6.97995">
        <ele>1000.87</ele>
        <time>2021-06-27T08:47:45Z</time>
      </trkpt>
      <trkpt lat="48.01539" lon="6.97972">
        <ele>1005.2</ele>
        <time>2021-06-27T08:48:07Z</time>
      </trkpt>
      <trkpt lat="48.01517" lon="6.97957">
        <ele>1010.48</ele>
        <time>2021-06-27T08:48:29Z</time>
      </trkpt>
      <trkpt lat="48.01503" lon="6.97966">
        <ele>1019.13</ele>
        <time>2021-06-27T08:48:52Z</time>
      </trkpt>
      <trkpt lat="48.01485" lon="6.97973">
        <ele>1027.31</ele>
        <time>2021-06-27T08:49:12Z</time>
      </trkpt>
      <trkpt lat="48.0147" lon="6.97968">
        <ele>1033.07</ele>
        <time>2021-06-27T08:49:34Z</time>
      </trkpt>
      <trkpt lat="48.01456" lon="6.9795">
        <ele>1035.96</ele>
        <time>2021-06-27T08:49:57Z</time>
      </trkpt>
      <trkpt lat="48.01445" lon="6.97933">
        <ele>1035.48</ele>
        <time>2021-06-27T08:50:15Z</time>
      </trkpt>
      <trkpt lat="48.01424" lon="6.97911">
        <ele>1037.4</ele>
        <time>2021-06-27T08:50:37Z</time>
      </trkpt>
      <trkpt lat="48.01412" lon="6.97906">
        <ele>1041.25</ele>
        <time>2021-06-27T08:50:58Z</time>
      </trkpt>
      <trkpt lat="48.014" lon="6.97904">
        <ele>1043.65</ele>
        <time>2021-06-27T08:51:15Z</time>
      </trkpt>
      <trkpt lat="48.01396" lon="6.97899">
        <ele>1047.97</ele>
        <time>2021-06-27T08:51:34Z</time>
      </trkpt>
      <trkpt lat="48.01389" lon="6.97873">
        <ele>1050.86</ele>
        <time>2021-06-27T08:51:55Z</time>
      </trkpt>
      <trkpt lat="48.01371" lon="6.97853">
        <ele>1050.38</ele>
        <time>2021-06-27T08:52:14Z</time>
      </trkpt>
      <trkpt lat="48.01367" lon="6.97843">
        <ele>1050.38</ele>
        <time>2021-06-27T08:52:33Z</time>
      </trkpt>
      <trkpt lat="48.01363" lon="6.9781">
        <ele>1052.3</ele>
        <time>2021-06-27T08:52:56Z</time>
      </trkpt>
      <trkpt lat="48.0135" lon="6.97774">
        <ele>1057.11</ele>
        <time>2021-06-27T08:53:18Z</time>
      </trkpt>
      <trkpt lat="48.01338" lon="6.9776">
        <ele>1059.51</ele>
        <time>2021-06-27T08:53:37Z</time>
      </trkpt>
      <trkpt lat="48.01326" lon="6.97732">
        <ele>1060.95</ele>
        <time>2021-06-27T08:53:57Z</time>
      </trkpt>
      <trkpt lat="48.0131" lon="6.97714">
        <ele>1061.43</ele>
        <time>2021-06-27T08:54:17Z</time>
      </trkpt>
      <trkpt lat="48.01292" lon="6.97695">
        <ele>1062.87</ele>
        <time>2021-06-27T08:54:36Z</time>
      </trkpt>
      <trkpt lat="48.01279" lon="6.97686">
        <ele>1066.24</ele>
        <time>2021-06-27T08:54:57Z</time>
      </trkpt>
      <trkpt lat="48.01262" lon="6.97665">
        <ele>1069.12</ele>
        <time>2021-06-27T08:55:21Z</time>
      </trkpt>
      <trkpt lat="48.01258" lon="6.97697">
        <ele>1070.08</ele>
        <time>2021-06-27T08:55:38Z</time>
      </trkpt>
      <trkpt lat="48.01252" lon="6.9774">
        <ele>1067.2</ele>
        <time>2021-06-27T08:55:58Z</time>
      </trkpt>
      <trkpt lat="48.01245" lon="6.9778">
        <ele>1068.16</ele>
        <time>2021-06-27T08:56:20Z</time>
      </trkpt>
      <trkpt lat="48.01242" lon="6.97788">
        <ele>1070.08</ele>
        <time>2021-06-27T08:56:31Z</time>
      </trkpt>
      <trkpt lat="48.01252" lon="6.97824">
        <ele>1066.72</ele>
        <time>2021-06-27T08:56:50Z</time>
      </trkpt>
      <trkpt lat="48.01265" lon="6.97854">
        <ele>1062.39</ele>
        <time>2021-06-27T08:57:09Z</time>
      </trkpt>
      <trkpt lat="48.01272" lon="6.97877">
        <ele>1065.76</ele>
        <time>2021-06-27T08:57:28Z</time>
      </trkpt>
      <trkpt lat="48.0128" lon="6.97904">
        <ele>1069.12</ele>
        <time>2021-06-27T08:57:48Z</time>
      </trkpt>
      <trkpt lat="48.01285" lon="6.97925">
        <ele>1071.05</ele>
        <time>2021-06-27T08:58:05Z</time>
      </trkpt>
      <trkpt lat="48.01293" lon="6.9795">
        <ele>1071.05</ele>
        <time>2021-06-27T08:58:25Z</time>
      </trkpt>
      <trkpt lat="48.01299" lon="6.97973">
        <ele>1070.08</ele>
        <time>2021-06-27T08:58:42Z</time>
      </trkpt>
      <trkpt lat="48.01306" lon="6.97995">
        <ele>1072.97</ele>
        <time>2021-06-27T08:59:01Z</time>
      </trkpt>
      <trkpt lat="48.01315" lon="6.98015">
        <ele>1075.85</ele>
        <time>2021-06-27T08:59:19Z</time>
      </trkpt>
      <trkpt lat="48.01328" lon="6.98039">
        <ele>1076.81</ele>
        <time>2021-06-27T08:59:37Z</time>
      </trkpt>
      <trkpt lat="48.01341" lon="6.98064">
        <ele>1075.85</ele>
        <time>2021-06-27T08:59:57Z</time>
      </trkpt>
      <trkpt lat="48.01356" lon="6.9809">
        <ele>1077.78</ele>
        <time>2021-06-27T09:00:16Z</time>
      </trkpt>
      <trkpt lat="48.01371" lon="6.98115">
        <ele>1080.18</ele>
        <time>2021-06-27T09:00:37Z</time>
      </trkpt>
      <trkpt lat="48.01386" lon="6.98128">
        <ele>1084.02</ele>
        <time>2021-06-27T09:00:53Z</time>
      </trkpt>
      <trkpt lat="48.01404" lon="6.98154">
        <ele>1084.99</ele>
        <time>2021-06-27T09:01:15Z</time>
      </trkpt>
      <trkpt lat="48.01409" lon="6.98162">
        <ele>1084.99</ele>
        <time>2021-06-27T09:01:21Z</time>
      </trkpt>
      <trkpt lat="48.01425" lon="6.98178">
        <ele>1086.43</ele>
        <time>2021-06-27T09:01:41Z</time>
      </trkpt>
      <trkpt lat="48.01444" lon="6.98198">
        <ele>1088.35</ele>
        <time>2021-06-27T09:02:00Z</time>
      </trkpt>
      <trkpt lat="48.0146" lon="6.98209">
        <ele>1092.2</ele>
        <time>2021-06-27T09:02:19Z</time>
      </trkpt>
      <trkpt lat="48.01478" lon="6.98227">
        <ele>1096.04</ele>
        <time>2021-06-27T09:02:38Z</time>
      </trkpt>
      <trkpt lat="48.01494" lon="6.9825">
        <ele>1098.92</ele>
        <time>2021-06-27T09:03:01Z</time>
      </trkpt>
      <trkpt lat="48.01493" lon="6.98241">
        <ele>1101.33</ele>
        <time>2021-06-27T09:03:20Z</time>
      </trkpt>
      <trkpt lat="48.01483" lon="6.98241">
        <ele>1103.73</ele>
        <time>2021-06-27T09:03:39Z</time>
      </trkpt>
      <trkpt lat="48.0147" lon="6.9824">
        <ele>1109.5</ele>
        <time>2021-06-27T09:03:59Z</time>
      </trkpt>
      <trkpt lat="48.0146" lon="6.9824">
        <ele>1115.27</ele>
        <time>2021-06-27T09:04:18Z</time>
      </trkpt>
      <trkpt lat="48.01458" lon="6.98268">
        <ele>1124.4</ele>
        <time>2021-06-27T09:04:46Z</time>
      </trkpt>
      <trkpt lat="48.01458" lon="6.98273">
        <ele>1130.65</ele>
        <time>2021-06-27T09:05:07Z</time>
      </trkpt>
      <trkpt lat="48.01458" lon="6.9827">
        <ele>1139.3</ele>
        <time>2021-06-27T09:05:25Z</time>
      </trkpt>
      <trkpt lat="48.01446" lon="6.98268">
        <ele>1146.51</ele>
        <time>2021-06-27T09:05:45Z</time>
      </trkpt>
      <trkpt lat="48.01444" lon="6.98292">
        <ele>1153.72</ele>
        <time>2021-06-27T09:06:07Z</time>
      </trkpt>
      <trkpt lat="48.01448" lon="6.98314">
        <ele>1162.37</ele>
        <time>2021-06-27T09:06:34Z</time>
      </trkpt>
      <trkpt lat="48.01455" lon="6.98337">
        <ele>1167.18</ele>
        <time>2021-06-27T09:07:00Z</time>
      </trkpt>
      <trkpt lat="48.01469" lon="6.98357">
        <ele>1169.1</ele>
        <time>2021-06-27T09:07:22Z</time>
      </trkpt>
      <trkpt lat="48.01483" lon="6.98374">
        <ele>1171.5</ele>
        <time>2021-06-27T09:07:49Z</time>
      </trkpt>
      <trkpt lat="48.01492" lon="6.98398">
        <ele>1169.1</ele>
        <time>2021-06-27T09:08:13Z</time>
      </trkpt>
      <trkpt lat="48.01508" lon="6.98423">
        <ele>1169.1</ele>
        <time>2021-06-27T09:08:42Z</time>
      </trkpt>
      <trkpt lat="48.01516" lon="6.98446">
        <ele>1171.02</ele>
        <time>2021-06-27T09:09:06Z</time>
      </trkpt>
      <trkpt lat="48.01518" lon="6.98453">
        <ele>1175.35</ele>
        <time>2021-06-27T09:09:32Z</time>
      </trkpt>
      <trkpt lat="48.01507" lon="6.98446">
        <ele>1177.75</ele>
        <time>2021-06-27T09:09:55Z</time>
      </trkpt>
      <trkpt lat="48.01489" lon="6.98441">
        <ele>1179.19</ele>
        <time>2021-06-27T09:10:17Z</time>
      </trkpt>
      <trkpt lat="48.01475" lon="6.98441">
        <ele>1180.64</ele>
        <time>2021-06-27T09:10:38Z</time>
      </trkpt>
      <trkpt lat="48.01463" lon="6.98441">
        <ele>1183.04</ele>
        <time>2021-06-27T09:10:59Z</time>
      </trkpt>
      <trkpt lat="48.01461" lon="6.98453">
        <ele>1182.56</ele>
        <time>2021-06-27T09:11:22Z</time>
      </trkpt>
      <trkpt lat="48.01452" lon="6.98464">
        <ele>1185.44</ele>
        <time>2021-06-27T09:11:41Z</time>
      </trkpt>
      <trkpt lat="48.01452" lon="6.98473">
        <ele>1185.44</ele>
        <time>2021-06-27T09:11:49Z</time>
      </trkpt>
      <trkpt lat="48.01461" lon="6.98488">
        <ele>1186.4</ele>
        <time>2021-06-27T09:12:02Z</time>
      </trkpt>
      <trkpt lat="48.01472" lon="6.9851">
        <ele>1187.37</ele>
        <time>2021-06-27T09:12:20Z</time>
      </trkpt>
      <trkpt lat="48.01477" lon="6.98524">
        <ele>1187.85</ele>
        <time>2021-06-27T09:12:34Z</time>
      </trkpt>
      <trkpt lat="48.01489" lon="6.98552">
        <ele>1191.21</ele>
        <time>2021-06-27T09:12:53Z</time>
      </trkpt>
      <trkpt lat="48.01499" lon="6.98566">
        <ele>1194.58</ele>
        <time>2021-06-27T09:13:11Z</time>
      </trkpt>
      <trkpt lat="48.01499" lon="6.98566">
        <ele>1195.54</ele>
        <time>2021-06-27T09:13:28Z</time>
      </trkpt>
      <trkpt lat="48.01508" lon="6.98575">
        <ele>1195.06</ele>
        <time>2021-06-27T09:13:41Z</time>
      </trkpt>
      <trkpt lat="48.01529" lon="6.98589">
        <ele>1196.02</ele>
        <time>2021-06-27T09:14:01Z</time>
      </trkpt>
      <trkpt lat="48.01545" lon="6.98607">
        <ele>1196.5</ele>
        <time>2021-06-27T09:14:21Z</time>
      </trkpt>
      <trkpt lat="48.01556" lon="6.98609">
        <ele>1197.46</ele>
        <time>2021-06-27T09:14:34Z</time>
      </trkpt>
      <trkpt lat="48.01574" lon="6.98618">
        <ele>1198.42</ele>
        <time>2021-06-27T09:14:53Z</time>
      </trkpt>
      <trkpt lat="48.01588" lon="6.98629">
        <ele>1198.42</ele>
        <time>2021-06-27T09:15:10Z</time>
      </trkpt>
      <trkpt lat="48.01599" lon="6.98629">
        <ele>1199.38</ele>
        <time>2021-06-27T09:15:23Z</time>
      </trkpt>
      <trkpt lat="48.01609" lon="6.98641">
        <ele>1201.3</ele>
        <time>2021-06-27T09:15:36Z</time>
      </trkpt>
      <trkpt lat="48.0161" lon="6.98646">
        <ele>1202.27</ele>
        <time>2021-06-27T09:15:40Z</time>
      </trkpt>
      <trkpt lat="48.01614" lon="6.98661">
        <ele>1204.19</ele>
        <time>2021-06-27T09:15:52Z</time>
      </trkpt>
      <trkpt lat="48.01624" lon="6.98679">
        <ele>1206.59</ele>
        <time>2021-06-27T09:16:08Z</time>
      </trkpt>
      <trkpt lat="48.0163" lon="6.98686">
        <ele>1207.07</ele>
        <time>2021-06-27T09:16:15Z</time>
      </trkpt>
      <trkpt lat="48.01641" lon="6.9871">
        <ele>1208.51</ele>
        <time>2021-06-27T09:16:32Z</time>
      </trkpt>
      <trkpt lat="48.01655" lon="6.98732">
        <ele>1209.48</ele>
        <time>2021-06-27T09:16:51Z</time>
      </trkpt>
      <trkpt lat="48.01667" lon="6.98754">
        <ele>1209.96</ele>
        <time>2021-06-27T09:17:09Z</time>
      </trkpt>
      <trkpt lat="48.01678" lon="6.9877">
        <ele>1210.44</ele>
        <time>2021-06-27T09:17:24Z</time>
      </trkpt>
      <trkpt lat="48.01691" lon="6.98783">
        <ele>1213.8</ele>
        <time>2021-06-27T09:17:39Z</time>
      </trkpt>
      <trkpt lat="48.01699" lon="6.98791">
        <ele>1215.72</ele>
        <time>2021-06-27T09:17:58Z</time>
      </trkpt>
      <trkpt lat="48.01713" lon="6.98816">
        <ele>1216.69</ele>
        <time>2021-06-27T09:18:17Z</time>
      </trkpt>
      <trkpt lat="48.01728" lon="6.98832">
        <ele>1219.09</ele>
        <time>2021-06-27T09:18:35Z</time>
      </trkpt>
      <trkpt lat="48.01738" lon="6.98842">
        <ele>1220.53</ele>
        <time>2021-06-27T09:18:49Z</time>
      </trkpt>
      <trkpt lat="48.01745" lon="6.98849">
        <ele>1221.49</ele>
        <time>2021-06-27T09:18:59Z</time>
      </trkpt>
      <trkpt lat="48.01755" lon="6.98856">
        <ele>1223.9</ele>
        <time>2021-06-27T09:19:12Z</time>
      </trkpt>
      <trkpt lat="48.01764" lon="6.98866">
        <ele>1225.82</ele>
        <time>2021-06-27T09:19:26Z</time>
      </trkpt>
      <trkpt lat="48.01772" lon="6.98876">
        <ele>1228.7</ele>
        <time>2021-06-27T09:19:39Z</time>
      </trkpt>
      <trkpt lat="48.01778" lon="6.98883">
        <ele>1230.62</ele>
        <time>2021-06-27T09:19:48Z</time>
      </trkpt>
      <trkpt lat="48.01791" lon="6.98896">
        <ele>1233.03</ele>
        <time>2021-06-27T09:20:06Z</time>
      </trkpt>
      <trkpt lat="48.01797" lon="6.989">
        <ele>1233.51</ele>
        <time>2021-06-27T09:20:13Z</time>
      </trkpt>
      <trkpt lat="48.01811" lon="6.98911">
        <ele>1235.43</ele>
        <time>2021-06-27T09:20:30Z</time>
      </trkpt>
      <trkpt lat="48.01822" lon="6.98924">
        <ele>1238.32</ele>
        <time>2021-06-27T09:20:46Z</time>
      </trkpt>
      <trkpt lat="48.01836" lon="6.98938">
        <ele>1241.2</ele>
        <time>2021-06-27T09:21:04Z</time>
      </trkpt>
      <trkpt lat="48.01845" lon="6.98947">
        <ele>1243.12</ele>
        <time>2021-06-27T09:21:17Z</time>
      </trkpt>
      <trkpt lat="48.01861" lon="6.98964">
        <ele>1246.01</ele>
        <time>2021-06-27T09:21:37Z</time>
      </trkpt>
      <trkpt lat="48.01866" lon="6.98968">
        <ele>1246.97</ele>
        <time>2021-06-27T09:21:44Z</time>
      </trkpt>
      <trkpt lat="48.0188" lon="6.98974">
        <ele>1248.89</ele>
        <time>2021-06-27T09:21:59Z</time>
      </trkpt>
      <trkpt lat="48.01896" lon="6.98981">
        <ele>1251.29</ele>
        <time>2021-06-27T09:22:17Z</time>
      </trkpt>
      <trkpt lat="48.0191" lon="6.98993">
        <ele>1253.22</ele>
        <time>2021-06-27T09:22:33Z</time>
      </trkpt>
      <trkpt lat="48.01921" lon="6.99009">
        <ele>1256.1</ele>
        <time>2021-06-27T09:22:51Z</time>
      </trkpt>
      <trkpt lat="48.01932" lon="6.99018">
        <ele>1259.46</ele>
        <time>2021-06-27T09:23:12Z</time>
      </trkpt>
      <trkpt lat="48.01938" lon="6.99031">
        <ele>1261.87</ele>
        <time>2021-06-27T09:23:31Z</time>
      </trkpt>
      <trkpt lat="48.0195" lon="6.99044">
        <ele>1266.19</ele>
        <time>2021-06-27T09:23:53Z</time>
      </trkpt>
      <trkpt lat="48.01964" lon="6.99056">
        <ele>1268.6</ele>
        <time>2021-06-27T09:24:16Z</time>
      </trkpt>
      <trkpt lat="48.01968" lon="6.99076">
        <ele>1273.88</ele>
        <time>2021-06-27T09:24:38Z</time>
      </trkpt>
      <trkpt lat="48.01973" lon="6.99097">
        <ele>1277.25</ele>
        <time>2021-06-27T09:24:58Z</time>
      </trkpt>
      <trkpt lat="48.01977" lon="6.99117">
        <ele>1278.21</ele>
        <time>2021-06-27T09:25:14Z</time>
      </trkpt>
      <trkpt lat="48.01981" lon="6.99138">
        <ele>1280.61</ele>
        <time>2021-06-27T09:25:31Z</time>
      </trkpt>
      <trkpt lat="48.01987" lon="6.9916">
        <ele>1282.06</ele>
        <time>2021-06-27T09:25:47Z</time>
      </trkpt>
      <trkpt lat="48.01998" lon="6.99181">
        <ele>1281.09</ele>
        <time>2021-06-27T09:26:04Z</time>
      </trkpt>
      <trkpt lat="48.02007" lon="6.99192">
        <ele>1280.61</ele>
        <time>2021-06-27T09:26:15Z</time>
      </trkpt>
      <trkpt lat="48.0202" lon="6.99216">
        <ele>1282.54</ele>
        <time>2021-06-27T09:26:33Z</time>
      </trkpt>
      <trkpt lat="48.02032" lon="6.99245">
        <ele>1287.82</ele>
        <time>2021-06-27T09:26:53Z</time>
      </trkpt>
      <trkpt lat="48.02044" lon="6.99271">
        <ele>1289.75</ele>
        <time>2021-06-27T09:27:11Z</time>
      </trkpt>
      <trkpt lat="48.02059" lon="6.99297">
        <ele>1287.34</ele>
        <time>2021-06-27T09:27:28Z</time>
      </trkpt>
      <trkpt lat="48.02061" lon="6.993">
        <ele>1286.86</ele>
        <time>2021-06-27T09:27:31Z</time>
      </trkpt>
      <trkpt lat="48.02068" lon="6.99334">
        <ele>1283.02</ele>
        <time>2021-06-27T09:27:50Z</time>
      </trkpt>
      <trkpt lat="48.02073" lon="6.99357">
        <ele>1281.57</ele>
        <time>2021-06-27T09:28:05Z</time>
      </trkpt>
      <trkpt lat="48.02075" lon="6.99375">
        <ele>1283.02</ele>
        <time>2021-06-27T09:28:20Z</time>
      </trkpt>
      <trkpt lat="48.02079" lon="6.99394">
        <ele>1286.86</ele>
        <time>2021-06-27T09:28:35Z</time>
      </trkpt>
      <trkpt lat="48.02081" lon="6.99417">
        <ele>1291.67</ele>
        <time>2021-06-27T09:28:52Z</time>
      </trkpt>
      <trkpt lat="48.02087" lon="6.99438">
        <ele>1296.48</ele>
        <time>2021-06-27T09:29:09Z</time>
      </trkpt>
      <trkpt lat="48.02091" lon="6.99464">
        <ele>1298.4</ele>
        <time>2021-06-27T09:29:29Z</time>
      </trkpt>
      <trkpt lat="48.02096" lon="6.99486">
        <ele>1300.8</ele>
        <time>2021-06-27T09:29:46Z</time>
      </trkpt>
      <trkpt lat="48.02097" lon="6.99506">
        <ele>1301.28</ele>
        <time>2021-06-27T09:30:02Z</time>
      </trkpt>
      <trkpt lat="48.02097" lon="6.99507">
        <ele>1301.28</ele>
        <time>2021-06-27T09:30:03Z</time>
      </trkpt>
      <trkpt lat="48.02102" lon="6.99533">
        <ele>1302.72</ele>
        <time>2021-06-27T09:30:22Z</time>
      </trkpt>
      <trkpt lat="48.02107" lon="6.99555">
        <ele>1304.17</ele>
        <time>2021-06-27T09:30:40Z</time>
      </trkpt>
      <trkpt lat="48.02112" lon="6.99579">
        <ele>1307.53</ele>
        <time>2021-06-27T09:31:00Z</time>
      </trkpt>
      <trkpt lat="48.02117" lon="6.99603">
        <ele>1310.9</ele>
        <time>2021-06-27T09:31:20Z</time>
      </trkpt>
      <trkpt lat="48.0212" lon="6.99616">
        <ele>1313.3</ele>
        <time>2021-06-27T09:31:37Z</time>
      </trkpt>
      <trkpt lat="48.02119" lon="6.99616">
        <ele>1315.22</ele>
        <time>2021-06-27T09:32:12Z</time>
      </trkpt>
      <trkpt lat="48.02119" lon="6.99616">
        <ele>1316.18</ele>
        <time>2021-06-27T09:32:42Z</time>
      </trkpt>
      <trkpt lat="48.02121" lon="6.99625">
        <ele>1316.66</ele>
        <time>2021-06-27T09:33:07Z</time>
      </trkpt>
      <trkpt lat="48.02127" lon="6.99648">
        <ele>1319.55</ele>
        <time>2021-06-27T09:33:26Z</time>
      </trkpt>
      <trkpt lat="48.02131" lon="6.9967">
        <ele>1321.95</ele>
        <time>2021-06-27T09:33:44Z</time>
      </trkpt>
      <trkpt lat="48.02134" lon="6.99689">
        <ele>1324.83</ele>
        <time>2021-06-27T09:34:01Z</time>
      </trkpt>
      <trkpt lat="48.02136" lon="6.99703">
        <ele>1327.24</ele>
        <time>2021-06-27T09:34:20Z</time>
      </trkpt>
      <trkpt lat="48.02141" lon="6.99728">
        <ele>1330.12</ele>
        <time>2021-06-27T09:34:40Z</time>
      </trkpt>
      <trkpt lat="48.02141" lon="6.99742">
        <ele>1332.52</ele>
        <time>2021-06-27T09:34:51Z</time>
      </trkpt>
      <trkpt lat="48.02139" lon="6.99766">
        <ele>1336.37</ele>
        <time>2021-06-27T09:35:10Z</time>
      </trkpt>
      <trkpt lat="48.02136" lon="6.99787">
        <ele>1339.73</ele>
        <time>2021-06-27T09:35:26Z</time>
      </trkpt>
      <trkpt lat="48.02133" lon="6.99813">
        <ele>1342.62</ele>
        <time>2021-06-27T09:35:45Z</time>
      </trkpt>
      <trkpt lat="48.02132" lon="6.99823">
        <ele>1343.58</ele>
        <time>2021-06-27T09:35:52Z</time>
      </trkpt>
      <trkpt lat="48.02131" lon="6.99851">
        <ele>1347.43</ele>
        <time>2021-06-27T09:36:11Z</time>
      </trkpt>
      <trkpt lat="48.02128" lon="6.99882">
        <ele>1349.83</ele>
        <time>2021-06-27T09:36:31Z</time>
      </trkpt>
      <trkpt lat="48.02126" lon="6.9991">
        <ele>1351.27</ele>
        <time>2021-06-27T09:36:49Z</time>
      </trkpt>
      <trkpt lat="48.02122" lon="6.99934">
        <ele>1351.75</ele>
        <time>2021-06-27T09:37:04Z</time>
      </trkpt>
      <trkpt lat="48.02122" lon="6.99938">
        <ele>1351.75</ele>
        <time>2021-06-27T09:37:07Z</time>
      </trkpt>
      <trkpt lat="48.02118" lon="6.99969">
        <ele>1351.75</ele>
        <time>2021-06-27T09:37:26Z</time>
      </trkpt>
      <trkpt lat="48.02115" lon="6.99989">
        <ele>1353.19</ele>
        <time>2021-06-27T09:37:44Z</time>
      </trkpt>
      <trkpt lat="48.02116" lon="6.99991">
        <ele>1353.19</ele>
        <time>2021-06-27T09:37:52Z</time>
      </trkpt>
      <trkpt lat="48.02122" lon="7.00007">
        <ele>1352.71</ele>
        <time>2021-06-27T09:38:05Z</time>
      </trkpt>
      <trkpt lat="48.02135" lon="7.00037">
        <ele>1353.19</ele>
        <time>2021-06-27T09:38:25Z</time>
      </trkpt>
      <trkpt lat="48.02149" lon="7.00071">
        <ele>1351.27</ele>
        <time>2021-06-27T09:38:47Z</time>
      </trkpt>
      <trkpt lat="48.02161" lon="7.00095">
        <ele>1350.79</ele>
        <time>2021-06-27T09:39:06Z</time>
      </trkpt>
      <trkpt lat="48.02167" lon="7.0011">
        <ele>1350.79</ele>
        <time>2021-06-27T09:39:21Z</time>
      </trkpt>
      <trkpt lat="48.02175" lon="7.0013">
        <ele>1350.79</ele>
        <time>2021-06-27T09:39:35Z</time>
      </trkpt>
      <trkpt lat="48.02186" lon="7.0016">
        <ele>1351.27</ele>
        <time>2021-06-27T09:39:54Z</time>
      </trkpt>
      <trkpt lat="48.02204" lon="7.00174">
        <ele>1350.79</ele>
        <time>2021-06-27T09:40:12Z</time>
      </trkpt>
      <trkpt lat="48.0223" lon="7.00179">
        <ele>1349.35</ele>
        <time>2021-06-27T09:40:34Z</time>
      </trkpt>
      <trkpt lat="48.02252" lon="7.00191">
        <ele>1347.91</ele>
        <time>2021-06-27T09:40:54Z</time>
      </trkpt>
      <trkpt lat="48.02255" lon="7.00194">
        <ele>1347.43</ele>
        <time>2021-06-27T09:40:57Z</time>
      </trkpt>
      <trkpt lat="48.02273" lon="7.00207">
        <ele>1345.02</ele>
        <time>2021-06-27T09:41:14Z</time>
      </trkpt>
      <trkpt lat="48.0228" lon="7.00214">
        <ele>1344.54</ele>
        <time>2021-06-27T09:41:21Z</time>
      </trkpt>
      <trkpt lat="48.02299" lon="7.00235">
        <ele>1344.06</ele>
        <time>2021-06-27T09:41:41Z</time>
      </trkpt>
      <trkpt lat="48.02316" lon="7.00254">
        <ele>1342.62</ele>
        <time>2021-06-27T09:41:59Z</time>
      </trkpt>
      <trkpt lat="48.02334" lon="7.00273">
        <ele>1340.7</ele>
        <time>2021-06-27T09:42:18Z</time>
      </trkpt>
      <trkpt lat="48.02339" lon="7.00279">
        <ele>1340.22</ele>
        <time>2021-06-27T09:42:24Z</time>
      </trkpt>
      <trkpt lat="48.02356" lon="7.00298">
        <ele>1337.33</ele>
        <time>2021-06-27T09:42:43Z</time>
      </trkpt>
      <trkpt lat="48.02372" lon="7.00317">
        <ele>1335.41</ele>
        <time>2021-06-27T09:43:01Z</time>
      </trkpt>
      <trkpt lat="48.02391" lon="7.00338">
        <ele>1332.52</ele>
        <time>2021-06-27T09:43:21Z</time>
      </trkpt>
      <trkpt lat="48.02409" lon="7.00356">
        <ele>1330.12</ele>
        <time>2021-06-27T09:43:40Z</time>
      </trkpt>
      <trkpt lat="48.02426" lon="7.00376">
        <ele>1328.2</ele>
        <time>2021-06-27T09:43:59Z</time>
      </trkpt>
      <trkpt lat="48.02442" lon="7.00395">
        <ele>1327.24</ele>
        <time>2021-06-27T09:44:17Z</time>
      </trkpt>
      <trkpt lat="48.02461" lon="7.00415">
        <ele>1325.8</ele>
        <time>2021-06-27T09:44:37Z</time>
      </trkpt>
      <trkpt lat="48.02482" lon="7.00436">
        <ele>1323.39</ele>
        <time>2021-06-27T09:44:59Z</time>
      </trkpt>
      <trkpt lat="48.02501" lon="7.00457">
        <ele>1322.43</ele>
        <time>2021-06-27T09:45:18Z</time>
      </trkpt>
      <trkpt lat="48.02519" lon="7.00477">
        <ele>1320.99</ele>
        <time>2021-06-27T09:45:37Z</time>
      </trkpt>
      <trkpt lat="48.0254" lon="7.00499">
        <ele>1319.07</ele>
        <time>2021-06-27T09:45:59Z</time>
      </trkpt>
      <trkpt lat="48.02557" lon="7.00517">
        <ele>1317.62</ele>
        <time>2021-06-27T09:46:17Z</time>
      </trkpt>
      <trkpt lat="48.02574" lon="7.00537">
        <ele>1315.22</ele>
        <time>2021-06-27T09:46:36Z</time>
      </trkpt>
      <trkpt lat="48.02593" lon="7.00558">
        <ele>1312.82</ele>
        <time>2021-06-27T09:46:56Z</time>
      </trkpt>
      <trkpt lat="48.02613" lon="7.00584">
        <ele>1311.38</ele>
        <time>2021-06-27T09:47:19Z</time>
      </trkpt>
      <trkpt lat="48.02628" lon="7.00603">
        <ele>1309.93</ele>
        <time>2021-06-27T09:47:36Z</time>
      </trkpt>
      <trkpt lat="48.0265" lon="7.00619">
        <ele>1306.09</ele>
        <time>2021-06-27T09:47:57Z</time>
      </trkpt>
      <trkpt lat="48.02672" lon="7.0064">
        <ele>1302.72</ele>
        <time>2021-06-27T09:48:18Z</time>
      </trkpt>
      <trkpt lat="48.02691" lon="7.00658">
        <ele>1298.88</ele>
        <time>2021-06-27T09:48:37Z</time>
      </trkpt>
      <trkpt lat="48.02709" lon="7.00676">
        <ele>1297.44</ele>
        <time>2021-06-27T09:48:55Z</time>
      </trkpt>
      <trkpt lat="48.02728" lon="7.00695">
        <ele>1294.55</ele>
        <time>2021-06-27T09:49:14Z</time>
      </trkpt>
      <trkpt lat="48.02747" lon="7.00711">
        <ele>1292.15</ele>
        <time>2021-06-27T09:49:31Z</time>
      </trkpt>
      <trkpt lat="48.02768" lon="7.0073">
        <ele>1292.15</ele>
        <time>2021-06-27T09:49:51Z</time>
      </trkpt>
      <trkpt lat="48.0279" lon="7.00752">
        <ele>1291.19</ele>
        <time>2021-06-27T09:50:13Z</time>
      </trkpt>
      <trkpt lat="48.02809" lon="7.00768">
        <ele>1289.75</ele>
        <time>2021-06-27T09:50:31Z</time>
      </trkpt>
      <trkpt lat="48.0281" lon="7.00769">
        <ele>1289.75</ele>
        <time>2021-06-27T09:50:33Z</time>
      </trkpt>
      <trkpt lat="48.02833" lon="7.00765">
        <ele>1287.82</ele>
        <time>2021-06-27T09:50:52Z</time>
      </trkpt>
      <trkpt lat="48.02849" lon="7.00759">
        <ele>1284.46</ele>
        <time>2021-06-27T09:51:08Z</time>
      </trkpt>
      <trkpt lat="48.02872" lon="7.0075">
        <ele>1282.06</ele>
        <time>2021-06-27T09:51:28Z</time>
      </trkpt>
      <trkpt lat="48.02893" lon="7.0076">
        <ele>1281.09</ele>
        <time>2021-06-27T09:51:47Z</time>
      </trkpt>
      <trkpt lat="48.02909" lon="7.00781">
        <ele>1283.5</ele>
        <time>2021-06-27T09:52:05Z</time>
      </trkpt>
      <trkpt lat="48.02924" lon="7.00805">
        <ele>1284.94</ele>
        <time>2021-06-27T09:52:23Z</time>
      </trkpt>
      <trkpt lat="48.02942" lon="7.0083">
        <ele>1285.9</ele>
        <time>2021-06-27T09:52:44Z</time>
      </trkpt>
      <trkpt lat="48.02954" lon="7.00845">
        <ele>1287.82</ele>
        <time>2021-06-27T09:52:59Z</time>
      </trkpt>
      <trkpt lat="48.02969" lon="7.00864">
        <ele>1289.75</ele>
        <time>2021-06-27T09:53:17Z</time>
      </trkpt>
      <trkpt lat="48.02984" lon="7.00885">
        <ele>1290.71</ele>
        <time>2021-06-27T09:53:34Z</time>
      </trkpt>
      <trkpt lat="48.02997" lon="7.00912">
        <ele>1291.19</ele>
        <time>2021-06-27T09:53:54Z</time>
      </trkpt>
      <trkpt lat="48.0301" lon="7.00935">
        <ele>1292.15</ele>
        <time>2021-06-27T09:54:12Z</time>
      </trkpt>
      <trkpt lat="48.03022" lon="7.00954">
        <ele>1293.11</ele>
        <time>2021-06-27T09:54:27Z</time>
      </trkpt>
      <trkpt lat="48.03037" lon="7.00981">
        <ele>1294.55</ele>
        <time>2021-06-27T09:54:47Z</time>
      </trkpt>
      <trkpt lat="48.03052" lon="7.01007">
        <ele>1295.99</ele>
        <time>2021-06-27T09:55:06Z</time>
      </trkpt>
      <trkpt lat="48.03067" lon="7.01029">
        <ele>1297.44</ele>
        <time>2021-06-27T09:55:24Z</time>
      </trkpt>
      <trkpt lat="48.03082" lon="7.01053">
        <ele>1297.92</ele>
        <time>2021-06-27T09:55:42Z</time>
      </trkpt>
      <trkpt lat="48.03093" lon="7.01076">
        <ele>1298.4</ele>
        <time>2021-06-27T09:55:58Z</time>
      </trkpt>
      <trkpt lat="48.03106" lon="7.01099">
        <ele>1299.36</ele>
        <time>2021-06-27T09:56:16Z</time>
      </trkpt>
      <trkpt lat="48.03119" lon="7.01123">
        <ele>1300.8</ele>
        <time>2021-06-27T09:56:34Z</time>
      </trkpt>
      <trkpt lat="48.0313" lon="7.01142">
        <ele>1302.24</ele>
        <time>2021-06-27T09:56:49Z</time>
      </trkpt>
      <trkpt lat="48.03143" lon="7.01165">
        <ele>1304.17</ele>
        <time>2021-06-27T09:57:07Z</time>
      </trkpt>
      <trkpt lat="48.03153" lon="7.01182">
        <ele>1305.61</ele>
        <time>2021-06-27T09:57:21Z</time>
      </trkpt>
      <trkpt lat="48.03168" lon="7.01197">
        <ele>1306.57</ele>
        <time>2021-06-27T09:57:37Z</time>
      </trkpt>
      <trkpt lat="48.03172" lon="7.01199">
        <ele>1306.57</ele>
        <time>2021-06-27T09:57:41Z</time>
      </trkpt>
      <trkpt lat="48.03187" lon="7.01215">
        <ele>1307.53</ele>
        <time>2021-06-27T09:57:58Z</time>
      </trkpt>
      <trkpt lat="48.032" lon="7.01229">
        <ele>1306.09</ele>
        <time>2021-06-27T09:58:14Z</time>
      </trkpt>
      <trkpt lat="48.03209" lon="7.01231">
        <ele>1305.13</ele>
        <time>2021-06-27T09:58:24Z</time>
      </trkpt>
      <trkpt lat="48.03218" lon="7.01226">
        <ele>1303.69</ele>
        <time>2021-06-27T09:58:38Z</time>
      </trkpt>
      <trkpt lat="48.0322" lon="7.01229">
        <ele>1303.2</ele>
        <time>2021-06-27T09:58:50Z</time>
      </trkpt>
      <trkpt lat="48.03227" lon="7.01236">
        <ele>1302.72</ele>
        <time>2021-06-27T09:59:03Z</time>
      </trkpt>
      <trkpt lat="48.03234" lon="7.01248">
        <ele>1302.24</ele>
        <time>2021-06-27T09:59:19Z</time>
      </trkpt>
      <trkpt lat="48.03233" lon="7.01254">
        <ele>1301.76</ele>
        <time>2021-06-27T09:59:24Z</time>
      </trkpt>
      <trkpt lat="48.03234" lon="7.01257">
        <ele>1300.8</ele>
        <time>2021-06-27T09:59:40Z</time>
      </trkpt>
      <trkpt lat="48.03233" lon="7.01258">
        <ele>1301.28</ele>
        <time>2021-06-27T09:59:58Z</time>
      </trkpt>
      <trkpt lat="48.03234" lon="7.01258">
        <ele>1301.28</ele>
        <time>2021-06-27T10:00:29Z</time>
      </trkpt>
      <trkpt lat="48.03233" lon="7.01257">
        <ele>1300.8</ele>
        <time>2021-06-27T10:00:49Z</time>
      </trkpt>
      <trkpt lat="48.03233" lon="7.01256">
        <ele>1301.76</ele>
        <time>2021-06-27T10:00:58Z</time>
      </trkpt>
      <trkpt lat="48.03233" lon="7.01257">
        <ele>1300.8</ele>
        <time>2021-06-27T10:01:19Z</time>
      </trkpt>
      <trkpt lat="48.03234" lon="7.01257">
        <ele>1300.8</ele>
        <time>2021-06-27T10:01:40Z</time>
      </trkpt>
      <trkpt lat="48.03234" lon="7.01257">
        <ele>1301.28</ele>
        <time>2021-06-27T10:02:14Z</time>
      </trkpt>
      <trkpt lat="48.03229" lon="7.0125">
        <ele>1300.8</ele>
        <time>2021-06-27T10:02:26Z</time>
      </trkpt>
      <trkpt lat="48.0322" lon="7.0124">
        <ele>1303.69</ele>
        <time>2021-06-27T10:02:45Z</time>
      </trkpt>
      <trkpt lat="48.03215" lon="7.01239">
        <ele>1303.69</ele>
        <time>2021-06-27T10:02:51Z</time>
      </trkpt>
      <trkpt lat="48.03203" lon="7.01243">
        <ele>1301.76</ele>
        <time>2021-06-27T10:03:07Z</time>
      </trkpt>
      <trkpt lat="48.03191" lon="7.01252">
        <ele>1300.32</ele>
        <time>2021-06-27T10:03:23Z</time>
      </trkpt>
      <trkpt lat="48.03186" lon="7.01262">
        <ele>1300.8</ele>
        <time>2021-06-27T10:03:34Z</time>
      </trkpt>
      <trkpt lat="48.03176" lon="7.01275">
        <ele>1300.32</ele>
        <time>2021-06-27T10:03:49Z</time>
      </trkpt>
      <trkpt lat="48.03168" lon="7.01289">
        <ele>1300.32</ele>
        <time>2021-06-27T10:04:04Z</time>
      </trkpt>
      <trkpt lat="48.03162" lon="7.01307">
        <ele>1299.84</ele>
        <time>2021-06-27T10:04:20Z</time>
      </trkpt>
      <trkpt lat="48.03154" lon="7.01321">
        <ele>1298.4</ele>
        <time>2021-06-27T10:04:35Z</time>
      </trkpt>
      <trkpt lat="48.03145" lon="7.01342">
        <ele>1297.44</ele>
        <time>2021-06-27T10:04:51Z</time>
      </trkpt>
      <trkpt lat="48.03139" lon="7.01356">
        <ele>1295.51</ele>
        <time>2021-06-27T10:05:07Z</time>
      </trkpt>
      <trkpt lat="48.03131" lon="7.01353">
        <ele>1294.07</ele>
        <time>2021-06-27T10:05:23Z</time>
      </trkpt>
      <trkpt lat="48.03119" lon="7.01339">
        <ele>1295.03</ele>
        <time>2021-06-27T10:05:45Z</time>
      </trkpt>
      <trkpt lat="48.03117" lon="7.01337">
        <ele>1295.03</ele>
        <time>2021-06-27T10:05:49Z</time>
      </trkpt>
      <trkpt lat="48.03109" lon="7.01331">
        <ele>1295.51</ele>
        <time>2021-06-27T10:06:07Z</time>
      </trkpt>
      <trkpt lat="48.03105" lon="7.01328">
        <ele>1295.03</ele>
        <time>2021-06-27T10:06:29Z</time>
      </trkpt>
      <trkpt lat="48.03099" lon="7.01316">
        <ele>1294.55</ele>
        <time>2021-06-27T10:06:49Z</time>
      </trkpt>
      <trkpt lat="48.03087" lon="7.01294">
        <ele>1294.55</ele>
        <time>2021-06-27T10:07:07Z</time>
      </trkpt>
      <trkpt lat="48.03076" lon="7.0127">
        <ele>1294.55</ele>
        <time>2021-06-27T10:07:26Z</time>
      </trkpt>
      <trkpt lat="48.03065" lon="7.01246">
        <ele>1295.03</ele>
        <time>2021-06-27T10:07:43Z</time>
      </trkpt>
      <trkpt lat="48.03057" lon="7.01224">
        <ele>1294.07</ele>
        <time>2021-06-27T10:08:00Z</time>
      </trkpt>
      <trkpt lat="48.03047" lon="7.01205">
        <ele>1293.59</ele>
        <time>2021-06-27T10:08:18Z</time>
      </trkpt>
      <trkpt lat="48.03042" lon="7.01197">
        <ele>1293.11</ele>
        <time>2021-06-27T10:08:29Z</time>
      </trkpt>
      <trkpt lat="48.03037" lon="7.01193">
        <ele>1294.07</ele>
        <time>2021-06-27T10:08:46Z</time>
      </trkpt>
      <trkpt lat="48.03027" lon="7.01183">
        <ele>1293.59</ele>
        <time>2021-06-27T10:09:06Z</time>
      </trkpt>
      <trkpt lat="48.03016" lon="7.01171">
        <ele>1293.59</ele>
        <time>2021-06-27T10:09:24Z</time>
      </trkpt>
      <trkpt lat="48.03012" lon="7.01165">
        <ele>1294.07</ele>
        <time>2021-06-27T10:09:57Z</time>
      </trkpt>
      <trkpt lat="48.02995" lon="7.01154">
        <ele>1292.63</ele>
        <time>2021-06-27T10:10:15Z</time>
      </trkpt>
      <trkpt lat="48.02976" lon="7.01136">
        <ele>1292.15</ele>
        <time>2021-06-27T10:10:36Z</time>
      </trkpt>
      <trkpt lat="48.02957" lon="7.01117">
        <ele>1291.67</ele>
        <time>2021-06-27T10:10:57Z</time>
      </trkpt>
      <trkpt lat="48.02942" lon="7.01103">
        <ele>1291.67</ele>
        <time>2021-06-27T10:11:14Z</time>
      </trkpt>
      <trkpt lat="48.02932" lon="7.01089">
        <ele>1292.15</ele>
        <time>2021-06-27T10:11:29Z</time>
      </trkpt>
      <trkpt lat="48.02926" lon="7.0108">
        <ele>1292.15</ele>
        <time>2021-06-27T10:11:43Z</time>
      </trkpt>
      <trkpt lat="48.02916" lon="7.01059">
        <ele>1290.23</ele>
        <time>2021-06-27T10:12:00Z</time>
      </trkpt>
      <trkpt lat="48.0291" lon="7.01039">
        <ele>1288.3</ele>
        <time>2021-06-27T10:12:16Z</time>
      </trkpt>
      <trkpt lat="48.02905" lon="7.01021">
        <ele>1286.38</ele>
        <time>2021-06-27T10:12:31Z</time>
      </trkpt>
      <trkpt lat="48.02903" lon="7.01">
        <ele>1283.5</ele>
        <time>2021-06-27T10:12:47Z</time>
      </trkpt>
      <trkpt lat="48.02902" lon="7.00996">
        <ele>1283.02</ele>
        <time>2021-06-27T10:12:50Z</time>
      </trkpt>
      <trkpt lat="48.02898" lon="7.00985">
        <ele>1282.06</ele>
        <time>2021-06-27T10:13:05Z</time>
      </trkpt>
      <trkpt lat="48.02898" lon="7.00983">
        <ele>1282.06</ele>
        <time>2021-06-27T10:13:21Z</time>
      </trkpt>
      <trkpt lat="48.02897" lon="7.00983">
        <ele>1283.5</ele>
        <time>2021-06-27T10:13:55Z</time>
      </trkpt>
      <trkpt lat="48.02898" lon="7.00985">
        <ele>1281.09</ele>
        <time>2021-06-27T10:14:34Z</time>
      </trkpt>
      <trkpt lat="48.029" lon="7.00983">
        <ele>1280.61</ele>
        <time>2021-06-27T10:14:58Z</time>
      </trkpt>
      <trkpt lat="48.02898" lon="7.00982">
        <ele>1280.61</ele>
        <time>2021-06-27T10:15:29Z</time>
      </trkpt>
      <trkpt lat="48.02898" lon="7.00979">
        <ele>1281.09</ele>
        <time>2021-06-27T10:15:36Z</time>
      </trkpt>
      <trkpt lat="48.02898" lon="7.00972">
        <ele>1281.09</ele>
        <time>2021-06-27T10:15:40Z</time>
      </trkpt>
      <trkpt lat="48.02895" lon="7.00956">
        <ele>1279.65</ele>
        <time>2021-06-27T10:15:49Z</time>
      </trkpt>
      <trkpt lat="48.02888" lon="7.0094">
        <ele>1277.73</ele>
        <time>2021-06-27T10:16:00Z</time>
      </trkpt>
      <trkpt lat="48.02886" lon="7.00935">
        <ele>1276.77</ele>
        <time>2021-06-27T10:16:07Z</time>
      </trkpt>
      <trkpt lat="48.02885" lon="7.00932">
        <ele>1276.29</ele>
        <time>2021-06-27T10:16:09Z</time>
      </trkpt>
      <trkpt lat="48.02883" lon="7.00922">
        <ele>1274.85</ele>
        <time>2021-06-27T10:16:15Z</time>
      </trkpt>
      <trkpt lat="48.02873" lon="7.00909">
        <ele>1272.44</ele>
        <time>2021-06-27T10:16:26Z</time>
      </trkpt>
      <trkpt lat="48.02869" lon="7.00902">
        <ele>1271.96</ele>
        <time>2021-06-27T10:16:31Z</time>
      </trkpt>
      <trkpt lat="48.02847" lon="7.00897">
        <ele>1274.36</ele>
        <time>2021-06-27T10:16:50Z</time>
      </trkpt>
      <trkpt lat="48.02844" lon="7.00896">
        <ele>1274.85</ele>
        <time>2021-06-27T10:16:53Z</time>
      </trkpt>
      <trkpt lat="48.02837" lon="7.00893">
        <ele>1275.81</ele>
        <time>2021-06-27T10:17:00Z</time>
      </trkpt>
      <trkpt lat="48.02817" lon="7.00894">
        <ele>1279.17</ele>
        <time>2021-06-27T10:17:17Z</time>
      </trkpt>
      <trkpt lat="48.02804" lon="7.00894">
        <ele>1280.61</ele>
        <time>2021-06-27T10:17:30Z</time>
      </trkpt>
      <trkpt lat="48.02795" lon="7.00897">
        <ele>1281.57</ele>
        <time>2021-06-27T10:17:38Z</time>
      </trkpt>
      <trkpt lat="48.02775" lon="7.00892">
        <ele>1281.57</ele>
        <time>2021-06-27T10:17:56Z</time>
      </trkpt>
      <trkpt lat="48.02749" lon="7.00884">
        <ele>1281.09</ele>
        <time>2021-06-27T10:18:17Z</time>
      </trkpt>
      <trkpt lat="48.02728" lon="7.00879">
        <ele>1280.61</ele>
        <time>2021-06-27T10:18:36Z</time>
      </trkpt>
      <trkpt lat="48.02706" lon="7.00882">
        <ele>1281.57</ele>
        <time>2021-06-27T10:18:55Z</time>
      </trkpt>
      <trkpt lat="48.02699" lon="7.00881">
        <ele>1282.06</ele>
        <time>2021-06-27T10:19:01Z</time>
      </trkpt>
      <trkpt lat="48.02695" lon="7.00881">
        <ele>1282.54</ele>
        <time>2021-06-27T10:19:04Z</time>
      </trkpt>
      <trkpt lat="48.02672" lon="7.00873">
        <ele>1283.02</ele>
        <time>2021-06-27T10:19:24Z</time>
      </trkpt>
      <trkpt lat="48.02669" lon="7.0087">
        <ele>1283.02</ele>
        <time>2021-06-27T10:19:27Z</time>
      </trkpt>
      <trkpt lat="48.02657" lon="7.00867">
        <ele>1282.54</ele>
        <time>2021-06-27T10:19:42Z</time>
      </trkpt>
      <trkpt lat="48.02656" lon="7.00868">
        <ele>1282.54</ele>
        <time>2021-06-27T10:19:43Z</time>
      </trkpt>
      <trkpt lat="48.02633" lon="7.00867">
        <ele>1281.57</ele>
        <time>2021-06-27T10:20:03Z</time>
      </trkpt>
      <trkpt lat="48.02613" lon="7.00866">
        <ele>1282.54</ele>
        <time>2021-06-27T10:20:20Z</time>
      </trkpt>
      <trkpt lat="48.02588" lon="7.00865">
        <ele>1282.54</ele>
        <time>2021-06-27T10:20:41Z</time>
      </trkpt>
      <trkpt lat="48.02564" lon="7.00851">
        <ele>1282.06</ele>
        <time>2021-06-27T10:21:03Z</time>
      </trkpt>
      <trkpt lat="48.02544" lon="7.00829">
        <ele>1283.02</ele>
        <time>2021-06-27T10:21:24Z</time>
      </trkpt>
      <trkpt lat="48.02523" lon="7.00811">
        <ele>1282.54</ele>
        <time>2021-06-27T10:21:44Z</time>
      </trkpt>
      <trkpt lat="48.02504" lon="7.00792">
        <ele>1283.5</ele>
        <time>2021-06-27T10:22:05Z</time>
      </trkpt>
      <trkpt lat="48.02498" lon="7.00785">
        <ele>1284.46</ele>
        <time>2021-06-27T10:22:13Z</time>
      </trkpt>
      <trkpt lat="48.02496" lon="7.00778">
        <ele>1284.94</ele>
        <time>2021-06-27T10:22:18Z</time>
      </trkpt>
      <trkpt lat="48.02469" lon="7.00757">
        <ele>1283.5</ele>
        <time>2021-06-27T10:22:41Z</time>
      </trkpt>
      <trkpt lat="48.02452" lon="7.00735">
        <ele>1284.46</ele>
        <time>2021-06-27T10:23:01Z</time>
      </trkpt>
      <trkpt lat="48.02435" lon="7.00721">
        <ele>1284.94</ele>
        <time>2021-06-27T10:23:18Z</time>
      </trkpt>
      <trkpt lat="48.02411" lon="7.00704">
        <ele>1284.46</ele>
        <time>2021-06-27T10:23:40Z</time>
      </trkpt>
      <trkpt lat="48.02391" lon="7.00689">
        <ele>1285.9</ele>
        <time>2021-06-27T10:23:59Z</time>
      </trkpt>
      <trkpt lat="48.02371" lon="7.00677">
        <ele>1285.9</ele>
        <time>2021-06-27T10:24:17Z</time>
      </trkpt>
      <trkpt lat="48.02349" lon="7.00662">
        <ele>1285.9</ele>
        <time>2021-06-27T10:24:37Z</time>
      </trkpt>
      <trkpt lat="48.02329" lon="7.00668">
        <ele>1286.38</ele>
        <time>2021-06-27T10:24:53Z</time>
      </trkpt>
      <trkpt lat="48.02324" lon="7.00668">
        <ele>1286.38</ele>
        <time>2021-06-27T10:24:59Z</time>
      </trkpt>
      <trkpt lat="48.02307" lon="7.00673">
        <ele>1288.78</ele>
        <time>2021-06-27T10:25:16Z</time>
      </trkpt>
      <trkpt lat="48.02291" lon="7.00677">
        <ele>1292.15</ele>
        <time>2021-06-27T10:25:32Z</time>
      </trkpt>
      <trkpt lat="48.02279" lon="7.0068">
        <ele>1292.63</ele>
        <time>2021-06-27T10:25:47Z</time>
      </trkpt>
      <trkpt lat="48.02267" lon="7.00677">
        <ele>1295.03</ele>
        <time>2021-06-27T10:26:00Z</time>
      </trkpt>
      <trkpt lat="48.0226" lon="7.0068">
        <ele>1295.51</ele>
        <time>2021-06-27T10:26:07Z</time>
      </trkpt>
      <trkpt lat="48.02241" lon="7.00678">
        <ele>1298.4</ele>
        <time>2021-06-27T10:26:26Z</time>
      </trkpt>
      <trkpt lat="48.02226" lon="7.00677">
        <ele>1300.8</ele>
        <time>2021-06-27T10:26:42Z</time>
      </trkpt>
      <trkpt lat="48.02217" lon="7.00677">
        <ele>1302.24</ele>
        <time>2021-06-27T10:26:52Z</time>
      </trkpt>
      <trkpt lat="48.02213" lon="7.00679">
        <ele>1302.72</ele>
        <time>2021-06-27T10:26:56Z</time>
      </trkpt>
      <trkpt lat="48.02198" lon="7.00683">
        <ele>1304.65</ele>
        <time>2021-06-27T10:27:10Z</time>
      </trkpt>
      <trkpt lat="48.02181" lon="7.00696">
        <ele>1304.17</ele>
        <time>2021-06-27T10:27:28Z</time>
      </trkpt>
      <trkpt lat="48.02166" lon="7.00707">
        <ele>1304.65</ele>
        <time>2021-06-27T10:27:43Z</time>
      </trkpt>
      <trkpt lat="48.02153" lon="7.00722">
        <ele>1305.13</ele>
        <time>2021-06-27T10:27:57Z</time>
      </trkpt>
      <trkpt lat="48.02148" lon="7.00729">
        <ele>1306.09</ele>
        <time>2021-06-27T10:28:04Z</time>
      </trkpt>
      <trkpt lat="48.02133" lon="7.0075">
        <ele>1307.05</ele>
        <time>2021-06-27T10:28:22Z</time>
      </trkpt>
      <trkpt lat="48.02121" lon="7.0077">
        <ele>1306.57</ele>
        <time>2021-06-27T10:28:37Z</time>
      </trkpt>
      <trkpt lat="48.02112" lon="7.0079">
        <ele>1305.61</ele>
        <time>2021-06-27T10:28:51Z</time>
      </trkpt>
      <trkpt lat="48.02107" lon="7.00804">
        <ele>1305.61</ele>
        <time>2021-06-27T10:29:08Z</time>
      </trkpt>
      <trkpt lat="48.02109" lon="7.00805">
        <ele>1305.61</ele>
        <time>2021-06-27T10:29:39Z</time>
      </trkpt>
      <trkpt lat="48.02107" lon="7.00807">
        <ele>1305.13</ele>
        <time>2021-06-27T10:29:49Z</time>
      </trkpt>
      <trkpt lat="48.02098" lon="7.00818">
        <ele>1305.13</ele>
        <time>2021-06-27T10:29:59Z</time>
      </trkpt>
      <trkpt lat="48.02096" lon="7.00823">
        <ele>1304.65</ele>
        <time>2021-06-27T10:30:03Z</time>
      </trkpt>
      <trkpt lat="48.02085" lon="7.00841">
        <ele>1303.2</ele>
        <time>2021-06-27T10:30:17Z</time>
      </trkpt>
      <trkpt lat="48.02079" lon="7.0085">
        <ele>1302.72</ele>
        <time>2021-06-27T10:30:25Z</time>
      </trkpt>
      <trkpt lat="48.02076" lon="7.00855">
        <ele>1302.24</ele>
        <time>2021-06-27T10:30:29Z</time>
      </trkpt>
      <trkpt lat="48.02067" lon="7.00872">
        <ele>1300.8</ele>
        <time>2021-06-27T10:30:42Z</time>
      </trkpt>
      <trkpt lat="48.02061" lon="7.00884">
        <ele>1299.36</ele>
        <time>2021-06-27T10:30:51Z</time>
      </trkpt>
      <trkpt lat="48.0205" lon="7.00907">
        <ele>1296.96</ele>
        <time>2021-06-27T10:31:07Z</time>
      </trkpt>
      <trkpt lat="48.02045" lon="7.00919">
        <ele>1295.99</ele>
        <time>2021-06-27T10:31:15Z</time>
      </trkpt>
      <trkpt lat="48.02031" lon="7.00945">
        <ele>1293.11</ele>
        <time>2021-06-27T10:31:34Z</time>
      </trkpt>
      <trkpt lat="48.02021" lon="7.00968">
        <ele>1291.19</ele>
        <time>2021-06-27T10:31:51Z</time>
      </trkpt>
      <trkpt lat="48.02013" lon="7.00991">
        <ele>1289.75</ele>
        <time>2021-06-27T10:32:06Z</time>
      </trkpt>
      <trkpt lat="48.02004" lon="7.01012">
        <ele>1287.34</ele>
        <time>2021-06-27T10:32:21Z</time>
      </trkpt>
      <trkpt lat="48.01996" lon="7.01029">
        <ele>1284.94</ele>
        <time>2021-06-27T10:32:35Z</time>
      </trkpt>
      <trkpt lat="48.0199" lon="7.01036">
        <ele>1284.46</ele>
        <time>2021-06-27T10:32:48Z</time>
      </trkpt>
      <trkpt lat="48.0199" lon="7.01036">
        <ele>1284.46</ele>
        <time>2021-06-27T10:32:49Z</time>
      </trkpt>
      <trkpt lat="48.01987" lon="7.01036">
        <ele>1283.98</ele>
        <time>2021-06-27T10:33:04Z</time>
      </trkpt>
      <trkpt lat="48.01987" lon="7.01036">
        <ele>1283.98</ele>
        <time>2021-06-27T10:33:33Z</time>
      </trkpt>
      <trkpt lat="48.01987" lon="7.01037">
        <ele>1283.98</ele>
        <time>2021-06-27T10:33:49Z</time>
      </trkpt>
      <trkpt lat="48.01987" lon="7.01037">
        <ele>1283.02</ele>
        <time>2021-06-27T10:34:03Z</time>
      </trkpt>
      <trkpt lat="48.01987" lon="7.01043">
        <ele>1283.5</ele>
        <time>2021-06-27T10:34:25Z</time>
      </trkpt>
      <trkpt lat="48.01981" lon="7.01056">
        <ele>1281.09</ele>
        <time>2021-06-27T10:34:36Z</time>
      </trkpt>
      <trkpt lat="48.01974" lon="7.01083">
        <ele>1276.77</ele>
        <time>2021-06-27T10:34:53Z</time>
      </trkpt>
      <trkpt lat="48.01974" lon="7.01086">
        <ele>1276.29</ele>
        <time>2021-06-27T10:34:55Z</time>
      </trkpt>
      <trkpt lat="48.01968" lon="7.01101">
        <ele>1271.96</ele>
        <time>2021-06-27T10:35:10Z</time>
      </trkpt>
      <trkpt lat="48.01955" lon="7.01122">
        <ele>1267.64</ele>
        <time>2021-06-27T10:35:27Z</time>
      </trkpt>
      <trkpt lat="48.0195" lon="7.01129">
        <ele>1266.19</ele>
        <time>2021-06-27T10:35:33Z</time>
      </trkpt>
      <trkpt lat="48.01944" lon="7.01142">
        <ele>1263.79</ele>
        <time>2021-06-27T10:35:44Z</time>
      </trkpt>
      <trkpt lat="48.01937" lon="7.01147">
        <ele>1263.31</ele>
        <time>2021-06-27T10:35:50Z</time>
      </trkpt>
      <trkpt lat="48.0192" lon="7.01161">
        <ele>1261.87</ele>
        <time>2021-06-27T10:36:08Z</time>
      </trkpt>
      <trkpt lat="48.01902" lon="7.01183">
        <ele>1257.06</ele>
        <time>2021-06-27T10:36:28Z</time>
      </trkpt>
      <trkpt lat="48.01882" lon="7.012">
        <ele>1254.66</ele>
        <time>2021-06-27T10:36:47Z</time>
      </trkpt>
      <trkpt lat="48.01868" lon="7.01214">
        <ele>1252.74</ele>
        <time>2021-06-27T10:37:01Z</time>
      </trkpt>
      <trkpt lat="48.01863" lon="7.01219">
        <ele>1252.25</ele>
        <time>2021-06-27T10:37:06Z</time>
      </trkpt>
      <trkpt lat="48.01842" lon="7.0123">
        <ele>1246.01</ele>
        <time>2021-06-27T10:37:26Z</time>
      </trkpt>
      <trkpt lat="48.0183" lon="7.0124">
        <ele>1243.12</ele>
        <time>2021-06-27T10:37:38Z</time>
      </trkpt>
      <trkpt lat="48.01825" lon="7.01247">
        <ele>1241.2</ele>
        <time>2021-06-27T10:37:44Z</time>
      </trkpt>
      <trkpt lat="48.01814" lon="7.01263">
        <ele>1236.87</ele>
        <time>2021-06-27T10:37:57Z</time>
      </trkpt>
      <trkpt lat="48.01803" lon="7.01282">
        <ele>1230.62</ele>
        <time>2021-06-27T10:38:13Z</time>
      </trkpt>
      <trkpt lat="48.01785" lon="7.01296">
        <ele>1226.78</ele>
        <time>2021-06-27T10:38:32Z</time>
      </trkpt>
      <trkpt lat="48.01771" lon="7.01302">
        <ele>1223.9</ele>
        <time>2021-06-27T10:38:45Z</time>
      </trkpt>
      <trkpt lat="48.01765" lon="7.01308">
        <ele>1221.01</ele>
        <time>2021-06-27T10:38:53Z</time>
      </trkpt>
      <trkpt lat="48.01746" lon="7.01315">
        <ele>1217.17</ele>
        <time>2021-06-27T10:39:11Z</time>
      </trkpt>
      <trkpt lat="48.01729" lon="7.01317">
        <ele>1213.8</ele>
        <time>2021-06-27T10:39:27Z</time>
      </trkpt>
      <trkpt lat="48.01705" lon="7.01314">
        <ele>1209.48</ele>
        <time>2021-06-27T10:39:48Z</time>
      </trkpt>
      <trkpt lat="48.01688" lon="7.01314">
        <ele>1205.15</ele>
        <time>2021-06-27T10:40:05Z</time>
      </trkpt>
      <trkpt lat="48.01673" lon="7.01318">
        <ele>1201.79</ele>
        <time>2021-06-27T10:40:19Z</time>
      </trkpt>
      <trkpt lat="48.01657" lon="7.01312">
        <ele>1198.42</ele>
        <time>2021-06-27T10:40:35Z</time>
      </trkpt>
      <trkpt lat="48.01641" lon="7.01303">
        <ele>1195.06</ele>
        <time>2021-06-27T10:40:51Z</time>
      </trkpt>
      <trkpt lat="48.01625" lon="7.01295">
        <ele>1192.17</ele>
        <time>2021-06-27T10:41:07Z</time>
      </trkpt>
      <trkpt lat="48.01607" lon="7.01289">
        <ele>1188.33</ele>
        <time>2021-06-27T10:41:24Z</time>
      </trkpt>
      <trkpt lat="48.01589" lon="7.01282">
        <ele>1183.52</ele>
        <time>2021-06-27T10:41:42Z</time>
      </trkpt>
      <trkpt lat="48.01576" lon="7.01274">
        <ele>1181.6</ele>
        <time>2021-06-27T10:41:56Z</time>
      </trkpt>
      <trkpt lat="48.01574" lon="7.01274">
        <ele>1181.12</ele>
        <time>2021-06-27T10:41:58Z</time>
      </trkpt>
      <trkpt lat="48.0157" lon="7.01273">
        <ele>1180.16</ele>
        <time>2021-06-27T10:42:02Z</time>
      </trkpt>
      <trkpt lat="48.01552" lon="7.01259">
        <ele>1176.79</ele>
        <time>2021-06-27T10:42:21Z</time>
      </trkpt>
      <trkpt lat="48.01531" lon="7.01248">
        <ele>1173.43</ele>
        <time>2021-06-27T10:42:42Z</time>
      </trkpt>
      <trkpt lat="48.01523" lon="7.01244">
        <ele>1171.02</ele>
        <time>2021-06-27T10:42:57Z</time>
      </trkpt>
      <trkpt lat="48.01523" lon="7.01243">
        <ele>1170.54</ele>
        <time>2021-06-27T10:42:58Z</time>
      </trkpt>
      <trkpt lat="48.01517" lon="7.01218">
        <ele>1170.54</ele>
        <time>2021-06-27T10:43:15Z</time>
      </trkpt>
      <trkpt lat="48.01513" lon="7.01209">
        <ele>1170.06</ele>
        <time>2021-06-27T10:43:29Z</time>
      </trkpt>
      <trkpt lat="48.01509" lon="7.01211">
        <ele>1169.1</ele>
        <time>2021-06-27T10:43:33Z</time>
      </trkpt>
      <trkpt lat="48.01506" lon="7.01209">
        <ele>1168.62</ele>
        <time>2021-06-27T10:43:36Z</time>
      </trkpt>
      <trkpt lat="48.01503" lon="7.01209">
        <ele>1167.66</ele>
        <time>2021-06-27T10:43:39Z</time>
      </trkpt>
      <trkpt lat="48.01494" lon="7.01229">
        <ele>1165.26</ele>
        <time>2021-06-27T10:43:55Z</time>
      </trkpt>
      <trkpt lat="48.01489" lon="7.01232">
        <ele>1163.33</ele>
        <time>2021-06-27T10:44:08Z</time>
      </trkpt>
      <trkpt lat="48.01484" lon="7.01211">
        <ele>1162.85</ele>
        <time>2021-06-27T10:44:24Z</time>
      </trkpt>
      <trkpt lat="48.01479" lon="7.01189">
        <ele>1163.33</ele>
        <time>2021-06-27T10:44:42Z</time>
      </trkpt>
      <trkpt lat="48.01477" lon="7.01174">
        <ele>1161.41</ele>
        <time>2021-06-27T10:44:59Z</time>
      </trkpt>
      <trkpt lat="48.01478" lon="7.01173">
        <ele>1162.85</ele>
        <time>2021-06-27T10:45:11Z</time>
      </trkpt>
      <trkpt lat="48.01477" lon="7.01174">
        <ele>1163.81</ele>
        <time>2021-06-27T10:45:38Z</time>
      </trkpt>
      <trkpt lat="48.01477" lon="7.01173">
        <ele>1161.41</ele>
        <time>2021-06-27T10:46:08Z</time>
      </trkpt>
      <trkpt lat="48.01478" lon="7.01171">
        <ele>1160.45</ele>
        <time>2021-06-27T10:46:32Z</time>
      </trkpt>
      <trkpt lat="48.01479" lon="7.0117">
        <ele>1160.45</ele>
        <time>2021-06-27T10:47:00Z</time>
      </trkpt>
      <trkpt lat="48.01479" lon="7.01172">
        <ele>1161.89</ele>
        <time>2021-06-27T10:47:31Z</time>
      </trkpt>
      <trkpt lat="48.01479" lon="7.01173">
        <ele>1162.37</ele>
        <time>2021-06-27T10:48:02Z</time>
      </trkpt>
      <trkpt lat="48.01477" lon="7.01176">
        <ele>1163.33</ele>
        <time>2021-06-27T10:48:27Z</time>
      </trkpt>
      <trkpt lat="48.01476" lon="7.01175">
        <ele>1162.37</ele>
        <time>2021-06-27T10:48:50Z</time>
      </trkpt>
      <trkpt lat="48.01477" lon="7.01175">
        <ele>1160.93</ele>
        <time>2021-06-27T10:49:18Z</time>
      </trkpt>
      <trkpt lat="48.01477" lon="7.01174">
        <ele>1160.93</ele>
        <time>2021-06-27T10:49:31Z</time>
      </trkpt>
      <trkpt lat="48.01478" lon="7.01173">
        <ele>1159.97</ele>
        <time>2021-06-27T10:49:38Z</time>
      </trkpt>
      <trkpt lat="48.01479" lon="7.01173">
        <ele>1160.93</ele>
        <time>2021-06-27T10:49:53Z</time>
      </trkpt>
      <trkpt lat="48.01475" lon="7.0118">
        <ele>1171.02</ele>
        <time>2021-06-27T10:50:24Z</time>
      </trkpt>
      <trkpt lat="48.01475" lon="7.0118">
        <ele>1172.47</ele>
        <time>2021-06-27T10:50:50Z</time>
      </trkpt>
      <trkpt lat="48.01478" lon="7.01175">
        <ele>1167.18</ele>
        <time>2021-06-27T10:51:19Z</time>
      </trkpt>
      <trkpt lat="48.01478" lon="7.01174">
        <ele>1167.18</ele>
        <time>2021-06-27T10:51:44Z</time>
      </trkpt>
      <trkpt lat="48.01479" lon="7.01172">
        <ele>1166.22</ele>
        <time>2021-06-27T10:52:06Z</time>
      </trkpt>
      <trkpt lat="48.0148" lon="7.01172">
        <ele>1162.37</ele>
        <time>2021-06-27T10:52:28Z</time>
      </trkpt>
      <trkpt lat="48.0148" lon="7.01172">
        <ele>1160.45</ele>
        <time>2021-06-27T10:52:57Z</time>
      </trkpt>
      <trkpt lat="48.0148" lon="7.01172">
        <ele>1159.01</ele>
        <time>2021-06-27T10:53:26Z</time>
      </trkpt>
      <trkpt lat="48.0148" lon="7.01172">
        <ele>1159.01</ele>
        <time>2021-06-27T10:53:57Z</time>
      </trkpt>
      <trkpt lat="48.0148" lon="7.01172">
        <ele>1156.6</ele>
        <time>2021-06-27T10:54:23Z</time>
      </trkpt>
      <trkpt lat="48.0148" lon="7.01172">
        <ele>1158.05</ele>
        <time>2021-06-27T10:54:50Z</time>
      </trkpt>
      <trkpt lat="48.0148" lon="7.01173">
        <ele>1161.41</ele>
        <time>2021-06-27T10:55:15Z</time>
      </trkpt>
      <trkpt lat="48.0148" lon="7.01172">
        <ele>1162.85</ele>
        <time>2021-06-27T10:55:42Z</time>
      </trkpt>
      <trkpt lat="48.01479" lon="7.01171">
        <ele>1166.7</ele>
        <time>2021-06-27T10:56:15Z</time>
      </trkpt>
      <trkpt lat="48.01479" lon="7.01172">
        <ele>1167.66</ele>
        <time>2021-06-27T10:56:43Z</time>
      </trkpt>
      <trkpt lat="48.01479" lon="7.01173">
        <ele>1167.18</ele>
        <time>2021-06-27T10:57:03Z</time>
      </trkpt>
      <trkpt lat="48.01479" lon="7.01172">
        <ele>1164.29</ele>
        <time>2021-06-27T10:57:27Z</time>
      </trkpt>
      <trkpt lat="48.01478" lon="7.01172">
        <ele>1163.33</ele>
        <time>2021-06-27T10:57:56Z</time>
      </trkpt>
      <trkpt lat="48.01479" lon="7.0117">
        <ele>1163.81</ele>
        <time>2021-06-27T10:58:32Z</time>
      </trkpt>
      <trkpt lat="48.01479" lon="7.0117">
        <ele>1162.85</ele>
        <time>2021-06-27T10:59:00Z</time>
      </trkpt>
      <trkpt lat="48.0148" lon="7.0117">
        <ele>1160.45</ele>
        <time>2021-06-27T10:59:30Z</time>
      </trkpt>
      <trkpt lat="48.0148" lon="7.01171">
        <ele>1160.45</ele>
        <time>2021-06-27T11:00:02Z</time>
      </trkpt>
      <trkpt lat="48.01479" lon="7.01171">
        <ele>1160.93</ele>
        <time>2021-06-27T11:00:32Z</time>
      </trkpt>
      <trkpt lat="48.0148" lon="7.01171">
        <ele>1159.49</ele>
        <time>2021-06-27T11:00:54Z</time>
      </trkpt>
      <trkpt lat="48.0148" lon="7.01172">
        <ele>1157.56</ele>
        <time>2021-06-27T11:01:16Z</time>
      </trkpt>
      <trkpt lat="48.01479" lon="7.01171">
        <ele>1160.93</ele>
        <time>2021-06-27T11:01:41Z</time>
      </trkpt>
      <trkpt lat="48.01478" lon="7.01171">
        <ele>1160.45</ele>
        <time>2021-06-27T11:02:15Z</time>
      </trkpt>
      <trkpt lat="48.01479" lon="7.0117">
        <ele>1159.49</ele>
        <time>2021-06-27T11:02:38Z</time>
      </trkpt>
      <trkpt lat="48.01479" lon="7.01171">
        <ele>1158.05</ele>
        <time>2021-06-27T11:03:07Z</time>
      </trkpt>
      <trkpt lat="48.01479" lon="7.01172">
        <ele>1157.56</ele>
        <time>2021-06-27T11:03:35Z</time>
      </trkpt>
      <trkpt lat="48.01478" lon="7.01173">
        <ele>1156.6</ele>
        <time>2021-06-27T11:03:59Z</time>
      </trkpt>
      <trkpt lat="48.01479" lon="7.01173">
        <ele>1155.16</ele>
        <time>2021-06-27T11:04:12Z</time>
      </trkpt>
      <trkpt lat="48.01479" lon="7.01173">
        <ele>1156.6</ele>
        <time>2021-06-27T11:04:29Z</time>
      </trkpt>
      <trkpt lat="48.01483" lon="7.01179">
        <ele>1159.49</ele>
        <time>2021-06-27T11:04:41Z</time>
      </trkpt>
      <trkpt lat="48.01479" lon="7.01174">
        <ele>1160.93</ele>
        <time>2021-06-27T11:04:53Z</time>
      </trkpt>
      <trkpt lat="48.01474" lon="7.01179">
        <ele>1162.37</ele>
        <time>2021-06-27T11:04:57Z</time>
      </trkpt>
      <trkpt lat="48.01481" lon="7.01198">
        <ele>1164.29</ele>
        <time>2021-06-27T11:05:11Z</time>
      </trkpt>
      <trkpt lat="48.01484" lon="7.01209">
        <ele>1164.77</ele>
        <time>2021-06-27T11:05:18Z</time>
      </trkpt>
      <trkpt lat="48.01484" lon="7.01212">
        <ele>1165.26</ele>
        <time>2021-06-27T11:05:20Z</time>
      </trkpt>
      <trkpt lat="48.0149" lon="7.01233">
        <ele>1165.74</ele>
        <time>2021-06-27T11:05:34Z</time>
      </trkpt>
      <trkpt lat="48.01492" lon="7.01237">
        <ele>1165.74</ele>
        <time>2021-06-27T11:05:37Z</time>
      </trkpt>
      <trkpt lat="48.01494" lon="7.01237">
        <ele>1165.26</ele>
        <time>2021-06-27T11:05:39Z</time>
      </trkpt>
      <trkpt lat="48.01497" lon="7.01228">
        <ele>1165.26</ele>
        <time>2021-06-27T11:05:47Z</time>
      </trkpt>
      <trkpt lat="48.01503" lon="7.01214">
        <ele>1166.7</ele>
        <time>2021-06-27T11:06:00Z</time>
      </trkpt>
      <trkpt lat="48.01512" lon="7.01192">
        <ele>1168.14</ele>
        <time>2021-06-27T11:06:17Z</time>
      </trkpt>
      <trkpt lat="48.01522" lon="7.01168">
        <ele>1169.1</ele>
        <time>2021-06-27T11:06:34Z</time>
      </trkpt>
      <trkpt lat="48.01534" lon="7.0115">
        <ele>1169.58</ele>
        <time>2021-06-27T11:06:50Z</time>
      </trkpt>
      <trkpt lat="48.01547" lon="7.01134">
        <ele>1171.02</ele>
        <time>2021-06-27T11:07:05Z</time>
      </trkpt>
      <trkpt lat="48.01548" lon="7.01131">
        <ele>1171.02</ele>
        <time>2021-06-27T11:07:07Z</time>
      </trkpt>
      <trkpt lat="48.01562" lon="7.01111">
        <ele>1171.5</ele>
        <time>2021-06-27T11:07:25Z</time>
      </trkpt>
      <trkpt lat="48.01578" lon="7.0109">
        <ele>1171.02</ele>
        <time>2021-06-27T11:07:44Z</time>
      </trkpt>
      <trkpt lat="48.01591" lon="7.01072">
        <ele>1171.5</ele>
        <time>2021-06-27T11:08:00Z</time>
      </trkpt>
      <trkpt lat="48.01604" lon="7.01052">
        <ele>1175.83</ele>
        <time>2021-06-27T11:08:18Z</time>
      </trkpt>
      <trkpt lat="48.01614" lon="7.01035">
        <ele>1177.75</ele>
        <time>2021-06-27T11:08:31Z</time>
      </trkpt>
      <trkpt lat="48.01619" lon="7.01024">
        <ele>1178.23</ele>
        <time>2021-06-27T11:08:39Z</time>
      </trkpt>
      <trkpt lat="48.01626" lon="7.01003">
        <ele>1181.12</ele>
        <time>2021-06-27T11:08:52Z</time>
      </trkpt>
      <trkpt lat="48.01632" lon="7.0098">
        <ele>1181.6</ele>
        <time>2021-06-27T11:09:07Z</time>
      </trkpt>
      <trkpt lat="48.01638" lon="7.00967">
        <ele>1180.64</ele>
        <time>2021-06-27T11:09:17Z</time>
      </trkpt>
      <trkpt lat="48.0164" lon="7.00941">
        <ele>1175.35</ele>
        <time>2021-06-27T11:09:32Z</time>
      </trkpt>
      <trkpt lat="48.01639" lon="7.00923">
        <ele>1174.39</ele>
        <time>2021-06-27T11:09:42Z</time>
      </trkpt>
      <trkpt lat="48.01641" lon="7.00892">
        <ele>1178.71</ele>
        <time>2021-06-27T11:09:59Z</time>
      </trkpt>
      <trkpt lat="48.0164" lon="7.0087">
        <ele>1180.16</ele>
        <time>2021-06-27T11:10:13Z</time>
      </trkpt>
      <trkpt lat="48.01641" lon="7.00844">
        <ele>1180.64</ele>
        <time>2021-06-27T11:10:28Z</time>
      </trkpt>
      <trkpt lat="48.01641" lon="7.00822">
        <ele>1184</ele>
        <time>2021-06-27T11:10:40Z</time>
      </trkpt>
      <trkpt lat="48.01642" lon="7.00794">
        <ele>1185.92</ele>
        <time>2021-06-27T11:10:55Z</time>
      </trkpt>
      <trkpt lat="48.01642" lon="7.00792">
        <ele>1185.92</ele>
        <time>2021-06-27T11:10:56Z</time>
      </trkpt>
      <trkpt lat="48.01643" lon="7.00786">
        <ele>1186.4</ele>
        <time>2021-06-27T11:10:59Z</time>
      </trkpt>
      <trkpt lat="48.01643" lon="7.00766">
        <ele>1189.29</ele>
        <time>2021-06-27T11:11:10Z</time>
      </trkpt>
      <trkpt lat="48.01642" lon="7.00744">
        <ele>1191.69</ele>
        <time>2021-06-27T11:11:22Z</time>
      </trkpt>
      <trkpt lat="48.01643" lon="7.00713">
        <ele>1191.69</ele>
        <time>2021-06-27T11:11:40Z</time>
      </trkpt>
      <trkpt lat="48.01643" lon="7.00704">
        <ele>1192.65</ele>
        <time>2021-06-27T11:11:45Z</time>
      </trkpt>
      <trkpt lat="48.0165" lon="7.00681">
        <ele>1194.58</ele>
        <time>2021-06-27T11:12:00Z</time>
      </trkpt>
      <trkpt lat="48.01652" lon="7.00655">
        <ele>1194.58</ele>
        <time>2021-06-27T11:12:16Z</time>
      </trkpt>
      <trkpt lat="48.01652" lon="7.00654">
        <ele>1195.06</ele>
        <time>2021-06-27T11:12:17Z</time>
      </trkpt>
      <trkpt lat="48.01652" lon="7.00647">
        <ele>1195.06</ele>
        <time>2021-06-27T11:12:21Z</time>
      </trkpt>
      <trkpt lat="48.01653" lon="7.00642">
        <ele>1195.06</ele>
        <time>2021-06-27T11:12:24Z</time>
      </trkpt>
      <trkpt lat="48.01654" lon="7.00634">
        <ele>1195.54</ele>
        <time>2021-06-27T11:12:29Z</time>
      </trkpt>
      <trkpt lat="48.01658" lon="7.00625">
        <ele>1196.02</ele>
        <time>2021-06-27T11:12:34Z</time>
      </trkpt>
      <trkpt lat="48.01663" lon="7.00612">
        <ele>1197.94</ele>
        <time>2021-06-27T11:12:43Z</time>
      </trkpt>
      <trkpt lat="48.01665" lon="7.00601">
        <ele>1198.9</ele>
        <time>2021-06-27T11:12:51Z</time>
      </trkpt>
      <trkpt lat="48.01671" lon="7.00587">
        <ele>1200.34</ele>
        <time>2021-06-27T11:13:02Z</time>
      </trkpt>
      <trkpt lat="48.01675" lon="7.00579">
        <ele>1200.82</ele>
        <time>2021-06-27T11:13:08Z</time>
      </trkpt>
      <trkpt lat="48.01682" lon="7.00567">
        <ele>1200.82</ele>
        <time>2021-06-27T11:13:21Z</time>
      </trkpt>
      <trkpt lat="48.01677" lon="7.00564">
        <ele>1200.82</ele>
        <time>2021-06-27T11:13:35Z</time>
      </trkpt>
      <trkpt lat="48.01675" lon="7.00554">
        <ele>1198.42</ele>
        <time>2021-06-27T11:13:48Z</time>
      </trkpt>
      <trkpt lat="48.01675" lon="7.0055">
        <ele>1198.42</ele>
        <time>2021-06-27T11:14:03Z</time>
      </trkpt>
      <trkpt lat="48.01677" lon="7.00549">
        <ele>1198.42</ele>
        <time>2021-06-27T11:14:37Z</time>
      </trkpt>
      <trkpt lat="48.01669" lon="7.00547">
        <ele>1200.34</ele>
        <time>2021-06-27T11:15:06Z</time>
      </trkpt>
      <trkpt lat="48.01667" lon="7.00541">
        <ele>1200.82</ele>
        <time>2021-06-27T11:15:43Z</time>
      </trkpt>
      <trkpt lat="48.0167" lon="7.00546">
        <ele>1207.55</ele>
        <time>2021-06-27T11:16:22Z</time>
      </trkpt>
      <trkpt lat="48.01671" lon="7.00554">
        <ele>1204.19</ele>
        <time>2021-06-27T11:17:00Z</time>
      </trkpt>
      <trkpt lat="48.01671" lon="7.00551">
        <ele>1194.58</ele>
        <time>2021-06-27T11:17:19Z</time>
      </trkpt>
      <trkpt lat="48.01671" lon="7.00555">
        <ele>1191.21</ele>
        <time>2021-06-27T11:17:51Z</time>
      </trkpt>
      <trkpt lat="48.01679" lon="7.00548">
        <ele>1189.29</ele>
        <time>2021-06-27T11:18:18Z</time>
      </trkpt>
      <trkpt lat="48.01676" lon="7.00555">
        <ele>1196.5</ele>
        <time>2021-06-27T11:18:53Z</time>
      </trkpt>
      <trkpt lat="48.01672" lon="7.00556">
        <ele>1198.9</ele>
        <time>2021-06-27T11:19:31Z</time>
      </trkpt>
      <trkpt lat="48.01675" lon="7.00555">
        <ele>1202.75</ele>
        <time>2021-06-27T11:20:00Z</time>
      </trkpt>
      <trkpt lat="48.01675" lon="7.00558">
        <ele>1200.34</ele>
        <time>2021-06-27T11:20:34Z</time>
      </trkpt>
      <trkpt lat="48.01672" lon="7.00562">
        <ele>1197.46</ele>
        <time>2021-06-27T11:20:46Z</time>
      </trkpt>
      <trkpt lat="48.01672" lon="7.00574">
        <ele>1201.79</ele>
        <time>2021-06-27T11:21:00Z</time>
      </trkpt>
      <trkpt lat="48.01678" lon="7.00576">
        <ele>1204.67</ele>
        <time>2021-06-27T11:21:10Z</time>
      </trkpt>
      <trkpt lat="48.0168" lon="7.00577">
        <ele>1205.15</ele>
        <time>2021-06-27T11:21:22Z</time>
      </trkpt>
      <trkpt lat="48.01677" lon="7.00571">
        <ele>1206.59</ele>
        <time>2021-06-27T11:21:29Z</time>
      </trkpt>
      <trkpt lat="48.01681" lon="7.00568">
        <ele>1208.51</ele>
        <time>2021-06-27T11:21:36Z</time>
      </trkpt>
      <trkpt lat="48.01684" lon="7.00562">
        <ele>1209.48</ele>
        <time>2021-06-27T11:21:40Z</time>
      </trkpt>
      <trkpt lat="48.01694" lon="7.00548">
        <ele>1214.76</ele>
        <time>2021-06-27T11:21:52Z</time>
      </trkpt>
      <trkpt lat="48.01701" lon="7.00539">
        <ele>1219.09</ele>
        <time>2021-06-27T11:21:59Z</time>
      </trkpt>
      <trkpt lat="48.01703" lon="7.00536">
        <ele>1220.05</ele>
        <time>2021-06-27T11:22:02Z</time>
      </trkpt>
      <trkpt lat="48.01709" lon="7.00529">
        <ele>1218.61</ele>
        <time>2021-06-27T11:22:07Z</time>
      </trkpt>
      <trkpt lat="48.01713" lon="7.00522">
        <ele>1218.61</ele>
        <time>2021-06-27T11:22:12Z</time>
      </trkpt>
      <trkpt lat="48.01725" lon="7.005">
        <ele>1218.61</ele>
        <time>2021-06-27T11:22:27Z</time>
      </trkpt>
      <trkpt lat="48.01726" lon="7.00498">
        <ele>1218.13</ele>
        <time>2021-06-27T11:22:28Z</time>
      </trkpt>
      <trkpt lat="48.01727" lon="7.00492">
        <ele>1216.69</ele>
        <time>2021-06-27T11:22:32Z</time>
      </trkpt>
      <trkpt lat="48.01737" lon="7.00468">
        <ele>1215.72</ele>
        <time>2021-06-27T11:22:48Z</time>
      </trkpt>
      <trkpt lat="48.01747" lon="7.0045">
        <ele>1215.24</ele>
        <time>2021-06-27T11:23:02Z</time>
      </trkpt>
      <trkpt lat="48.01756" lon="7.00428">
        <ele>1217.65</ele>
        <time>2021-06-27T11:23:16Z</time>
      </trkpt>
      <trkpt lat="48.01761" lon="7.00401">
        <ele>1214.76</ele>
        <time>2021-06-27T11:23:32Z</time>
      </trkpt>
      <trkpt lat="48.01766" lon="7.00377">
        <ele>1215.72</ele>
        <time>2021-06-27T11:23:47Z</time>
      </trkpt>
      <trkpt lat="48.01771" lon="7.00355">
        <ele>1216.21</ele>
        <time>2021-06-27T11:24:01Z</time>
      </trkpt>
      <trkpt lat="48.01774" lon="7.0034">
        <ele>1218.13</ele>
        <time>2021-06-27T11:24:13Z</time>
      </trkpt>
      <trkpt lat="48.01775" lon="7.00322">
        <ele>1219.57</ele>
        <time>2021-06-27T11:24:24Z</time>
      </trkpt>
      <trkpt lat="48.01776" lon="7.00317">
        <ele>1220.53</ele>
        <time>2021-06-27T11:24:27Z</time>
      </trkpt>
      <trkpt lat="48.01778" lon="7.0029">
        <ele>1226.78</ele>
        <time>2021-06-27T11:24:43Z</time>
      </trkpt>
      <trkpt lat="48.01779" lon="7.00281">
        <ele>1229.18</ele>
        <time>2021-06-27T11:24:49Z</time>
      </trkpt>
      <trkpt lat="48.0178" lon="7.00278">
        <ele>1230.14</ele>
        <time>2021-06-27T11:24:51Z</time>
      </trkpt>
      <trkpt lat="48.01781" lon="7.00271">
        <ele>1232.07</ele>
        <time>2021-06-27T11:24:55Z</time>
      </trkpt>
      <trkpt lat="48.01777" lon="7.00252">
        <ele>1233.03</ele>
        <time>2021-06-27T11:25:10Z</time>
      </trkpt>
      <trkpt lat="48.01774" lon="7.00238">
        <ele>1228.7</ele>
        <time>2021-06-27T11:25:27Z</time>
      </trkpt>
      <trkpt lat="48.01771" lon="7.00233">
        <ele>1226.3</ele>
        <time>2021-06-27T11:25:32Z</time>
      </trkpt>
      <trkpt lat="48.01765" lon="7.00222">
        <ele>1224.86</ele>
        <time>2021-06-27T11:25:41Z</time>
      </trkpt>
      <trkpt lat="48.01761" lon="7.00205">
        <ele>1224.38</ele>
        <time>2021-06-27T11:25:53Z</time>
      </trkpt>
      <trkpt lat="48.01759" lon="7.00199">
        <ele>1223.9</ele>
        <time>2021-06-27T11:25:57Z</time>
      </trkpt>
      <trkpt lat="48.01752" lon="7.0017">
        <ele>1221.49</ele>
        <time>2021-06-27T11:26:12Z</time>
      </trkpt>
      <trkpt lat="48.01749" lon="7.00156">
        <ele>1222.93</ele>
        <time>2021-06-27T11:26:23Z</time>
      </trkpt>
      <trkpt lat="48.01748" lon="7.00142">
        <ele>1221.49</ele>
        <time>2021-06-27T11:26:35Z</time>
      </trkpt>
      <trkpt lat="48.0174" lon="7.00118">
        <ele>1221.49</ele>
        <time>2021-06-27T11:26:47Z</time>
      </trkpt>
      <trkpt lat="48.01733" lon="7.001">
        <ele>1221.01</ele>
        <time>2021-06-27T11:26:58Z</time>
      </trkpt>
      <trkpt lat="48.01733" lon="7.00084">
        <ele>1221.49</ele>
        <time>2021-06-27T11:27:12Z</time>
      </trkpt>
      <trkpt lat="48.01731" lon="7.00057">
        <ele>1221.01</ele>
        <time>2021-06-27T11:27:25Z</time>
      </trkpt>
      <trkpt lat="48.0173" lon="7.00039">
        <ele>1222.93</ele>
        <time>2021-06-27T11:27:36Z</time>
      </trkpt>
      <trkpt lat="48.0173" lon="7.00035">
        <ele>1223.9</ele>
        <time>2021-06-27T11:27:38Z</time>
      </trkpt>
      <trkpt lat="48.01731" lon="7.00021">
        <ele>1226.3</ele>
        <time>2021-06-27T11:27:47Z</time>
      </trkpt>
      <trkpt lat="48.01731" lon="7.0001">
        <ele>1227.74</ele>
        <time>2021-06-27T11:27:53Z</time>
      </trkpt>
      <trkpt lat="48.0173" lon="6.99985">
        <ele>1231.11</ele>
        <time>2021-06-27T11:28:08Z</time>
      </trkpt>
      <trkpt lat="48.0173" lon="6.99981">
        <ele>1231.59</ele>
        <time>2021-06-27T11:28:10Z</time>
      </trkpt>
      <trkpt lat="48.01729" lon="6.99953">
        <ele>1233.99</ele>
        <time>2021-06-27T11:28:26Z</time>
      </trkpt>
      <trkpt lat="48.0173" lon="6.99952">
        <ele>1234.95</ele>
        <time>2021-06-27T11:28:27Z</time>
      </trkpt>
      <trkpt lat="48.0173" lon="6.99945">
        <ele>1235.43</ele>
        <time>2021-06-27T11:28:31Z</time>
      </trkpt>
      <trkpt lat="48.01729" lon="6.99918">
        <ele>1236.87</ele>
        <time>2021-06-27T11:28:46Z</time>
      </trkpt>
      <trkpt lat="48.01731" lon="6.99892">
        <ele>1237.35</ele>
        <time>2021-06-27T11:29:01Z</time>
      </trkpt>
      <trkpt lat="48.01732" lon="6.99888">
        <ele>1236.87</ele>
        <time>2021-06-27T11:29:04Z</time>
      </trkpt>
      <trkpt lat="48.01733" lon="6.99881">
        <ele>1236.39</ele>
        <time>2021-06-27T11:29:08Z</time>
      </trkpt>
      <trkpt lat="48.01734" lon="6.99876">
        <ele>1236.87</ele>
        <time>2021-06-27T11:29:12Z</time>
      </trkpt>
      <trkpt lat="48.01736" lon="6.99857">
        <ele>1235.91</ele>
        <time>2021-06-27T11:29:26Z</time>
      </trkpt>
      <trkpt lat="48.01741" lon="6.99833">
        <ele>1237.35</ele>
        <time>2021-06-27T11:29:40Z</time>
      </trkpt>
      <trkpt lat="48.01747" lon="6.99811">
        <ele>1239.28</ele>
        <time>2021-06-27T11:29:55Z</time>
      </trkpt>
      <trkpt lat="48.01748" lon="6.99807">
        <ele>1240.24</ele>
        <time>2021-06-27T11:29:59Z</time>
      </trkpt>
      <trkpt lat="48.01753" lon="6.99794">
        <ele>1241.2</ele>
        <time>2021-06-27T11:30:11Z</time>
      </trkpt>
      <trkpt lat="48.01758" lon="6.99778">
        <ele>1244.56</ele>
        <time>2021-06-27T11:30:23Z</time>
      </trkpt>
      <trkpt lat="48.01759" lon="6.99775">
        <ele>1246.01</ele>
        <time>2021-06-27T11:30:26Z</time>
      </trkpt>
      <trkpt lat="48.0177" lon="6.99762">
        <ele>1247.93</ele>
        <time>2021-06-27T11:30:39Z</time>
      </trkpt>
      <trkpt lat="48.01785" lon="6.99743">
        <ele>1247.45</ele>
        <time>2021-06-27T11:30:53Z</time>
      </trkpt>
      <trkpt lat="48.01796" lon="6.99733">
        <ele>1248.41</ele>
        <time>2021-06-27T11:31:04Z</time>
      </trkpt>
      <trkpt lat="48.01804" lon="6.9972">
        <ele>1249.37</ele>
        <time>2021-06-27T11:31:16Z</time>
      </trkpt>
      <trkpt lat="48.01811" lon="6.99706">
        <ele>1249.37</ele>
        <time>2021-06-27T11:31:28Z</time>
      </trkpt>
      <trkpt lat="48.01815" lon="6.99703">
        <ele>1250.33</ele>
        <time>2021-06-27T11:31:31Z</time>
      </trkpt>
      <trkpt lat="48.01827" lon="6.99692">
        <ele>1252.74</ele>
        <time>2021-06-27T11:31:44Z</time>
      </trkpt>
      <trkpt lat="48.01834" lon="6.99685">
        <ele>1253.22</ele>
        <time>2021-06-27T11:31:54Z</time>
      </trkpt>
      <trkpt lat="48.01837" lon="6.99676">
        <ele>1252.74</ele>
        <time>2021-06-27T11:31:59Z</time>
      </trkpt>
      <trkpt lat="48.01842" lon="6.9966">
        <ele>1252.25</ele>
        <time>2021-06-27T11:32:13Z</time>
      </trkpt>
      <trkpt lat="48.01849" lon="6.99643">
        <ele>1253.7</ele>
        <time>2021-06-27T11:32:24Z</time>
      </trkpt>
      <trkpt lat="48.01851" lon="6.99638">
        <ele>1254.18</ele>
        <time>2021-06-27T11:32:28Z</time>
      </trkpt>
      <trkpt lat="48.01854" lon="6.99632">
        <ele>1254.66</ele>
        <time>2021-06-27T11:32:32Z</time>
      </trkpt>
      <trkpt lat="48.01866" lon="6.99615">
        <ele>1256.58</ele>
        <time>2021-06-27T11:32:48Z</time>
      </trkpt>
      <trkpt lat="48.01879" lon="6.99596">
        <ele>1257.06</ele>
        <time>2021-06-27T11:33:04Z</time>
      </trkpt>
      <trkpt lat="48.01882" lon="6.99592">
        <ele>1258.5</ele>
        <time>2021-06-27T11:33:08Z</time>
      </trkpt>
      <trkpt lat="48.01883" lon="6.99586">
        <ele>1258.5</ele>
        <time>2021-06-27T11:33:12Z</time>
      </trkpt>
      <trkpt lat="48.01888" lon="6.99572">
        <ele>1259.94</ele>
        <time>2021-06-27T11:33:21Z</time>
      </trkpt>
      <trkpt lat="48.01895" lon="6.9956">
        <ele>1260.91</ele>
        <time>2021-06-27T11:33:31Z</time>
      </trkpt>
      <trkpt lat="48.01903" lon="6.99549">
        <ele>1259.94</ele>
        <time>2021-06-27T11:33:39Z</time>
      </trkpt>
      <trkpt lat="48.01908" lon="6.99524">
        <ele>1259.46</ele>
        <time>2021-06-27T11:33:55Z</time>
      </trkpt>
      <trkpt lat="48.01911" lon="6.99502">
        <ele>1257.54</ele>
        <time>2021-06-27T11:34:08Z</time>
      </trkpt>
      <trkpt lat="48.01918" lon="6.99485">
        <ele>1252.25</ele>
        <time>2021-06-27T11:34:22Z</time>
      </trkpt>
      <trkpt lat="48.01929" lon="6.99471">
        <ele>1249.37</ele>
        <time>2021-06-27T11:34:36Z</time>
      </trkpt>
      <trkpt lat="48.01938" lon="6.99453">
        <ele>1246.97</ele>
        <time>2021-06-27T11:34:49Z</time>
      </trkpt>
      <trkpt lat="48.01939" lon="6.99442">
        <ele>1246.49</ele>
        <time>2021-06-27T11:35:00Z</time>
      </trkpt>
      <trkpt lat="48.01939" lon="6.99421">
        <ele>1246.49</ele>
        <time>2021-06-27T11:35:12Z</time>
      </trkpt>
      <trkpt lat="48.0194" lon="6.99418">
        <ele>1246.49</ele>
        <time>2021-06-27T11:35:14Z</time>
      </trkpt>
      <trkpt lat="48.01941" lon="6.99403">
        <ele>1247.45</ele>
        <time>2021-06-27T11:35:24Z</time>
      </trkpt>
      <trkpt lat="48.01944" lon="6.99385">
        <ele>1244.56</ele>
        <time>2021-06-27T11:35:37Z</time>
      </trkpt>
      <trkpt lat="48.01943" lon="6.99384">
        <ele>1244.56</ele>
        <time>2021-06-27T11:35:38Z</time>
      </trkpt>
      <trkpt lat="48.01945" lon="6.99381">
        <ele>1245.04</ele>
        <time>2021-06-27T11:35:40Z</time>
      </trkpt>
      <trkpt lat="48.01947" lon="6.9937">
        <ele>1246.01</ele>
        <time>2021-06-27T11:35:46Z</time>
      </trkpt>
      <trkpt lat="48.01951" lon="6.99348">
        <ele>1248.89</ele>
        <time>2021-06-27T11:36:02Z</time>
      </trkpt>
      <trkpt lat="48.01952" lon="6.99331">
        <ele>1251.77</ele>
        <time>2021-06-27T11:36:15Z</time>
      </trkpt>
      <trkpt lat="48.01954" lon="6.99299">
        <ele>1253.22</ele>
        <time>2021-06-27T11:36:28Z</time>
      </trkpt>
      <trkpt lat="48.01953" lon="6.99282">
        <ele>1254.18</ele>
        <time>2021-06-27T11:36:38Z</time>
      </trkpt>
      <trkpt lat="48.01957" lon="6.99269">
        <ele>1254.18</ele>
        <time>2021-06-27T11:36:49Z</time>
      </trkpt>
      <trkpt lat="48.01952" lon="6.99252">
        <ele>1256.58</ele>
        <time>2021-06-27T11:37:00Z</time>
      </trkpt>
      <trkpt lat="48.0195" lon="6.99248">
        <ele>1257.06</ele>
        <time>2021-06-27T11:37:03Z</time>
      </trkpt>
      <trkpt lat="48.01946" lon="6.99246">
        <ele>1258.5</ele>
        <time>2021-06-27T11:37:06Z</time>
      </trkpt>
      <trkpt lat="48.01937" lon="6.9923">
        <ele>1259.46</ele>
        <time>2021-06-27T11:37:19Z</time>
      </trkpt>
      <trkpt lat="48.01929" lon="6.99223">
        <ele>1258.5</ele>
        <time>2021-06-27T11:37:30Z</time>
      </trkpt>
      <trkpt lat="48.01921" lon="6.99214">
        <ele>1258.02</ele>
        <time>2021-06-27T11:37:41Z</time>
      </trkpt>
      <trkpt lat="48.01917" lon="6.99208">
        <ele>1258.02</ele>
        <time>2021-06-27T11:37:46Z</time>
      </trkpt>
      <trkpt lat="48.0191" lon="6.99192">
        <ele>1257.06</ele>
        <time>2021-06-27T11:37:59Z</time>
      </trkpt>
      <trkpt lat="48.01909" lon="6.99191">
        <ele>1257.06</ele>
        <time>2021-06-27T11:38:00Z</time>
      </trkpt>
      <trkpt lat="48.01906" lon="6.99185">
        <ele>1256.58</ele>
        <time>2021-06-27T11:38:05Z</time>
      </trkpt>
      <trkpt lat="48.01905" lon="6.99167">
        <ele>1257.06</ele>
        <time>2021-06-27T11:38:18Z</time>
      </trkpt>
      <trkpt lat="48.019" lon="6.9915">
        <ele>1256.1</ele>
        <time>2021-06-27T11:38:32Z</time>
      </trkpt>
      <trkpt lat="48.01893" lon="6.99129">
        <ele>1253.22</ele>
        <time>2021-06-27T11:38:45Z</time>
      </trkpt>
      <trkpt lat="48.01891" lon="6.99109">
        <ele>1251.77</ele>
        <time>2021-06-27T11:38:58Z</time>
      </trkpt>
      <trkpt lat="48.01887" lon="6.99094">
        <ele>1248.41</ele>
        <time>2021-06-27T11:39:06Z</time>
      </trkpt>
      <trkpt lat="48.01879" lon="6.99067">
        <ele>1245.53</ele>
        <time>2021-06-27T11:39:21Z</time>
      </trkpt>
      <trkpt lat="48.01866" lon="6.99034">
        <ele>1248.41</ele>
        <time>2021-06-27T11:39:40Z</time>
      </trkpt>
      <trkpt lat="48.01859" lon="6.99005">
        <ele>1245.53</ele>
        <time>2021-06-27T11:39:57Z</time>
      </trkpt>
      <trkpt lat="48.0185" lon="6.98968">
        <ele>1244.56</ele>
        <time>2021-06-27T11:40:18Z</time>
      </trkpt>
      <trkpt lat="48.01842" lon="6.9894">
        <ele>1242.64</ele>
        <time>2021-06-27T11:40:36Z</time>
      </trkpt>
      <trkpt lat="48.01826" lon="6.98925">
        <ele>1239.76</ele>
        <time>2021-06-27T11:40:52Z</time>
      </trkpt>
      <trkpt lat="48.01813" lon="6.98909">
        <ele>1236.87</ele>
        <time>2021-06-27T11:41:08Z</time>
      </trkpt>
      <trkpt lat="48.01806" lon="6.98902">
        <ele>1234.47</ele>
        <time>2021-06-27T11:41:16Z</time>
      </trkpt>
      <trkpt lat="48.01797" lon="6.98898">
        <ele>1232.07</ele>
        <time>2021-06-27T11:41:24Z</time>
      </trkpt>
      <trkpt lat="48.01782" lon="6.98884">
        <ele>1229.18</ele>
        <time>2021-06-27T11:41:40Z</time>
      </trkpt>
      <trkpt lat="48.01778" lon="6.98881">
        <ele>1229.18</ele>
        <time>2021-06-27T11:41:44Z</time>
      </trkpt>
      <trkpt lat="48.01767" lon="6.9887">
        <ele>1227.26</ele>
        <time>2021-06-27T11:41:58Z</time>
      </trkpt>
      <trkpt lat="48.01759" lon="6.98862">
        <ele>1225.34</ele>
        <time>2021-06-27T11:42:07Z</time>
      </trkpt>
      <trkpt lat="48.01746" lon="6.9885">
        <ele>1222.45</ele>
        <time>2021-06-27T11:42:22Z</time>
      </trkpt>
      <trkpt lat="48.01733" lon="6.98837">
        <ele>1219.57</ele>
        <time>2021-06-27T11:42:36Z</time>
      </trkpt>
      <trkpt lat="48.01732" lon="6.98835">
        <ele>1219.09</ele>
        <time>2021-06-27T11:42:38Z</time>
      </trkpt>
      <trkpt lat="48.01721" lon="6.98823">
        <ele>1217.17</ele>
        <time>2021-06-27T11:42:50Z</time>
      </trkpt>
      <trkpt lat="48.01705" lon="6.98799">
        <ele>1216.21</ele>
        <time>2021-06-27T11:43:09Z</time>
      </trkpt>
      <trkpt lat="48.01694" lon="6.98781">
        <ele>1215.24</ele>
        <time>2021-06-27T11:43:23Z</time>
      </trkpt>
      <trkpt lat="48.0169" lon="6.98779">
        <ele>1215.24</ele>
        <time>2021-06-27T11:43:27Z</time>
      </trkpt>
      <trkpt lat="48.01671" lon="6.98756">
        <ele>1213.8</ele>
        <time>2021-06-27T11:43:48Z</time>
      </trkpt>
      <trkpt lat="48.01658" lon="6.98731">
        <ele>1210.92</ele>
        <time>2021-06-27T11:44:06Z</time>
      </trkpt>
      <trkpt lat="48.01653" lon="6.98719">
        <ele>1209.48</ele>
        <time>2021-06-27T11:44:14Z</time>
      </trkpt>
      <trkpt lat="48.0165" lon="6.98715">
        <ele>1209</ele>
        <time>2021-06-27T11:44:18Z</time>
      </trkpt>
      <trkpt lat="48.01635" lon="6.98689">
        <ele>1207.55</ele>
        <time>2021-06-27T11:44:38Z</time>
      </trkpt>
      <trkpt lat="48.0163" lon="6.98683">
        <ele>1206.59</ele>
        <time>2021-06-27T11:44:44Z</time>
      </trkpt>
      <trkpt lat="48.01626" lon="6.98684">
        <ele>1207.55</ele>
        <time>2021-06-27T11:44:56Z</time>
      </trkpt>
      <trkpt lat="48.01627" lon="6.98686">
        <ele>1208.03</ele>
        <time>2021-06-27T11:45:31Z</time>
      </trkpt>
      <trkpt lat="48.01626" lon="6.98685">
        <ele>1207.55</ele>
        <time>2021-06-27T11:45:48Z</time>
      </trkpt>
      <trkpt lat="48.01626" lon="6.98683">
        <ele>1208.03</ele>
        <time>2021-06-27T11:45:51Z</time>
      </trkpt>
      <trkpt lat="48.0162" lon="6.98672">
        <ele>1208.03</ele>
        <time>2021-06-27T11:46:01Z</time>
      </trkpt>
      <trkpt lat="48.01614" lon="6.9865">
        <ele>1207.07</ele>
        <time>2021-06-27T11:46:15Z</time>
      </trkpt>
      <trkpt lat="48.01614" lon="6.98649">
        <ele>1207.07</ele>
        <time>2021-06-27T11:46:16Z</time>
      </trkpt>
      <trkpt lat="48.01608" lon="6.98631">
        <ele>1205.63</ele>
        <time>2021-06-27T11:46:29Z</time>
      </trkpt>
      <trkpt lat="48.01605" lon="6.98628">
        <ele>1205.15</ele>
        <time>2021-06-27T11:46:32Z</time>
      </trkpt>
      <trkpt lat="48.01603" lon="6.98626">
        <ele>1204.67</ele>
        <time>2021-06-27T11:46:34Z</time>
      </trkpt>
      <trkpt lat="48.01601" lon="6.98622">
        <ele>1203.71</ele>
        <time>2021-06-27T11:46:38Z</time>
      </trkpt>
      <trkpt lat="48.01593" lon="6.98622">
        <ele>1202.27</ele>
        <time>2021-06-27T11:46:45Z</time>
      </trkpt>
      <trkpt lat="48.01573" lon="6.98609">
        <ele>1201.3</ele>
        <time>2021-06-27T11:47:03Z</time>
      </trkpt>
      <trkpt lat="48.01551" lon="6.98603">
        <ele>1198.42</ele>
        <time>2021-06-27T11:47:21Z</time>
      </trkpt>
      <trkpt lat="48.01536" lon="6.98593">
        <ele>1196.5</ele>
        <time>2021-06-27T11:47:37Z</time>
      </trkpt>
      <trkpt lat="48.01518" lon="6.98579">
        <ele>1196.02</ele>
        <time>2021-06-27T11:47:54Z</time>
      </trkpt>
      <trkpt lat="48.01498" lon="6.98564">
        <ele>1193.61</ele>
        <time>2021-06-27T11:48:13Z</time>
      </trkpt>
      <trkpt lat="48.01475" lon="6.9856">
        <ele>1193.61</ele>
        <time>2021-06-27T11:48:32Z</time>
      </trkpt>
      <trkpt lat="48.0146" lon="6.98562">
        <ele>1196.98</ele>
        <time>2021-06-27T11:48:48Z</time>
      </trkpt>
      <trkpt lat="48.01453" lon="6.98558">
        <ele>1199.38</ele>
        <time>2021-06-27T11:49:01Z</time>
      </trkpt>
      <trkpt lat="48.01439" lon="6.98555">
        <ele>1203.23</ele>
        <time>2021-06-27T11:49:18Z</time>
      </trkpt>
      <trkpt lat="48.01429" lon="6.98554">
        <ele>1206.11</ele>
        <time>2021-06-27T11:49:30Z</time>
      </trkpt>
      <trkpt lat="48.01419" lon="6.98549">
        <ele>1205.63</ele>
        <time>2021-06-27T11:49:46Z</time>
      </trkpt>
      <trkpt lat="48.01405" lon="6.98545">
        <ele>1206.59</ele>
        <time>2021-06-27T11:50:02Z</time>
      </trkpt>
      <trkpt lat="48.01394" lon="6.98536">
        <ele>1207.55</ele>
        <time>2021-06-27T11:50:15Z</time>
      </trkpt>
      <trkpt lat="48.0138" lon="6.98526">
        <ele>1209</ele>
        <time>2021-06-27T11:50:32Z</time>
      </trkpt>
      <trkpt lat="48.01364" lon="6.98515">
        <ele>1211.88</ele>
        <time>2021-06-27T11:50:48Z</time>
      </trkpt>
      <trkpt lat="48.01349" lon="6.9851">
        <ele>1213.8</ele>
        <time>2021-06-27T11:51:04Z</time>
      </trkpt>
      <trkpt lat="48.01341" lon="6.98507">
        <ele>1215.24</ele>
        <time>2021-06-27T11:51:20Z</time>
      </trkpt>
      <trkpt lat="48.01326" lon="6.985">
        <ele>1216.69</ele>
        <time>2021-06-27T11:51:38Z</time>
      </trkpt>
      <trkpt lat="48.01316" lon="6.98493">
        <ele>1219.57</ele>
        <time>2021-06-27T11:51:52Z</time>
      </trkpt>
      <trkpt lat="48.01306" lon="6.98485">
        <ele>1223.42</ele>
        <time>2021-06-27T11:52:05Z</time>
      </trkpt>
      <trkpt lat="48.01294" lon="6.98471">
        <ele>1225.34</ele>
        <time>2021-06-27T11:52:20Z</time>
      </trkpt>
      <trkpt lat="48.01275" lon="6.98453">
        <ele>1226.3</ele>
        <time>2021-06-27T11:52:38Z</time>
      </trkpt>
      <trkpt lat="48.01262" lon="6.98438">
        <ele>1227.26</ele>
        <time>2021-06-27T11:52:54Z</time>
      </trkpt>
      <trkpt lat="48.01246" lon="6.98425">
        <ele>1224.86</ele>
        <time>2021-06-27T11:53:11Z</time>
      </trkpt>
      <trkpt lat="48.01234" lon="6.98409">
        <ele>1226.78</ele>
        <time>2021-06-27T11:53:29Z</time>
      </trkpt>
      <trkpt lat="48.01221" lon="6.98397">
        <ele>1227.74</ele>
        <time>2021-06-27T11:53:44Z</time>
      </trkpt>
      <trkpt lat="48.0121" lon="6.98383">
        <ele>1229.66</ele>
        <time>2021-06-27T11:54:02Z</time>
      </trkpt>
      <trkpt lat="48.012" lon="6.98378">
        <ele>1232.07</ele>
        <time>2021-06-27T11:54:24Z</time>
      </trkpt>
      <trkpt lat="48.01186" lon="6.98367">
        <ele>1236.87</ele>
        <time>2021-06-27T11:54:42Z</time>
      </trkpt>
      <trkpt lat="48.01181" lon="6.98353">
        <ele>1239.28</ele>
        <time>2021-06-27T11:54:59Z</time>
      </trkpt>
      <trkpt lat="48.01181" lon="6.9835">
        <ele>1241.2</ele>
        <time>2021-06-27T11:55:15Z</time>
      </trkpt>
      <trkpt lat="48.01178" lon="6.98342">
        <ele>1242.16</ele>
        <time>2021-06-27T11:55:37Z</time>
      </trkpt>
      <trkpt lat="48.01169" lon="6.98339">
        <ele>1246.01</ele>
        <time>2021-06-27T11:55:50Z</time>
      </trkpt>
      <trkpt lat="48.01161" lon="6.98344">
        <ele>1248.89</ele>
        <time>2021-06-27T11:56:00Z</time>
      </trkpt>
      <trkpt lat="48.0115" lon="6.98358">
        <ele>1253.22</ele>
        <time>2021-06-27T11:56:16Z</time>
      </trkpt>
      <trkpt lat="48.0115" lon="6.98353">
        <ele>1253.7</ele>
        <time>2021-06-27T11:56:26Z</time>
      </trkpt>
      <trkpt lat="48.01148" lon="6.98334">
        <ele>1255.14</ele>
        <time>2021-06-27T11:56:43Z</time>
      </trkpt>
      <trkpt lat="48.01141" lon="6.98321">
        <ele>1258.5</ele>
        <time>2021-06-27T11:57:01Z</time>
      </trkpt>
      <trkpt lat="48.01132" lon="6.98323">
        <ele>1262.35</ele>
        <time>2021-06-27T11:57:14Z</time>
      </trkpt>
      <trkpt lat="48.01123" lon="6.98328">
        <ele>1265.23</ele>
        <time>2021-06-27T11:57:27Z</time>
      </trkpt>
      <trkpt lat="48.01121" lon="6.98323">
        <ele>1265.71</ele>
        <time>2021-06-27T11:57:41Z</time>
      </trkpt>
      <trkpt lat="48.01121" lon="6.98307">
        <ele>1267.64</ele>
        <time>2021-06-27T11:57:57Z</time>
      </trkpt>
      <trkpt lat="48.01115" lon="6.98296">
        <ele>1269.56</ele>
        <time>2021-06-27T11:58:12Z</time>
      </trkpt>
      <trkpt lat="48.01112" lon="6.98298">
        <ele>1272.44</ele>
        <time>2021-06-27T11:58:34Z</time>
      </trkpt>
      <trkpt lat="48.01109" lon="6.98301">
        <ele>1272.44</ele>
        <time>2021-06-27T11:58:54Z</time>
      </trkpt>
      <trkpt lat="48.011" lon="6.9831">
        <ele>1274.36</ele>
        <time>2021-06-27T11:59:08Z</time>
      </trkpt>
      <trkpt lat="48.01096" lon="6.98298">
        <ele>1276.77</ele>
        <time>2021-06-27T11:59:22Z</time>
      </trkpt>
      <trkpt lat="48.01091" lon="6.98284">
        <ele>1279.17</ele>
        <time>2021-06-27T11:59:36Z</time>
      </trkpt>
      <trkpt lat="48.01083" lon="6.9828">
        <ele>1282.06</ele>
        <time>2021-06-27T11:59:50Z</time>
      </trkpt>
      <trkpt lat="48.01071" lon="6.98287">
        <ele>1284.94</ele>
        <time>2021-06-27T12:00:07Z</time>
      </trkpt>
      <trkpt lat="48.0107" lon="6.98289">
        <ele>1285.42</ele>
        <time>2021-06-27T12:00:09Z</time>
      </trkpt>
      <trkpt lat="48.01067" lon="6.9829">
        <ele>1286.86</ele>
        <time>2021-06-27T12:00:24Z</time>
      </trkpt>
      <trkpt lat="48.01056" lon="6.98287">
        <ele>1289.27</ele>
        <time>2021-06-27T12:00:38Z</time>
      </trkpt>
      <trkpt lat="48.01046" lon="6.98289">
        <ele>1291.67</ele>
        <time>2021-06-27T12:00:52Z</time>
      </trkpt>
      <trkpt lat="48.01034" lon="6.98288">
        <ele>1294.55</ele>
        <time>2021-06-27T12:01:08Z</time>
      </trkpt>
      <trkpt lat="48.01025" lon="6.9829">
        <ele>1296.96</ele>
        <time>2021-06-27T12:01:23Z</time>
      </trkpt>
      <trkpt lat="48.01018" lon="6.98292">
        <ele>1297.44</ele>
        <time>2021-06-27T12:01:52Z</time>
      </trkpt>
      <trkpt lat="48.01006" lon="6.98294">
        <ele>1299.84</ele>
        <time>2021-06-27T12:02:06Z</time>
      </trkpt>
      <trkpt lat="48.01004" lon="6.98295">
        <ele>1300.32</ele>
        <time>2021-06-27T12:02:09Z</time>
      </trkpt>
      <trkpt lat="48.00991" lon="6.98301">
        <ele>1302.24</ele>
        <time>2021-06-27T12:02:23Z</time>
      </trkpt>
      <trkpt lat="48.00985" lon="6.98296">
        <ele>1303.69</ele>
        <time>2021-06-27T12:02:36Z</time>
      </trkpt>
      <trkpt lat="48.00987" lon="6.98304">
        <ele>1303.69</ele>
        <time>2021-06-27T12:02:50Z</time>
      </trkpt>
      <trkpt lat="48.00986" lon="6.98305">
        <ele>1302.24</ele>
        <time>2021-06-27T12:03:05Z</time>
      </trkpt>
      <trkpt lat="48.00986" lon="6.98305">
        <ele>1302.24</ele>
        <time>2021-06-27T12:03:36Z</time>
      </trkpt>
      <trkpt lat="48.00986" lon="6.98305">
        <ele>1302.24</ele>
        <time>2021-06-27T12:04:15Z</time>
      </trkpt>
      <trkpt lat="48.00987" lon="6.98304">
        <ele>1300.8</ele>
        <time>2021-06-27T12:04:46Z</time>
      </trkpt>
      <trkpt lat="48.00987" lon="6.98303">
        <ele>1301.28</ele>
        <time>2021-06-27T12:05:11Z</time>
      </trkpt>
      <trkpt lat="48.00987" lon="6.98303">
        <ele>1301.28</ele>
        <time>2021-06-27T12:05:33Z</time>
      </trkpt>
      <trkpt lat="48.00986" lon="6.98305">
        <ele>1300.8</ele>
        <time>2021-06-27T12:05:53Z</time>
      </trkpt>
      <trkpt lat="48.00986" lon="6.98304">
        <ele>1301.28</ele>
        <time>2021-06-27T12:06:02Z</time>
      </trkpt>
      <trkpt lat="48.00987" lon="6.98302">
        <ele>1304.17</ele>
        <time>2021-06-27T12:06:15Z</time>
      </trkpt>
      <trkpt lat="48.00985" lon="6.98293">
        <ele>1303.69</ele>
        <time>2021-06-27T12:06:39Z</time>
      </trkpt>
      <trkpt lat="48.00985" lon="6.98292">
        <ele>1304.17</ele>
        <time>2021-06-27T12:06:40Z</time>
      </trkpt>
      <trkpt lat="48.00982" lon="6.98273">
        <ele>1305.61</ele>
        <time>2021-06-27T12:06:55Z</time>
      </trkpt>
      <trkpt lat="48.00978" lon="6.9825">
        <ele>1306.09</ele>
        <time>2021-06-27T12:07:14Z</time>
      </trkpt>
      <trkpt lat="48.00978" lon="6.9825">
        <ele>1306.09</ele>
        <time>2021-06-27T12:07:46Z</time>
      </trkpt>
      <trkpt lat="48.00978" lon="6.98251">
        <ele>1304.65</ele>
        <time>2021-06-27T12:08:00Z</time>
      </trkpt>
      <trkpt lat="48.00974" lon="6.98238">
        <ele>1304.65</ele>
        <time>2021-06-27T12:08:20Z</time>
      </trkpt>
      <trkpt lat="48.00966" lon="6.98202">
        <ele>1303.2</ele>
        <time>2021-06-27T12:08:42Z</time>
      </trkpt>
      <trkpt lat="48.00958" lon="6.98172">
        <ele>1301.76</ele>
        <time>2021-06-27T12:09:01Z</time>
      </trkpt>
      <trkpt lat="48.00961" lon="6.98163">
        <ele>1302.24</ele>
        <time>2021-06-27T12:09:07Z</time>
      </trkpt>
      <trkpt lat="48.00958" lon="6.98131">
        <ele>1299.84</ele>
        <time>2021-06-27T12:09:26Z</time>
      </trkpt>
      <trkpt lat="48.00958" lon="6.98106">
        <ele>1297.44</ele>
        <time>2021-06-27T12:09:42Z</time>
      </trkpt>
      <trkpt lat="48.00955" lon="6.98077">
        <ele>1295.51</ele>
        <time>2021-06-27T12:09:59Z</time>
      </trkpt>
      <trkpt lat="48.00954" lon="6.98046">
        <ele>1293.11</ele>
        <time>2021-06-27T12:10:18Z</time>
      </trkpt>
      <trkpt lat="48.00951" lon="6.98021">
        <ele>1291.19</ele>
        <time>2021-06-27T12:10:34Z</time>
      </trkpt>
      <trkpt lat="48.0095" lon="6.9799">
        <ele>1289.27</ele>
        <time>2021-06-27T12:10:52Z</time>
      </trkpt>
      <trkpt lat="48.00944" lon="6.9796">
        <ele>1287.82</ele>
        <time>2021-06-27T12:11:10Z</time>
      </trkpt>
      <trkpt lat="48.00942" lon="6.97939">
        <ele>1286.86</ele>
        <time>2021-06-27T12:11:23Z</time>
      </trkpt>
      <trkpt lat="48.00939" lon="6.97914">
        <ele>1284.46</ele>
        <time>2021-06-27T12:11:38Z</time>
      </trkpt>
      <trkpt lat="48.00938" lon="6.97887">
        <ele>1281.57</ele>
        <time>2021-06-27T12:11:55Z</time>
      </trkpt>
      <trkpt lat="48.00938" lon="6.97862">
        <ele>1278.69</ele>
        <time>2021-06-27T12:12:10Z</time>
      </trkpt>
      <trkpt lat="48.00939" lon="6.97837">
        <ele>1275.33</ele>
        <time>2021-06-27T12:12:26Z</time>
      </trkpt>
      <trkpt lat="48.00939" lon="6.97836">
        <ele>1275.33</ele>
        <time>2021-06-27T12:12:27Z</time>
      </trkpt>
      <trkpt lat="48.00938" lon="6.97822">
        <ele>1272.92</ele>
        <time>2021-06-27T12:12:36Z</time>
      </trkpt>
      <trkpt lat="48.00937" lon="6.97818">
        <ele>1272.44</ele>
        <time>2021-06-27T12:12:39Z</time>
      </trkpt>
      <trkpt lat="48.00933" lon="6.97797">
        <ele>1270.04</ele>
        <time>2021-06-27T12:12:53Z</time>
      </trkpt>
      <trkpt lat="48.00933" lon="6.97781">
        <ele>1267.16</ele>
        <time>2021-06-27T12:13:04Z</time>
      </trkpt>
      <trkpt lat="48.00933" lon="6.97773">
        <ele>1265.71</ele>
        <time>2021-06-27T12:13:09Z</time>
      </trkpt>
      <trkpt lat="48.00932" lon="6.97755">
        <ele>1261.39</ele>
        <time>2021-06-27T12:13:23Z</time>
      </trkpt>
      <trkpt lat="48.00934" lon="6.97737">
        <ele>1258.98</ele>
        <time>2021-06-27T12:13:35Z</time>
      </trkpt>
      <trkpt lat="48.00935" lon="6.9772">
        <ele>1255.14</ele>
        <time>2021-06-27T12:13:49Z</time>
      </trkpt>
      <trkpt lat="48.00936" lon="6.97716">
        <ele>1255.14</ele>
        <time>2021-06-27T12:13:52Z</time>
      </trkpt>
      <trkpt lat="48.00934" lon="6.97694">
        <ele>1252.25</ele>
        <time>2021-06-27T12:14:08Z</time>
      </trkpt>
      <trkpt lat="48.00933" lon="6.97691">
        <ele>1251.29</ele>
        <time>2021-06-27T12:14:11Z</time>
      </trkpt>
      <trkpt lat="48.00934" lon="6.97688">
        <ele>1250.81</ele>
        <time>2021-06-27T12:14:13Z</time>
      </trkpt>
      <trkpt lat="48.00935" lon="6.97668">
        <ele>1246.97</ele>
        <time>2021-06-27T12:14:27Z</time>
      </trkpt>
      <trkpt lat="48.00938" lon="6.97649">
        <ele>1243.12</ele>
        <time>2021-06-27T12:14:42Z</time>
      </trkpt>
      <trkpt lat="48.0094" lon="6.97634">
        <ele>1240.72</ele>
        <time>2021-06-27T12:14:55Z</time>
      </trkpt>
      <trkpt lat="48.00934" lon="6.97616">
        <ele>1239.76</ele>
        <time>2021-06-27T12:15:10Z</time>
      </trkpt>
      <trkpt lat="48.00933" lon="6.97616">
        <ele>1239.76</ele>
        <time>2021-06-27T12:15:43Z</time>
      </trkpt>
      <trkpt lat="48.00932" lon="6.97613">
        <ele>1238.8</ele>
        <time>2021-06-27T12:15:57Z</time>
      </trkpt>
      <trkpt lat="48.00931" lon="6.97604">
        <ele>1237.35</ele>
        <time>2021-06-27T12:16:03Z</time>
      </trkpt>
      <trkpt lat="48.00937" lon="6.97582">
        <ele>1235.91</ele>
        <time>2021-06-27T12:16:19Z</time>
      </trkpt>
      <trkpt lat="48.00937" lon="6.97566">
        <ele>1232.55</ele>
        <time>2021-06-27T12:16:30Z</time>
      </trkpt>
      <trkpt lat="48.00939" lon="6.97542">
        <ele>1230.62</ele>
        <time>2021-06-27T12:16:44Z</time>
      </trkpt>
      <trkpt lat="48.00939" lon="6.97541">
        <ele>1230.14</ele>
        <time>2021-06-27T12:16:45Z</time>
      </trkpt>
      <trkpt lat="48.00937" lon="6.97531">
        <ele>1229.66</ele>
        <time>2021-06-27T12:16:52Z</time>
      </trkpt>
      <trkpt lat="48.00931" lon="6.97526">
        <ele>1228.22</ele>
        <time>2021-06-27T12:16:57Z</time>
      </trkpt>
      <trkpt lat="48.00917" lon="6.97509">
        <ele>1224.86</ele>
        <time>2021-06-27T12:17:13Z</time>
      </trkpt>
      <trkpt lat="48.00914" lon="6.975">
        <ele>1223.9</ele>
        <time>2021-06-27T12:17:19Z</time>
      </trkpt>
      <trkpt lat="48.00909" lon="6.97487">
        <ele>1220.05</ele>
        <time>2021-06-27T12:17:31Z</time>
      </trkpt>
      <trkpt lat="48.00901" lon="6.97474">
        <ele>1217.17</ele>
        <time>2021-06-27T12:17:45Z</time>
      </trkpt>
      <trkpt lat="48.00891" lon="6.9746">
        <ele>1214.76</ele>
        <time>2021-06-27T12:18:01Z</time>
      </trkpt>
      <trkpt lat="48.00886" lon="6.97453">
        <ele>1213.8</ele>
        <time>2021-06-27T12:18:08Z</time>
      </trkpt>
      <trkpt lat="48.00876" lon="6.97439">
        <ele>1211.88</ele>
        <time>2021-06-27T12:18:23Z</time>
      </trkpt>
      <trkpt lat="48.00869" lon="6.97433">
        <ele>1209</ele>
        <time>2021-06-27T12:18:35Z</time>
      </trkpt>
      <trkpt lat="48.0087" lon="6.97424">
        <ele>1207.55</ele>
        <time>2021-06-27T12:18:48Z</time>
      </trkpt>
      <trkpt lat="48.00859" lon="6.97417">
        <ele>1204.67</ele>
        <time>2021-06-27T12:19:03Z</time>
      </trkpt>
      <trkpt lat="48.00858" lon="6.97412">
        <ele>1204.19</ele>
        <time>2021-06-27T12:19:08Z</time>
      </trkpt>
      <trkpt lat="48.00846" lon="6.97396">
        <ele>1201.3</ele>
        <time>2021-06-27T12:19:26Z</time>
      </trkpt>
      <trkpt lat="48.00844" lon="6.97373">
        <ele>1199.38</ele>
        <time>2021-06-27T12:19:42Z</time>
      </trkpt>
      <trkpt lat="48.00838" lon="6.9736">
        <ele>1195.54</ele>
        <time>2021-06-27T12:19:56Z</time>
      </trkpt>
      <trkpt lat="48.00834" lon="6.97353">
        <ele>1191.21</ele>
        <time>2021-06-27T12:20:10Z</time>
      </trkpt>
      <trkpt lat="48.00821" lon="6.97363">
        <ele>1190.73</ele>
        <time>2021-06-27T12:20:24Z</time>
      </trkpt>
      <trkpt lat="48.00812" lon="6.97372">
        <ele>1191.69</ele>
        <time>2021-06-27T12:20:38Z</time>
      </trkpt>
      <trkpt lat="48.0081" lon="6.97374">
        <ele>1190.25</ele>
        <time>2021-06-27T12:20:50Z</time>
      </trkpt>
      <trkpt lat="48.00811" lon="6.97381">
        <ele>1191.69</ele>
        <time>2021-06-27T12:21:20Z</time>
      </trkpt>
      <trkpt lat="48.00812" lon="6.97375">
        <ele>1199.38</ele>
        <time>2021-06-27T12:22:02Z</time>
      </trkpt>
      <trkpt lat="48.0081" lon="6.97376">
        <ele>1198.42</ele>
        <time>2021-06-27T12:22:44Z</time>
      </trkpt>
      <trkpt lat="48.00803" lon="6.97377">
        <ele>1195.06</ele>
        <time>2021-06-27T12:23:07Z</time>
      </trkpt>
      <trkpt lat="48.0081" lon="6.97374">
        <ele>1196.5</ele>
        <time>2021-06-27T12:23:21Z</time>
      </trkpt>
      <trkpt lat="48.00815" lon="6.97375">
        <ele>1199.38</ele>
        <time>2021-06-27T12:23:52Z</time>
      </trkpt>
      <trkpt lat="48.00814" lon="6.97375">
        <ele>1197.46</ele>
        <time>2021-06-27T12:24:11Z</time>
      </trkpt>
      <trkpt lat="48.0082" lon="6.97367">
        <ele>1197.94</ele>
        <time>2021-06-27T12:24:26Z</time>
      </trkpt>
      <trkpt lat="48.00829" lon="6.97363">
        <ele>1196.02</ele>
        <time>2021-06-27T12:24:41Z</time>
      </trkpt>
      <trkpt lat="48.0083" lon="6.97357">
        <ele>1193.61</ele>
        <time>2021-06-27T12:25:02Z</time>
      </trkpt>
      <trkpt lat="48.00827" lon="6.97355">
        <ele>1192.65</ele>
        <time>2021-06-27T12:25:13Z</time>
      </trkpt>
      <trkpt lat="48.00828" lon="6.97345">
        <ele>1191.69</ele>
        <time>2021-06-27T12:25:32Z</time>
      </trkpt>
      <trkpt lat="48.00821" lon="6.97325">
        <ele>1190.73</ele>
        <time>2021-06-27T12:25:49Z</time>
      </trkpt>
      <trkpt lat="48.00813" lon="6.97313">
        <ele>1186.88</ele>
        <time>2021-06-27T12:26:02Z</time>
      </trkpt>
      <trkpt lat="48.00807" lon="6.97317">
        <ele>1181.6</ele>
        <time>2021-06-27T12:26:23Z</time>
      </trkpt>
      <trkpt lat="48.008" lon="6.97329">
        <ele>1183.04</ele>
        <time>2021-06-27T12:26:36Z</time>
      </trkpt>
      <trkpt lat="48.00796" lon="6.97349">
        <ele>1186.88</ele>
        <time>2021-06-27T12:26:48Z</time>
      </trkpt>
      <trkpt lat="48.00793" lon="6.97372">
        <ele>1190.25</ele>
        <time>2021-06-27T12:27:06Z</time>
      </trkpt>
      <trkpt lat="48.00791" lon="6.97386">
        <ele>1195.06</ele>
        <time>2021-06-27T12:27:19Z</time>
      </trkpt>
      <trkpt lat="48.00791" lon="6.97407">
        <ele>1199.38</ele>
        <time>2021-06-27T12:27:32Z</time>
      </trkpt>
      <trkpt lat="48.0079" lon="6.97427">
        <ele>1203.23</ele>
        <time>2021-06-27T12:27:46Z</time>
      </trkpt>
      <trkpt lat="48.00786" lon="6.97449">
        <ele>1205.15</ele>
        <time>2021-06-27T12:28:01Z</time>
      </trkpt>
      <trkpt lat="48.00781" lon="6.97466">
        <ele>1206.59</ele>
        <time>2021-06-27T12:28:16Z</time>
      </trkpt>
      <trkpt lat="48.00772" lon="6.97485">
        <ele>1208.51</ele>
        <time>2021-06-27T12:28:30Z</time>
      </trkpt>
      <trkpt lat="48.00769" lon="6.97503">
        <ele>1204.67</ele>
        <time>2021-06-27T12:28:43Z</time>
      </trkpt>
      <trkpt lat="48.00771" lon="6.9751">
        <ele>1200.34</ele>
        <time>2021-06-27T12:29:03Z</time>
      </trkpt>
      <trkpt lat="48.00774" lon="6.9751">
        <ele>1196.98</ele>
        <time>2021-06-27T12:29:32Z</time>
      </trkpt>
      <trkpt lat="48.00774" lon="6.97509">
        <ele>1194.58</ele>
        <time>2021-06-27T12:29:58Z</time>
      </trkpt>
      <trkpt lat="48.00773" lon="6.97507">
        <ele>1195.54</ele>
        <time>2021-06-27T12:30:24Z</time>
      </trkpt>
      <trkpt lat="48.00775" lon="6.97509">
        <ele>1196.02</ele>
        <time>2021-06-27T12:30:54Z</time>
      </trkpt>
      <trkpt lat="48.00774" lon="6.97509">
        <ele>1196.98</ele>
        <time>2021-06-27T12:31:20Z</time>
      </trkpt>
      <trkpt lat="48.00773" lon="6.97509">
        <ele>1196.02</ele>
        <time>2021-06-27T12:31:41Z</time>
      </trkpt>
      <trkpt lat="48.00774" lon="6.97512">
        <ele>1196.5</ele>
        <time>2021-06-27T12:32:06Z</time>
      </trkpt>
      <trkpt lat="48.00773" lon="6.97512">
        <ele>1196.5</ele>
        <time>2021-06-27T12:32:34Z</time>
      </trkpt>
      <trkpt lat="48.00772" lon="6.9751">
        <ele>1198.42</ele>
        <time>2021-06-27T12:33:05Z</time>
      </trkpt>
      <trkpt lat="48.00773" lon="6.97509">
        <ele>1197.46</ele>
        <time>2021-06-27T12:33:31Z</time>
      </trkpt>
      <trkpt lat="48.00774" lon="6.97507">
        <ele>1196.5</ele>
        <time>2021-06-27T12:34:00Z</time>
      </trkpt>
      <trkpt lat="48.00773" lon="6.9751">
        <ele>1195.06</ele>
        <time>2021-06-27T12:34:24Z</time>
      </trkpt>
      <trkpt lat="48.00773" lon="6.97511">
        <ele>1194.09</ele>
        <time>2021-06-27T12:34:52Z</time>
      </trkpt>
      <trkpt lat="48.00773" lon="6.97511">
        <ele>1195.06</ele>
        <time>2021-06-27T12:35:24Z</time>
      </trkpt>
      <trkpt lat="48.00773" lon="6.9751">
        <ele>1196.02</ele>
        <time>2021-06-27T12:35:59Z</time>
      </trkpt>
      <trkpt lat="48.00773" lon="6.97509">
        <ele>1196.5</ele>
        <time>2021-06-27T12:36:28Z</time>
      </trkpt>
      <trkpt lat="48.00773" lon="6.97508">
        <ele>1195.54</ele>
        <time>2021-06-27T12:36:54Z</time>
      </trkpt>
      <trkpt lat="48.00772" lon="6.97509">
        <ele>1196.02</ele>
        <time>2021-06-27T12:37:11Z</time>
      </trkpt>
      <trkpt lat="48.00773" lon="6.9751">
        <ele>1196.98</ele>
        <time>2021-06-27T12:37:29Z</time>
      </trkpt>
      <trkpt lat="48.00773" lon="6.97515">
        <ele>1196.5</ele>
        <time>2021-06-27T12:37:53Z</time>
      </trkpt>
      <trkpt lat="48.00773" lon="6.97515">
        <ele>1196.5</ele>
        <time>2021-06-27T12:37:54Z</time>
      </trkpt>
      <trkpt lat="48.00771" lon="6.97513">
        <ele>1197.46</ele>
        <time>2021-06-27T12:38:05Z</time>
      </trkpt>
      <trkpt lat="48.00771" lon="6.97511">
        <ele>1199.38</ele>
        <time>2021-06-27T12:38:20Z</time>
      </trkpt>
      <trkpt lat="48.00772" lon="6.97509">
        <ele>1199.38</ele>
        <time>2021-06-27T12:38:39Z</time>
      </trkpt>
      <trkpt lat="48.00774" lon="6.97507">
        <ele>1196.98</ele>
        <time>2021-06-27T12:38:51Z</time>
      </trkpt>
      <trkpt lat="48.00777" lon="6.97504">
        <ele>1195.54</ele>
        <time>2021-06-27T12:39:09Z</time>
      </trkpt>
      <trkpt lat="48.00777" lon="6.97501">
        <ele>1194.58</ele>
        <time>2021-06-27T12:39:31Z</time>
      </trkpt>
      <trkpt lat="48.00779" lon="6.97498">
        <ele>1193.13</ele>
        <time>2021-06-27T12:39:48Z</time>
      </trkpt>
      <trkpt lat="48.00788" lon="6.97478">
        <ele>1191.69</ele>
        <time>2021-06-27T12:40:06Z</time>
      </trkpt>
      <trkpt lat="48.00795" lon="6.97453">
        <ele>1190.73</ele>
        <time>2021-06-27T12:40:23Z</time>
      </trkpt>
      <trkpt lat="48.00798" lon="6.97423">
        <ele>1188.81</ele>
        <time>2021-06-27T12:40:40Z</time>
      </trkpt>
      <trkpt lat="48.00799" lon="6.97404">
        <ele>1186.88</ele>
        <time>2021-06-27T12:40:52Z</time>
      </trkpt>
      <trkpt lat="48.00801" lon="6.97383">
        <ele>1184.48</ele>
        <time>2021-06-27T12:41:07Z</time>
      </trkpt>
      <trkpt lat="48.00803" lon="6.97362">
        <ele>1183.52</ele>
        <time>2021-06-27T12:41:22Z</time>
      </trkpt>
      <trkpt lat="48.00806" lon="6.97337">
        <ele>1182.08</ele>
        <time>2021-06-27T12:41:39Z</time>
      </trkpt>
      <trkpt lat="48.0081" lon="6.97322">
        <ele>1179.67</ele>
        <time>2021-06-27T12:41:55Z</time>
      </trkpt>
      <trkpt lat="48.00813" lon="6.9731">
        <ele>1183.04</ele>
        <time>2021-06-27T12:42:38Z</time>
      </trkpt>
      <trkpt lat="48.00803" lon="6.97314">
        <ele>1182.56</ele>
        <time>2021-06-27T12:42:51Z</time>
      </trkpt>
      <trkpt lat="48.008" lon="6.97312">
        <ele>1182.56</ele>
        <time>2021-06-27T12:42:55Z</time>
      </trkpt>
      <trkpt lat="48.00788" lon="6.97305">
        <ele>1182.08</ele>
        <time>2021-06-27T12:43:10Z</time>
      </trkpt>
      <trkpt lat="48.00784" lon="6.97285">
        <ele>1177.27</ele>
        <time>2021-06-27T12:43:26Z</time>
      </trkpt>
      <trkpt lat="48.00778" lon="6.97267">
        <ele>1173.91</ele>
        <time>2021-06-27T12:43:45Z</time>
      </trkpt>
      <trkpt lat="48.00772" lon="6.9725">
        <ele>1172.95</ele>
        <time>2021-06-27T12:44:00Z</time>
      </trkpt>
      <trkpt lat="48.00761" lon="6.97235">
        <ele>1173.43</ele>
        <time>2021-06-27T12:44:15Z</time>
      </trkpt>
      <trkpt lat="48.00758" lon="6.97229">
        <ele>1172.47</ele>
        <time>2021-06-27T12:44:19Z</time>
      </trkpt>
      <trkpt lat="48.00747" lon="6.97197">
        <ele>1165.74</ele>
        <time>2021-06-27T12:44:38Z</time>
      </trkpt>
      <trkpt lat="48.00746" lon="6.97184">
        <ele>1164.29</ele>
        <time>2021-06-27T12:44:51Z</time>
      </trkpt>
      <trkpt lat="48.00743" lon="6.97175">
        <ele>1161.89</ele>
        <time>2021-06-27T12:44:59Z</time>
      </trkpt>
      <trkpt lat="48.00738" lon="6.97161">
        <ele>1158.53</ele>
        <time>2021-06-27T12:45:13Z</time>
      </trkpt>
      <trkpt lat="48.00733" lon="6.97152">
        <ele>1157.08</ele>
        <time>2021-06-27T12:45:22Z</time>
      </trkpt>
      <trkpt lat="48.00722" lon="6.97139">
        <ele>1158.53</ele>
        <time>2021-06-27T12:45:35Z</time>
      </trkpt>
      <trkpt lat="48.00721" lon="6.97138">
        <ele>1159.01</ele>
        <time>2021-06-27T12:45:36Z</time>
      </trkpt>
      <trkpt lat="48.00715" lon="6.9713">
        <ele>1157.56</ele>
        <time>2021-06-27T12:45:42Z</time>
      </trkpt>
      <trkpt lat="48.00701" lon="6.97116">
        <ele>1157.08</ele>
        <time>2021-06-27T12:45:59Z</time>
      </trkpt>
      <trkpt lat="48.007" lon="6.97113">
        <ele>1156.6</ele>
        <time>2021-06-27T12:46:02Z</time>
      </trkpt>
      <trkpt lat="48.00699" lon="6.97108">
        <ele>1155.16</ele>
        <time>2021-06-27T12:46:06Z</time>
      </trkpt>
      <trkpt lat="48.00691" lon="6.97096">
        <ele>1152.76</ele>
        <time>2021-06-27T12:46:17Z</time>
      </trkpt>
      <trkpt lat="48.00677" lon="6.97074">
        <ele>1147.95</ele>
        <time>2021-06-27T12:46:34Z</time>
      </trkpt>
      <trkpt lat="48.00676" lon="6.97071">
        <ele>1147.47</ele>
        <time>2021-06-27T12:46:36Z</time>
      </trkpt>
      <trkpt lat="48.00661" lon="6.97052">
        <ele>1145.07</ele>
        <time>2021-06-27T12:46:53Z</time>
      </trkpt>
      <trkpt lat="48.00655" lon="6.97041">
        <ele>1144.11</ele>
        <time>2021-06-27T12:47:02Z</time>
      </trkpt>
      <trkpt lat="48.00653" lon="6.97033">
        <ele>1143.63</ele>
        <time>2021-06-27T12:47:09Z</time>
      </trkpt>
      <trkpt lat="48.00652" lon="6.9702">
        <ele>1142.18</ele>
        <time>2021-06-27T12:47:18Z</time>
      </trkpt>
      <trkpt lat="48.00652" lon="6.97001">
        <ele>1138.34</ele>
        <time>2021-06-27T12:47:32Z</time>
      </trkpt>
      <trkpt lat="48.00652" lon="6.96984">
        <ele>1136.42</ele>
        <time>2021-06-27T12:47:46Z</time>
      </trkpt>
      <trkpt lat="48.00647" lon="6.96965">
        <ele>1132.09</ele>
        <time>2021-06-27T12:48:00Z</time>
      </trkpt>
      <trkpt lat="48.00645" lon="6.96941">
        <ele>1127.76</ele>
        <time>2021-06-27T12:48:17Z</time>
      </trkpt>
      <trkpt lat="48.00639" lon="6.9692">
        <ele>1123.92</ele>
        <time>2021-06-27T12:48:33Z</time>
      </trkpt>
      <trkpt lat="48.00633" lon="6.96898">
        <ele>1123.92</ele>
        <time>2021-06-27T12:48:50Z</time>
      </trkpt>
      <trkpt lat="48.00622" lon="6.96885">
        <ele>1122.96</ele>
        <time>2021-06-27T12:49:06Z</time>
      </trkpt>
      <trkpt lat="48.00608" lon="6.96888">
        <ele>1120.07</ele>
        <time>2021-06-27T12:49:20Z</time>
      </trkpt>
      <trkpt lat="48.00596" lon="6.96899">
        <ele>1120.07</ele>
        <time>2021-06-27T12:49:35Z</time>
      </trkpt>
      <trkpt lat="48.00593" lon="6.96905">
        <ele>1119.11</ele>
        <time>2021-06-27T12:49:42Z</time>
      </trkpt>
      <trkpt lat="48.00588" lon="6.96913">
        <ele>1118.63</ele>
        <time>2021-06-27T12:49:50Z</time>
      </trkpt>
      <trkpt lat="48.00576" lon="6.96931">
        <ele>1119.11</ele>
        <time>2021-06-27T12:50:06Z</time>
      </trkpt>
      <trkpt lat="48.00575" lon="6.9693">
        <ele>1117.67</ele>
        <time>2021-06-27T12:50:20Z</time>
      </trkpt>
      <trkpt lat="48.00578" lon="6.96913">
        <ele>1115.27</ele>
        <time>2021-06-27T12:50:35Z</time>
      </trkpt>
      <trkpt lat="48.00575" lon="6.96906">
        <ele>1111.42</ele>
        <time>2021-06-27T12:50:49Z</time>
      </trkpt>
      <trkpt lat="48.00564" lon="6.96918">
        <ele>1105.17</ele>
        <time>2021-06-27T12:51:05Z</time>
      </trkpt>
      <trkpt lat="48.00561" lon="6.96921">
        <ele>1104.69</ele>
        <time>2021-06-27T12:51:08Z</time>
      </trkpt>
      <trkpt lat="48.00556" lon="6.96923">
        <ele>1101.81</ele>
        <time>2021-06-27T12:51:24Z</time>
      </trkpt>
      <trkpt lat="48.00552" lon="6.96912">
        <ele>1099.89</ele>
        <time>2021-06-27T12:51:40Z</time>
      </trkpt>
      <trkpt lat="48.0054" lon="6.9692">
        <ele>1096.04</ele>
        <time>2021-06-27T12:51:58Z</time>
      </trkpt>
      <trkpt lat="48.00538" lon="6.96911">
        <ele>1091.23</ele>
        <time>2021-06-27T12:52:14Z</time>
      </trkpt>
      <trkpt lat="48.00534" lon="6.96922">
        <ele>1085.47</ele>
        <time>2021-06-27T12:52:39Z</time>
      </trkpt>
      <trkpt lat="48.00529" lon="6.96935">
        <ele>1080.66</ele>
        <time>2021-06-27T12:52:51Z</time>
      </trkpt>
      <trkpt lat="48.00527" lon="6.96935">
        <ele>1074.41</ele>
        <time>2021-06-27T12:53:05Z</time>
      </trkpt>
      <trkpt lat="48.00528" lon="6.96916">
        <ele>1067.2</ele>
        <time>2021-06-27T12:53:21Z</time>
      </trkpt>
      <trkpt lat="48.00527" lon="6.96897">
        <ele>1062.39</ele>
        <time>2021-06-27T12:53:35Z</time>
      </trkpt>
      <trkpt lat="48.00526" lon="6.96907">
        <ele>1059.99</ele>
        <time>2021-06-27T12:53:43Z</time>
      </trkpt>
      <trkpt lat="48.00517" lon="6.96916">
        <ele>1058.55</ele>
        <time>2021-06-27T12:54:01Z</time>
      </trkpt>
      <trkpt lat="48.00515" lon="6.96912">
        <ele>1057.59</ele>
        <time>2021-06-27T12:54:06Z</time>
      </trkpt>
      <trkpt lat="48.00505" lon="6.96895">
        <ele>1055.18</ele>
        <time>2021-06-27T12:54:21Z</time>
      </trkpt>
      <trkpt lat="48.00493" lon="6.96873">
        <ele>1052.3</ele>
        <time>2021-06-27T12:54:39Z</time>
      </trkpt>
      <trkpt lat="48.00491" lon="6.96855">
        <ele>1051.82</ele>
        <time>2021-06-27T12:54:53Z</time>
      </trkpt>
      <trkpt lat="48.00481" lon="6.96853">
        <ele>1050.86</ele>
        <time>2021-06-27T12:55:06Z</time>
      </trkpt>
      <trkpt lat="48.00474" lon="6.96838">
        <ele>1048.94</ele>
        <time>2021-06-27T12:55:21Z</time>
      </trkpt>
      <trkpt lat="48.00469" lon="6.96824">
        <ele>1047.49</ele>
        <time>2021-06-27T12:55:38Z</time>
      </trkpt>
      <trkpt lat="48.00454" lon="6.96827">
        <ele>1047.97</ele>
        <time>2021-06-27T12:55:53Z</time>
      </trkpt>
      <trkpt lat="48.00449" lon="6.96821">
        <ele>1048.45</ele>
        <time>2021-06-27T12:56:04Z</time>
      </trkpt>
      <trkpt lat="48.00441" lon="6.96815">
        <ele>1047.01</ele>
        <time>2021-06-27T12:56:20Z</time>
      </trkpt>
      <trkpt lat="48.0044" lon="6.96815">
        <ele>1047.01</ele>
        <time>2021-06-27T12:56:21Z</time>
      </trkpt>
      <trkpt lat="48.00427" lon="6.96812">
        <ele>1046.53</ele>
        <time>2021-06-27T12:56:37Z</time>
      </trkpt>
      <trkpt lat="48.00418" lon="6.96801">
        <ele>1042.21</ele>
        <time>2021-06-27T12:56:53Z</time>
      </trkpt>
      <trkpt lat="48.00417" lon="6.968">
        <ele>1041.73</ele>
        <time>2021-06-27T12:56:54Z</time>
      </trkpt>
      <trkpt lat="48.00421" lon="6.96783">
        <ele>1034.52</ele>
        <time>2021-06-27T12:57:11Z</time>
      </trkpt>
      <trkpt lat="48.00415" lon="6.96772">
        <ele>1030.67</ele>
        <time>2021-06-27T12:57:24Z</time>
      </trkpt>
      <trkpt lat="48.00412" lon="6.96769">
        <ele>1029.71</ele>
        <time>2021-06-27T12:57:28Z</time>
      </trkpt>
      <trkpt lat="48.00403" lon="6.96754">
        <ele>1025.38</ele>
        <time>2021-06-27T12:57:44Z</time>
      </trkpt>
      <trkpt lat="48.00392" lon="6.96736">
        <ele>1021.06</ele>
        <time>2021-06-27T12:58:02Z</time>
      </trkpt>
      <trkpt lat="48.00392" lon="6.96723">
        <ele>1021.06</ele>
        <time>2021-06-27T12:58:18Z</time>
      </trkpt>
      <trkpt lat="48.00391" lon="6.96709">
        <ele>1019.13</ele>
        <time>2021-06-27T12:58:33Z</time>
      </trkpt>
      <trkpt lat="48.00388" lon="6.96702">
        <ele>1018.65</ele>
        <time>2021-06-27T12:58:51Z</time>
      </trkpt>
      <trkpt lat="48.00389" lon="6.96714">
        <ele>1019.13</ele>
        <time>2021-06-27T12:59:22Z</time>
      </trkpt>
      <trkpt lat="48.00392" lon="6.96706">
        <ele>1016.73</ele>
        <time>2021-06-27T12:59:56Z</time>
      </trkpt>
      <trkpt lat="48.00393" lon="6.96688">
        <ele>1013.37</ele>
        <time>2021-06-27T13:00:24Z</time>
      </trkpt>
      <trkpt lat="48.00388" lon="6.96697">
        <ele>1014.33</ele>
        <time>2021-06-27T13:00:37Z</time>
      </trkpt>
      <trkpt lat="48.00387" lon="6.96712">
        <ele>1016.25</ele>
        <time>2021-06-27T13:00:54Z</time>
      </trkpt>
      <trkpt lat="48.00385" lon="6.96719">
        <ele>1017.69</ele>
        <time>2021-06-27T13:01:13Z</time>
      </trkpt>
      <trkpt lat="48.00395" lon="6.96731">
        <ele>1018.65</ele>
        <time>2021-06-27T13:01:31Z</time>
      </trkpt>
      <trkpt lat="48.00406" lon="6.96752">
        <ele>1022.98</ele>
        <time>2021-06-27T13:01:48Z</time>
      </trkpt>
      <trkpt lat="48.00407" lon="6.96771">
        <ele>1022.5</ele>
        <time>2021-06-27T13:02:01Z</time>
      </trkpt>
      <trkpt lat="48.00419" lon="6.96782">
        <ele>1027.31</ele>
        <time>2021-06-27T13:02:16Z</time>
      </trkpt>
      <trkpt lat="48.00429" lon="6.96783">
        <ele>1030.19</ele>
        <time>2021-06-27T13:02:27Z</time>
      </trkpt>
      <trkpt lat="48.00438" lon="6.96779">
        <ele>1032.59</ele>
        <time>2021-06-27T13:02:40Z</time>
      </trkpt>
      <trkpt lat="48.00452" lon="6.96777">
        <ele>1036.92</ele>
        <time>2021-06-27T13:02:57Z</time>
      </trkpt>
      <trkpt lat="48.00472" lon="6.96778">
        <ele>1038.84</ele>
        <time>2021-06-27T13:03:16Z</time>
      </trkpt>
      <trkpt lat="48.00486" lon="6.96775">
        <ele>1041.73</ele>
        <time>2021-06-27T13:03:34Z</time>
      </trkpt>
      <trkpt lat="48.00505" lon="6.96765">
        <ele>1046.05</ele>
        <time>2021-06-27T13:03:53Z</time>
      </trkpt>
      <trkpt lat="48.0052" lon="6.96754">
        <ele>1047.49</ele>
        <time>2021-06-27T13:04:12Z</time>
      </trkpt>
      <trkpt lat="48.00531" lon="6.96747">
        <ele>1048.45</ele>
        <time>2021-06-27T13:04:26Z</time>
      </trkpt>
      <trkpt lat="48.00537" lon="6.96737">
        <ele>1048.45</ele>
        <time>2021-06-27T13:04:40Z</time>
      </trkpt>
      <trkpt lat="48.00547" lon="6.96732">
        <ele>1045.57</ele>
        <time>2021-06-27T13:05:04Z</time>
      </trkpt>
      <trkpt lat="48.00546" lon="6.96728">
        <ele>1040.76</ele>
        <time>2021-06-27T13:05:37Z</time>
      </trkpt>
      <trkpt lat="48.00544" lon="6.96729">
        <ele>1041.73</ele>
        <time>2021-06-27T13:06:00Z</time>
      </trkpt>
      <trkpt lat="48.00546" lon="6.9673">
        <ele>1042.21</ele>
        <time>2021-06-27T13:06:37Z</time>
      </trkpt>
      <trkpt lat="48.00548" lon="6.96733">
        <ele>1045.57</ele>
        <time>2021-06-27T13:07:13Z</time>
      </trkpt>
      <trkpt lat="48.00551" lon="6.96735">
        <ele>1042.69</ele>
        <time>2021-06-27T13:07:48Z</time>
      </trkpt>
      <trkpt lat="48.00547" lon="6.96733">
        <ele>1042.21</ele>
        <time>2021-06-27T13:08:10Z</time>
      </trkpt>
      <trkpt lat="48.00544" lon="6.96724">
        <ele>1041.73</ele>
        <time>2021-06-27T13:08:39Z</time>
      </trkpt>
      <trkpt lat="48.00552" lon="6.96725">
        <ele>1040.76</ele>
        <time>2021-06-27T13:09:09Z</time>
      </trkpt>
      <trkpt lat="48.00543" lon="6.96727">
        <ele>1047.01</ele>
        <time>2021-06-27T13:09:30Z</time>
      </trkpt>
      <trkpt lat="48.00524" lon="6.96734">
        <ele>1050.86</ele>
        <time>2021-06-27T13:09:48Z</time>
      </trkpt>
      <trkpt lat="48.00517" lon="6.96738">
        <ele>1051.82</ele>
        <time>2021-06-27T13:09:57Z</time>
      </trkpt>
      <trkpt lat="48.0051" lon="6.96745">
        <ele>1052.78</ele>
        <time>2021-06-27T13:10:14Z</time>
      </trkpt>
      <trkpt lat="48.00488" lon="6.96758">
        <ele>1047.49</ele>
        <time>2021-06-27T13:10:34Z</time>
      </trkpt>
      <trkpt lat="48.00466" lon="6.96761">
        <ele>1044.13</ele>
        <time>2021-06-27T13:10:54Z</time>
      </trkpt>
      <trkpt lat="48.00457" lon="6.9676">
        <ele>1043.65</ele>
        <time>2021-06-27T13:11:12Z</time>
      </trkpt>
      <trkpt lat="48.00443" lon="6.96763">
        <ele>1042.21</ele>
        <time>2021-06-27T13:11:33Z</time>
      </trkpt>
      <trkpt lat="48.00421" lon="6.96767">
        <ele>1040.28</ele>
        <time>2021-06-27T13:11:49Z</time>
      </trkpt>
      <trkpt lat="48.00413" lon="6.96759">
        <ele>1040.28</ele>
        <time>2021-06-27T13:11:59Z</time>
      </trkpt>
      <trkpt lat="48.0041" lon="6.96745">
        <ele>1040.28</ele>
        <time>2021-06-27T13:12:16Z</time>
      </trkpt>
      <trkpt lat="48.00405" lon="6.9673">
        <ele>1040.76</ele>
        <time>2021-06-27T13:12:31Z</time>
      </trkpt>
      <trkpt lat="48.00395" lon="6.96706">
        <ele>1037.88</ele>
        <time>2021-06-27T13:12:48Z</time>
      </trkpt>
      <trkpt lat="48.00392" lon="6.96682">
        <ele>1034.04</ele>
        <time>2021-06-27T13:13:04Z</time>
      </trkpt>
      <trkpt lat="48.00391" lon="6.96665">
        <ele>1034.04</ele>
        <time>2021-06-27T13:13:19Z</time>
      </trkpt>
      <trkpt lat="48.00391" lon="6.96663">
        <ele>1034.04</ele>
        <time>2021-06-27T13:13:21Z</time>
      </trkpt>
      <trkpt lat="48.0039" lon="6.96641">
        <ele>1031.15</ele>
        <time>2021-06-27T13:13:37Z</time>
      </trkpt>
      <trkpt lat="48.0039" lon="6.96632">
        <ele>1028.75</ele>
        <time>2021-06-27T13:13:42Z</time>
      </trkpt>
      <trkpt lat="48.00384" lon="6.96602">
        <ele>1021.06</ele>
        <time>2021-06-27T13:13:59Z</time>
      </trkpt>
      <trkpt lat="48.00386" lon="6.96591">
        <ele>1018.65</ele>
        <time>2021-06-27T13:14:16Z</time>
      </trkpt>
      <trkpt lat="48.00392" lon="6.96596">
        <ele>1018.65</ele>
        <time>2021-06-27T13:14:24Z</time>
      </trkpt>
      <trkpt lat="48.00394" lon="6.96598">
        <ele>1018.65</ele>
        <time>2021-06-27T13:14:26Z</time>
      </trkpt>
      <trkpt lat="48.00405" lon="6.96612">
        <ele>1017.69</ele>
        <time>2021-06-27T13:14:43Z</time>
      </trkpt>
      <trkpt lat="48.0042" lon="6.96625">
        <ele>1016.25</ele>
        <time>2021-06-27T13:15:00Z</time>
      </trkpt>
      <trkpt lat="48.00421" lon="6.96626">
        <ele>1016.25</ele>
        <time>2021-06-27T13:15:01Z</time>
      </trkpt>
      <trkpt lat="48.00435" lon="6.96636">
        <ele>1014.81</ele>
        <time>2021-06-27T13:15:19Z</time>
      </trkpt>
      <trkpt lat="48.00451" lon="6.96639">
        <ele>1011.93</ele>
        <time>2021-06-27T13:15:39Z</time>
      </trkpt>
      <trkpt lat="48.00466" lon="6.9664">
        <ele>1011.44</ele>
        <time>2021-06-27T13:15:56Z</time>
      </trkpt>
      <trkpt lat="48.00484" lon="6.96638">
        <ele>1012.89</ele>
        <time>2021-06-27T13:16:15Z</time>
      </trkpt>
      <trkpt lat="48.00507" lon="6.96629">
        <ele>1015.77</ele>
        <time>2021-06-27T13:16:34Z</time>
      </trkpt>
      <trkpt lat="48.00519" lon="6.96612">
        <ele>1009.52</ele>
        <time>2021-06-27T13:16:50Z</time>
      </trkpt>
      <trkpt lat="48.00521" lon="6.96605">
        <ele>1003.27</ele>
        <time>2021-06-27T13:17:26Z</time>
      </trkpt>
      <trkpt lat="48.00519" lon="6.96603">
        <ele>1015.29</ele>
        <time>2021-06-27T13:17:52Z</time>
      </trkpt>
      <trkpt lat="48.00521" lon="6.96614">
        <ele>1017.21</ele>
        <time>2021-06-27T13:18:28Z</time>
      </trkpt>
      <trkpt lat="48.00526" lon="6.96619">
        <ele>1014.33</ele>
        <time>2021-06-27T13:18:50Z</time>
      </trkpt>
      <trkpt lat="48.00536" lon="6.96617">
        <ele>1007.12</ele>
        <time>2021-06-27T13:19:08Z</time>
      </trkpt>
      <trkpt lat="48.00551" lon="6.96605">
        <ele>1008.08</ele>
        <time>2021-06-27T13:19:26Z</time>
      </trkpt>
      <trkpt lat="48.00569" lon="6.96593">
        <ele>1004.23</ele>
        <time>2021-06-27T13:19:44Z</time>
      </trkpt>
      <trkpt lat="48.0058" lon="6.96581">
        <ele>1003.75</ele>
        <time>2021-06-27T13:19:58Z</time>
      </trkpt>
      <trkpt lat="48.00604" lon="6.96557">
        <ele>1004.23</ele>
        <time>2021-06-27T13:20:15Z</time>
      </trkpt>
      <trkpt lat="48.00618" lon="6.96532">
        <ele>1004.23</ele>
        <time>2021-06-27T13:20:32Z</time>
      </trkpt>
      <trkpt lat="48.0063" lon="6.96511">
        <ele>1004.23</ele>
        <time>2021-06-27T13:20:51Z</time>
      </trkpt>
      <trkpt lat="48.00648" lon="6.96483">
        <ele>998.95</ele>
        <time>2021-06-27T13:21:11Z</time>
      </trkpt>
      <trkpt lat="48.00655" lon="6.96462">
        <ele>1001.35</ele>
        <time>2021-06-27T13:21:28Z</time>
      </trkpt>
      <trkpt lat="48.00669" lon="6.96436">
        <ele>1004.23</ele>
        <time>2021-06-27T13:21:47Z</time>
      </trkpt>
      <trkpt lat="48.00686" lon="6.96417">
        <ele>1004.72</ele>
        <time>2021-06-27T13:22:06Z</time>
      </trkpt>
      <trkpt lat="48.00697" lon="6.96405">
        <ele>1003.75</ele>
        <time>2021-06-27T13:22:21Z</time>
      </trkpt>
      <trkpt lat="48.00711" lon="6.96395">
        <ele>1001.83</ele>
        <time>2021-06-27T13:22:36Z</time>
      </trkpt>
      <trkpt lat="48.00729" lon="6.96386">
        <ele>1001.83</ele>
        <time>2021-06-27T13:22:54Z</time>
      </trkpt>
      <trkpt lat="48.00751" lon="6.96369">
        <ele>1002.31</ele>
        <time>2021-06-27T13:23:12Z</time>
      </trkpt>
      <trkpt lat="48.00768" lon="6.96341">
        <ele>1004.23</ele>
        <time>2021-06-27T13:23:30Z</time>
      </trkpt>
      <trkpt lat="48.00776" lon="6.96328">
        <ele>1000.87</ele>
        <time>2021-06-27T13:23:43Z</time>
      </trkpt>
      <trkpt lat="48.00785" lon="6.96307">
        <ele>999.91</ele>
        <time>2021-06-27T13:24:02Z</time>
      </trkpt>
      <trkpt lat="48.00791" lon="6.96291">
        <ele>999.43</ele>
        <time>2021-06-27T13:24:16Z</time>
      </trkpt>
      <trkpt lat="48.00812" lon="6.96265">
        <ele>999.91</ele>
        <time>2021-06-27T13:24:37Z</time>
      </trkpt>
      <trkpt lat="48.00825" lon="6.96234">
        <ele>997.02</ele>
        <time>2021-06-27T13:24:56Z</time>
      </trkpt>
      <trkpt lat="48.00823" lon="6.96232">
        <ele>995.1</ele>
        <time>2021-06-27T13:25:22Z</time>
      </trkpt>
      <trkpt lat="48.00829" lon="6.96235">
        <ele>991.74</ele>
        <time>2021-06-27T13:25:49Z</time>
      </trkpt>
      <trkpt lat="48.0083" lon="6.96235">
        <ele>992.22</ele>
        <time>2021-06-27T13:25:52Z</time>
      </trkpt>
      <trkpt lat="48.00842" lon="6.96225">
        <ele>994.62</ele>
        <time>2021-06-27T13:26:10Z</time>
      </trkpt>
      <trkpt lat="48.00857" lon="6.96199">
        <ele>995.58</ele>
        <time>2021-06-27T13:26:30Z</time>
      </trkpt>
      <trkpt lat="48.00866" lon="6.96193">
        <ele>995.58</ele>
        <time>2021-06-27T13:26:41Z</time>
      </trkpt>
      <trkpt lat="48.00883" lon="6.96185">
        <ele>993.18</ele>
        <time>2021-06-27T13:26:58Z</time>
      </trkpt>
      <trkpt lat="48.00908" lon="6.96172">
        <ele>994.14</ele>
        <time>2021-06-27T13:27:17Z</time>
      </trkpt>
      <trkpt lat="48.0093" lon="6.96143">
        <ele>999.43</ele>
        <time>2021-06-27T13:27:37Z</time>
      </trkpt>
      <trkpt lat="48.00936" lon="6.96129">
        <ele>999.91</ele>
        <time>2021-06-27T13:27:46Z</time>
      </trkpt>
      <trkpt lat="48.0094" lon="6.96105">
        <ele>996.54</ele>
        <time>2021-06-27T13:28:00Z</time>
      </trkpt>
      <trkpt lat="48.0094" lon="6.96086">
        <ele>995.1</ele>
        <time>2021-06-27T13:28:13Z</time>
      </trkpt>
      <trkpt lat="48.0093" lon="6.96078">
        <ele>993.18</ele>
        <time>2021-06-27T13:28:31Z</time>
      </trkpt>
      <trkpt lat="48.00932" lon="6.96076">
        <ele>994.14</ele>
        <time>2021-06-27T13:28:50Z</time>
      </trkpt>
      <trkpt lat="48.00936" lon="6.96079">
        <ele>989.81</ele>
        <time>2021-06-27T13:29:11Z</time>
      </trkpt>
      <trkpt lat="48.00941" lon="6.96081">
        <ele>989.81</ele>
        <time>2021-06-27T13:29:17Z</time>
      </trkpt>
      <trkpt lat="48.00946" lon="6.96057">
        <ele>989.33</ele>
        <time>2021-06-27T13:29:33Z</time>
      </trkpt>
      <trkpt lat="48.00949" lon="6.96052">
        <ele>988.85</ele>
        <time>2021-06-27T13:29:45Z</time>
      </trkpt>
      <trkpt lat="48.00953" lon="6.96027">
        <ele>987.89</ele>
        <time>2021-06-27T13:30:00Z</time>
      </trkpt>
      <trkpt lat="48.00951" lon="6.95999">
        <ele>984.05</ele>
        <time>2021-06-27T13:30:16Z</time>
      </trkpt>
      <trkpt lat="48.00953" lon="6.95972">
        <ele>985.01</ele>
        <time>2021-06-27T13:30:31Z</time>
      </trkpt>
      <trkpt lat="48.00947" lon="6.95961">
        <ele>994.14</ele>
        <time>2021-06-27T13:30:47Z</time>
      </trkpt>
      <trkpt lat="48.00947" lon="6.95964">
        <ele>994.62</ele>
        <time>2021-06-27T13:31:07Z</time>
      </trkpt>
      <trkpt lat="48.00945" lon="6.95966">
        <ele>998.47</ele>
        <time>2021-06-27T13:31:37Z</time>
      </trkpt>
      <trkpt lat="48.00946" lon="6.9596">
        <ele>998.95</ele>
        <time>2021-06-27T13:32:04Z</time>
      </trkpt>
      <trkpt lat="48.00958" lon="6.9593">
        <ele>993.18</ele>
        <time>2021-06-27T13:32:19Z</time>
      </trkpt>
      <trkpt lat="48.00961" lon="6.9592">
        <ele>991.26</ele>
        <time>2021-06-27T13:32:25Z</time>
      </trkpt>
      <trkpt lat="48.00962" lon="6.95907">
        <ele>988.85</ele>
        <time>2021-06-27T13:32:34Z</time>
      </trkpt>
      <trkpt lat="48.00969" lon="6.959">
        <ele>987.41</ele>
        <time>2021-06-27T13:32:46Z</time>
      </trkpt>
      <trkpt lat="48.00974" lon="6.95877">
        <ele>985.01</ele>
        <time>2021-06-27T13:33:00Z</time>
      </trkpt>
      <trkpt lat="48.00971" lon="6.95853">
        <ele>982.6</ele>
        <time>2021-06-27T13:33:13Z</time>
      </trkpt>
      <trkpt lat="48.00973" lon="6.9583">
        <ele>982.6</ele>
        <time>2021-06-27T13:33:27Z</time>
      </trkpt>
      <trkpt lat="48.00974" lon="6.95821">
        <ele>982.6</ele>
        <time>2021-06-27T13:33:34Z</time>
      </trkpt>
      <trkpt lat="48.00978" lon="6.958">
        <ele>982.12</ele>
        <time>2021-06-27T13:33:47Z</time>
      </trkpt>
      <trkpt lat="48.00982" lon="6.95772">
        <ele>979.72</ele>
        <time>2021-06-27T13:34:03Z</time>
      </trkpt>
      <trkpt lat="48.00986" lon="6.95761">
        <ele>979.72</ele>
        <time>2021-06-27T13:34:10Z</time>
      </trkpt>
      <trkpt lat="48.00999" lon="6.95752">
        <ele>978.76</ele>
        <time>2021-06-27T13:34:26Z</time>
      </trkpt>
      <trkpt lat="48.01003" lon="6.95748">
        <ele>979.24</ele>
        <time>2021-06-27T13:34:33Z</time>
      </trkpt>
      <trkpt lat="48.0101" lon="6.95729">
        <ele>978.28</ele>
        <time>2021-06-27T13:34:46Z</time>
      </trkpt>
      <trkpt lat="48.01015" lon="6.95704">
        <ele>975.88</ele>
        <time>2021-06-27T13:35:02Z</time>
      </trkpt>
      <trkpt lat="48.01016" lon="6.95703">
        <ele>975.88</ele>
        <time>2021-06-27T13:35:03Z</time>
      </trkpt>
      <trkpt lat="48.01022" lon="6.95679">
        <ele>973.47</ele>
        <time>2021-06-27T13:35:21Z</time>
      </trkpt>
      <trkpt lat="48.01019" lon="6.9566">
        <ele>973.95</ele>
        <time>2021-06-27T13:35:34Z</time>
      </trkpt>
      <trkpt lat="48.01032" lon="6.95647">
        <ele>974.43</ele>
        <time>2021-06-27T13:35:49Z</time>
      </trkpt>
      <trkpt lat="48.01035" lon="6.95645">
        <ele>975.88</ele>
        <time>2021-06-27T13:35:54Z</time>
      </trkpt>
      <trkpt lat="48.01035" lon="6.95638">
        <ele>979.24</ele>
        <time>2021-06-27T13:36:08Z</time>
      </trkpt>
      <trkpt lat="48.01031" lon="6.9563">
        <ele>982.12</ele>
        <time>2021-06-27T13:36:34Z</time>
      </trkpt>
      <trkpt lat="48.01034" lon="6.9563">
        <ele>985.01</ele>
        <time>2021-06-27T13:37:08Z</time>
      </trkpt>
      <trkpt lat="48.0104" lon="6.95631">
        <ele>984.05</ele>
        <time>2021-06-27T13:37:38Z</time>
      </trkpt>
      <trkpt lat="48.0104" lon="6.95635">
        <ele>983.09</ele>
        <time>2021-06-27T13:38:14Z</time>
      </trkpt>
      <trkpt lat="48.01037" lon="6.95636">
        <ele>988.85</ele>
        <time>2021-06-27T13:38:44Z</time>
      </trkpt>
      <trkpt lat="48.01036" lon="6.95635">
        <ele>989.33</ele>
        <time>2021-06-27T13:39:17Z</time>
      </trkpt>
      <trkpt lat="48.01037" lon="6.9564">
        <ele>990.78</ele>
        <time>2021-06-27T13:39:33Z</time>
      </trkpt>
      <trkpt lat="48.01038" lon="6.95644">
        <ele>990.3</ele>
        <time>2021-06-27T13:39:36Z</time>
      </trkpt>
      <trkpt lat="48.01035" lon="6.9565">
        <ele>990.3</ele>
        <time>2021-06-27T13:39:39Z</time>
      </trkpt>
      <trkpt lat="48.01033" lon="6.95652">
        <ele>990.3</ele>
        <time>2021-06-27T13:39:40Z</time>
      </trkpt>
      <trkpt lat="48.01031" lon="6.95653">
        <ele>990.3</ele>
        <time>2021-06-27T13:39:41Z</time>
      </trkpt>
      <trkpt lat="48.0102" lon="6.95656">
        <ele>987.41</ele>
        <time>2021-06-27T13:39:55Z</time>
      </trkpt>
      <trkpt lat="48.01005" lon="6.95641">
        <ele>985.49</ele>
        <time>2021-06-27T13:40:04Z</time>
      </trkpt>
      <trkpt lat="48.01002" lon="6.95635">
        <ele>985.49</ele>
        <time>2021-06-27T13:40:05Z</time>
      </trkpt>
      <trkpt lat="48.01" lon="6.95628">
        <ele>985.49</ele>
        <time>2021-06-27T13:40:06Z</time>
      </trkpt>
      <trkpt lat="48.00998" lon="6.9562">
        <ele>985.49</ele>
        <time>2021-06-27T13:40:07Z</time>
      </trkpt>
      <trkpt lat="48.00997" lon="6.95611">
        <ele>985.49</ele>
        <time>2021-06-27T13:40:08Z</time>
      </trkpt>
      <trkpt lat="48.00984" lon="6.9555">
        <ele>985.49</ele>
        <time>2021-06-27T13:40:15Z</time>
      </trkpt>
    </trkseg>
  </trk>
</gpx>